<?xml version="1.0" encoding="UTF-8" standalone="no" ?>
<gpx xmlns="http://www.topografix.com/GPX/1/1" xmlns:xsi="http://www.w3.org/2001/XMLSchema-instance" xsi:schemaLocation="http://www.topografix.com/GPX/1/1 http://www.topografix.com/GPX/1/1/gpx.xsd" version="1.1" creator="VisuGPX - https://www.visugpx.com">
  <metadata>
    <name>Auvernier, Cortaillod</name>
  </metadata>
  <trk>
    <name><![CDATA[Auvernier, Cortaillod]]></name>
    <extensions>
      <line xmlns="http://www.topografix.com/GPX/gpx_style/0/2">
        <color>0000FF</color>
        <width>4</width>
      </line>
    </extensions>
    <trkseg>
      <trkpt lat="46.97258" lon="6.87458">
        <ele>430.5</ele>
        <time>2022-02-18T10:20:00.000Z</time>
      </trkpt>
      <trkpt lat="46.97256" lon="6.87453">
        <ele>430.5</ele>
        <time>2022-02-18T10:20:04.012Z</time>
      </trkpt>
      <trkpt lat="46.97247" lon="6.87434">
        <ele>430.29998779297</ele>
        <time>2022-02-18T10:20:09.440Z</time>
      </trkpt>
      <trkpt lat="46.97243" lon="6.8743">
        <ele>430.5</ele>
        <time>2022-02-18T10:20:17.342Z</time>
      </trkpt>
      <trkpt lat="46.97241" lon="6.87428">
        <ele>430.5</ele>
        <time>2022-02-18T10:20:19.798Z</time>
      </trkpt>
      <trkpt lat="46.97234" lon="6.87426">
        <ele>430.29998779297</ele>
        <time>2022-02-18T10:20:21.846Z</time>
      </trkpt>
      <trkpt lat="46.97228" lon="6.87423">
        <ele>430.39999389648</ele>
        <time>2022-02-18T10:20:29.364Z</time>
      </trkpt>
      <trkpt lat="46.97222" lon="6.87415">
        <ele>430.39999389648</ele>
        <time>2022-02-18T10:20:37.593Z</time>
      </trkpt>
      <trkpt lat="46.97195" lon="6.87367">
        <ele>430.19999694824</ele>
        <time>2022-02-18T10:21:17.754Z</time>
      </trkpt>
      <trkpt lat="46.97177" lon="6.87338">
        <ele>430.19999694824</ele>
        <time>2022-02-18T10:21:44.891Z</time>
      </trkpt>
      <trkpt lat="46.97166" lon="6.87323">
        <ele>430</ele>
        <time>2022-02-18T10:21:50.017Z</time>
      </trkpt>
      <trkpt lat="46.97152" lon="6.87302">
        <ele>430</ele>
        <time>2022-02-18T10:22:10.340Z</time>
      </trkpt>
      <trkpt lat="46.97139" lon="6.87286">
        <ele>430</ele>
        <time>2022-02-18T10:22:27.561Z</time>
      </trkpt>
      <trkpt lat="46.97106" lon="6.87245">
        <ele>430.5</ele>
        <time>2022-02-18T10:23:16.646Z</time>
      </trkpt>
      <trkpt lat="46.97103" lon="6.8724">
        <ele>430.39999389648</ele>
        <time>2022-02-18T10:23:18.042Z</time>
      </trkpt>
      <trkpt lat="46.971" lon="6.87229">
        <ele>430.69999694824</ele>
        <time>2022-02-18T10:23:30.465Z</time>
      </trkpt>
      <trkpt lat="46.971" lon="6.87223">
        <ele>430.69999694824</ele>
        <time>2022-02-18T10:23:34.619Z</time>
      </trkpt>
      <trkpt lat="46.97101" lon="6.87224">
        <ele>430.69999694824</ele>
        <time>2022-02-18T10:23:35.847Z</time>
      </trkpt>
      <trkpt lat="46.971" lon="6.87223">
        <ele>430.69999694824</ele>
        <time>2022-02-18T10:23:37.075Z</time>
      </trkpt>
      <trkpt lat="46.971" lon="6.87229">
        <ele>430.79998779297</ele>
        <time>2022-02-18T10:23:42.425Z</time>
      </trkpt>
      <trkpt lat="46.97103" lon="6.8724">
        <ele>430.39999389648</ele>
        <time>2022-02-18T10:23:44.313Z</time>
      </trkpt>
      <trkpt lat="46.97054" lon="6.87209">
        <ele>431.19999694824</ele>
        <time>2022-02-18T10:24:47.073Z</time>
      </trkpt>
      <trkpt lat="46.97034" lon="6.87198">
        <ele>430.89999389648</ele>
        <time>2022-02-18T10:24:54.292Z</time>
      </trkpt>
      <trkpt lat="46.97016" lon="6.87188">
        <ele>431.09999084473</ele>
        <time>2022-02-18T10:25:15.874Z</time>
      </trkpt>
      <trkpt lat="46.96995" lon="6.8718">
        <ele>431.09999084473</ele>
        <time>2022-02-18T10:25:37.886Z</time>
      </trkpt>
      <trkpt lat="46.96948" lon="6.87161">
        <ele>431.5</ele>
        <time>2022-02-18T10:26:31.365Z</time>
      </trkpt>
      <trkpt lat="46.96926" lon="6.87151">
        <ele>431.39999389648</ele>
        <time>2022-02-18T10:26:53.275Z</time>
      </trkpt>
      <trkpt lat="46.96912" lon="6.87144">
        <ele>431.5</ele>
        <time>2022-02-18T10:27:09.272Z</time>
      </trkpt>
      <trkpt lat="46.96895" lon="6.87131">
        <ele>431.79998779297</ele>
        <time>2022-02-18T10:27:31.978Z</time>
      </trkpt>
      <trkpt lat="46.96878" lon="6.87116">
        <ele>432</ele>
        <time>2022-02-18T10:27:54.156Z</time>
      </trkpt>
      <trkpt lat="46.96863" lon="6.87098">
        <ele>432.29998779297</ele>
        <time>2022-02-18T10:28:17.072Z</time>
      </trkpt>
      <trkpt lat="46.96854" lon="6.87084">
        <ele>432.5</ele>
        <time>2022-02-18T10:28:32.547Z</time>
      </trkpt>
      <trkpt lat="46.96846" lon="6.87071">
        <ele>432.69999694824</ele>
        <time>2022-02-18T10:28:46.860Z</time>
      </trkpt>
      <trkpt lat="46.96837" lon="6.87053">
        <ele>432.69999694824</ele>
        <time>2022-02-18T10:29:02.308Z</time>
      </trkpt>
      <trkpt lat="46.96832" lon="6.8704">
        <ele>432.79998779297</ele>
        <time>2022-02-18T10:29:13.659Z</time>
      </trkpt>
      <trkpt lat="46.96827" lon="6.87029">
        <ele>432.89999389648</ele>
        <time>2022-02-18T10:29:23.843Z</time>
      </trkpt>
      <trkpt lat="46.96819" lon="6.87004">
        <ele>433.19999694824</ele>
        <time>2022-02-18T10:29:46.222Z</time>
      </trkpt>
      <trkpt lat="46.96813" lon="6.86984">
        <ele>434</ele>
        <time>2022-02-18T10:30:13.317Z</time>
      </trkpt>
      <trkpt lat="46.96828" lon="6.86978">
        <ele>433.79998779297</ele>
        <time>2022-02-18T10:30:18.652Z</time>
      </trkpt>
      <trkpt lat="46.9683" lon="6.86977">
        <ele>433.79998779297</ele>
        <time>2022-02-18T10:30:20.796Z</time>
      </trkpt>
      <trkpt lat="46.96834" lon="6.86974">
        <ele>434.09999084473</ele>
        <time>2022-02-18T10:30:29.750Z</time>
      </trkpt>
      <trkpt lat="46.96831" lon="6.86964">
        <ele>433.89999389648</ele>
        <time>2022-02-18T10:30:31.919Z</time>
      </trkpt>
      <trkpt lat="46.96829" lon="6.8696">
        <ele>434.29998779297</ele>
        <time>2022-02-18T10:30:42.771Z</time>
      </trkpt>
      <trkpt lat="46.96824" lon="6.86949">
        <ele>434.19999694824</ele>
        <time>2022-02-18T10:30:45.938Z</time>
      </trkpt>
      <trkpt lat="46.96813" lon="6.86921">
        <ele>434.39999389648</ele>
        <time>2022-02-18T10:31:10.331Z</time>
      </trkpt>
      <trkpt lat="46.96808" lon="6.86907">
        <ele>434.5</ele>
        <time>2022-02-18T10:31:22.285Z</time>
      </trkpt>
      <trkpt lat="46.96804" lon="6.86897">
        <ele>434.59999084473</ele>
        <time>2022-02-18T10:31:31.360Z</time>
      </trkpt>
      <trkpt lat="46.96793" lon="6.86871">
        <ele>434.59999084473</ele>
        <time>2022-02-18T10:31:52.538Z</time>
      </trkpt>
      <trkpt lat="46.9678" lon="6.86836">
        <ele>434.59999084473</ele>
        <time>2022-02-18T10:32:20.124Z</time>
      </trkpt>
      <trkpt lat="46.96752" lon="6.86767">
        <ele>435</ele>
        <time>2022-02-18T10:33:19.682Z</time>
      </trkpt>
      <trkpt lat="46.9674" lon="6.86737">
        <ele>435.39999389648</ele>
        <time>2022-02-18T10:33:48.150Z</time>
      </trkpt>
      <trkpt lat="46.96729" lon="6.86711">
        <ele>435.5</ele>
        <time>2022-02-18T10:34:10.300Z</time>
      </trkpt>
      <trkpt lat="46.96718" lon="6.86682">
        <ele>436</ele>
        <time>2022-02-18T10:34:39.093Z</time>
      </trkpt>
      <trkpt lat="46.96694" lon="6.86624">
        <ele>437.19999694824</ele>
        <time>2022-02-18T10:35:40.673Z</time>
      </trkpt>
      <trkpt lat="46.96663" lon="6.86548">
        <ele>439</ele>
        <time>2022-02-18T10:37:04.972Z</time>
      </trkpt>
      <trkpt lat="46.96664" lon="6.86548">
        <ele>439</ele>
        <time>2022-02-18T10:37:05.987Z</time>
      </trkpt>
      <trkpt lat="46.96663" lon="6.86548">
        <ele>439</ele>
        <time>2022-02-18T10:37:07.001Z</time>
      </trkpt>
      <trkpt lat="46.96657" lon="6.86532">
        <ele>440.89999389648</ele>
        <time>2022-02-18T10:37:55.751Z</time>
      </trkpt>
      <trkpt lat="46.96651" lon="6.86518">
        <ele>441.79998779297</ele>
        <time>2022-02-18T10:38:20.613Z</time>
      </trkpt>
      <trkpt lat="46.96645" lon="6.86509">
        <ele>442.29998779297</ele>
        <time>2022-02-18T10:38:36.712Z</time>
      </trkpt>
      <trkpt lat="46.96639" lon="6.86499">
        <ele>443</ele>
        <time>2022-02-18T10:38:56.300Z</time>
      </trkpt>
      <trkpt lat="46.96636" lon="6.86495">
        <ele>443.19999694824</ele>
        <time>2022-02-18T10:39:03.463Z</time>
      </trkpt>
      <trkpt lat="46.96633" lon="6.86496">
        <ele>443.29998779297</ele>
        <time>2022-02-18T10:39:07.907Z</time>
      </trkpt>
      <trkpt lat="46.96632" lon="6.86499">
        <ele>443.29998779297</ele>
        <time>2022-02-18T10:39:10.218Z</time>
      </trkpt>
      <trkpt lat="46.96627" lon="6.86498">
        <ele>443.69999694824</ele>
        <time>2022-02-18T10:39:21.293Z</time>
      </trkpt>
      <trkpt lat="46.96618" lon="6.86496">
        <ele>443.69999694824</ele>
        <time>2022-02-18T10:39:30.528Z</time>
      </trkpt>
      <trkpt lat="46.96617" lon="6.86495">
        <ele>443.89999389648</ele>
        <time>2022-02-18T10:39:35.265Z</time>
      </trkpt>
      <trkpt lat="46.96618" lon="6.86491">
        <ele>443.89999389648</ele>
        <time>2022-02-18T10:39:38.214Z</time>
      </trkpt>
      <trkpt lat="46.96624" lon="6.86479">
        <ele>440.59999084473</ele>
        <time>2022-02-18T10:39:40.466Z</time>
      </trkpt>
      <trkpt lat="46.96633" lon="6.86463">
        <ele>441.89999389648</ele>
        <time>2022-02-18T10:40:15.055Z</time>
      </trkpt>
      <trkpt lat="46.96633" lon="6.86458">
        <ele>442.29998779297</ele>
        <time>2022-02-18T10:40:25.873Z</time>
      </trkpt>
      <trkpt lat="46.96634" lon="6.86442">
        <ele>445.69999694824</ele>
        <time>2022-02-18T10:41:08.776Z</time>
      </trkpt>
      <trkpt lat="46.96635" lon="6.86434">
        <ele>447</ele>
        <time>2022-02-18T10:41:30.493Z</time>
      </trkpt>
      <trkpt lat="46.96635" lon="6.86432">
        <ele>447.09999084473</ele>
        <time>2022-02-18T10:41:33.350Z</time>
      </trkpt>
      <trkpt lat="46.96634" lon="6.8643">
        <ele>447.29998779297</ele>
        <time>2022-02-18T10:41:38.776Z</time>
      </trkpt>
      <trkpt lat="46.9663" lon="6.86425">
        <ele>447.59999084473</ele>
        <time>2022-02-18T10:41:48.554Z</time>
      </trkpt>
      <trkpt lat="46.96631" lon="6.86423">
        <ele>447.79998779297</ele>
        <time>2022-02-18T10:41:53.980Z</time>
      </trkpt>
      <trkpt lat="46.96634" lon="6.86402">
        <ele>450.5</ele>
        <time>2022-02-18T10:42:51.272Z</time>
      </trkpt>
      <trkpt lat="46.96635" lon="6.86402">
        <ele>450.5</ele>
        <time>2022-02-18T10:42:52.286Z</time>
      </trkpt>
      <trkpt lat="46.96634" lon="6.86402">
        <ele>450.5</ele>
        <time>2022-02-18T10:42:53.301Z</time>
      </trkpt>
      <trkpt lat="46.9664" lon="6.86361">
        <ele>453.19999694824</ele>
        <time>2022-02-18T10:44:04.854Z</time>
      </trkpt>
      <trkpt lat="46.96644" lon="6.86345">
        <ele>454.39999389648</ele>
        <time>2022-02-18T10:44:36.517Z</time>
      </trkpt>
      <trkpt lat="46.96648" lon="6.86328">
        <ele>455.5</ele>
        <time>2022-02-18T10:45:05.921Z</time>
      </trkpt>
      <trkpt lat="46.9665" lon="6.86314">
        <ele>456.29998779297</ele>
        <time>2022-02-18T10:45:27.822Z</time>
      </trkpt>
      <trkpt lat="46.96651" lon="6.86297">
        <ele>457.09999084473</ele>
        <time>2022-02-18T10:45:51.361Z</time>
      </trkpt>
      <trkpt lat="46.96651" lon="6.86288">
        <ele>457.5</ele>
        <time>2022-02-18T10:46:03.455Z</time>
      </trkpt>
      <trkpt lat="46.96648" lon="6.86265">
        <ele>458.19999694824</ele>
        <time>2022-02-18T10:46:30.529Z</time>
      </trkpt>
      <trkpt lat="46.96647" lon="6.86251">
        <ele>458.79998779297</ele>
        <time>2022-02-18T10:46:49.083Z</time>
      </trkpt>
      <trkpt lat="46.96646" lon="6.86235">
        <ele>459.09999084473</ele>
        <time>2022-02-18T10:47:03.926Z</time>
      </trkpt>
      <trkpt lat="46.96645" lon="6.86208">
        <ele>458.59999084473</ele>
        <time>2022-02-18T10:47:09.281Z</time>
      </trkpt>
      <trkpt lat="46.96645" lon="6.86203">
        <ele>458.59999084473</ele>
        <time>2022-02-18T10:47:12.743Z</time>
      </trkpt>
      <trkpt lat="46.96644" lon="6.86194">
        <ele>458.59999084473</ele>
        <time>2022-02-18T10:47:19.055Z</time>
      </trkpt>
      <trkpt lat="46.96644" lon="6.86189">
        <ele>458.59999084473</ele>
        <time>2022-02-18T10:47:22.517Z</time>
      </trkpt>
      <trkpt lat="46.96629" lon="6.86105">
        <ele>457.39999389648</ele>
        <time>2022-02-18T10:47:41.089Z</time>
      </trkpt>
      <trkpt lat="46.9664" lon="6.86089">
        <ele>457.29998779297</ele>
        <time>2022-02-18T10:47:55.397Z</time>
      </trkpt>
      <trkpt lat="46.96636" lon="6.86084">
        <ele>457.19999694824</ele>
        <time>2022-02-18T10:47:57.069Z</time>
      </trkpt>
      <trkpt lat="46.96635" lon="6.86081">
        <ele>457.19999694824</ele>
        <time>2022-02-18T10:47:59.380Z</time>
      </trkpt>
      <trkpt lat="46.96633" lon="6.86076">
        <ele>457.29998779297</ele>
        <time>2022-02-18T10:48:04.602Z</time>
      </trkpt>
      <trkpt lat="46.96627" lon="6.86052">
        <ele>457.59999084473</ele>
        <time>2022-02-18T10:48:25.606Z</time>
      </trkpt>
      <trkpt lat="46.96624" lon="6.86044">
        <ele>457.69999694824</ele>
        <time>2022-02-18T10:48:33.015Z</time>
      </trkpt>
      <trkpt lat="46.96618" lon="6.86025">
        <ele>458</ele>
        <time>2022-02-18T10:48:50.960Z</time>
      </trkpt>
      <trkpt lat="46.96613" lon="6.86012">
        <ele>458.09999084473</ele>
        <time>2022-02-18T10:49:02.312Z</time>
      </trkpt>
      <trkpt lat="46.96608" lon="6.85998">
        <ele>458.19999694824</ele>
        <time>2022-02-18T10:49:14.266Z</time>
      </trkpt>
      <trkpt lat="46.96578" lon="6.85924">
        <ele>459.19999694824</ele>
        <time>2022-02-18T10:50:24.863Z</time>
      </trkpt>
      <trkpt lat="46.96568" lon="6.859">
        <ele>459.79998779297</ele>
        <time>2022-02-18T10:50:52.143Z</time>
      </trkpt>
      <trkpt lat="46.96569" lon="6.859">
        <ele>459.79998779297</ele>
        <time>2022-02-18T10:50:53.158Z</time>
      </trkpt>
      <trkpt lat="46.96568" lon="6.859">
        <ele>459.79998779297</ele>
        <time>2022-02-18T10:50:54.172Z</time>
      </trkpt>
      <trkpt lat="46.96557" lon="6.85871">
        <ele>460.39999389648</ele>
        <time>2022-02-18T10:51:24.504Z</time>
      </trkpt>
      <trkpt lat="46.96543" lon="6.85835">
        <ele>461.39999389648</ele>
        <time>2022-02-18T10:52:06.934Z</time>
      </trkpt>
      <trkpt lat="46.96541" lon="6.85828">
        <ele>461.5</ele>
        <time>2022-02-18T10:52:13.317Z</time>
      </trkpt>
      <trkpt lat="46.9654" lon="6.85815">
        <ele>461.59999084473</ele>
        <time>2022-02-18T10:52:23.409Z</time>
      </trkpt>
      <trkpt lat="46.96544" lon="6.85813">
        <ele>461.59999084473</ele>
        <time>2022-02-18T10:52:27.697Z</time>
      </trkpt>
      <trkpt lat="46.96543" lon="6.85809">
        <ele>461.39999389648</ele>
        <time>2022-02-18T10:52:28.341Z</time>
      </trkpt>
      <trkpt lat="46.96542" lon="6.85803">
        <ele>461.59999084473</ele>
        <time>2022-02-18T10:52:35.695Z</time>
      </trkpt>
      <trkpt lat="46.9654" lon="6.85784">
        <ele>461.79998779297</ele>
        <time>2022-02-18T10:52:51.164Z</time>
      </trkpt>
      <trkpt lat="46.96537" lon="6.85755">
        <ele>462.09999084473</ele>
        <time>2022-02-18T10:53:14.702Z</time>
      </trkpt>
      <trkpt lat="46.96537" lon="6.85736">
        <ele>462.59999084473</ele>
        <time>2022-02-18T10:53:35.039Z</time>
      </trkpt>
      <trkpt lat="46.96537" lon="6.85723">
        <ele>462.79998779297</ele>
        <time>2022-02-18T10:53:46.381Z</time>
      </trkpt>
      <trkpt lat="46.9654" lon="6.85708">
        <ele>462.89999389648</ele>
        <time>2022-02-18T10:53:58.219Z</time>
      </trkpt>
      <trkpt lat="46.96546" lon="6.85679">
        <ele>463.5</ele>
        <time>2022-02-18T10:54:26.791Z</time>
      </trkpt>
      <trkpt lat="46.96549" lon="6.85673">
        <ele>463.69999694824</ele>
        <time>2022-02-18T10:54:34.849Z</time>
      </trkpt>
      <trkpt lat="46.96549" lon="6.85668">
        <ele>463.89999389648</ele>
        <time>2022-02-18T10:54:41.263Z</time>
      </trkpt>
      <trkpt lat="46.96557" lon="6.85622">
        <ele>464.5</ele>
        <time>2022-02-18T10:55:20.842Z</time>
      </trkpt>
      <trkpt lat="46.96559" lon="6.85609">
        <ele>464.89999389648</ele>
        <time>2022-02-18T10:55:36.292Z</time>
      </trkpt>
      <trkpt lat="46.96559" lon="6.85599">
        <ele>465.09999084473</ele>
        <time>2022-02-18T10:55:45.755Z</time>
      </trkpt>
      <trkpt lat="46.96561" lon="6.85597">
        <ele>465.09999084473</ele>
        <time>2022-02-18T10:55:48.212Z</time>
      </trkpt>
      <trkpt lat="46.96565" lon="6.85591">
        <ele>465.19999694824</ele>
        <time>2022-02-18T10:55:55.125Z</time>
      </trkpt>
      <trkpt lat="46.96567" lon="6.85586">
        <ele>465.39999389648</ele>
        <time>2022-02-18T10:56:02.167Z</time>
      </trkpt>
      <trkpt lat="46.96569" lon="6.85577">
        <ele>465.79998779297</ele>
        <time>2022-02-18T10:56:14.596Z</time>
      </trkpt>
      <trkpt lat="46.96573" lon="6.8556">
        <ele>466.5</ele>
        <time>2022-02-18T10:56:37.417Z</time>
      </trkpt>
      <trkpt lat="46.9658" lon="6.85526">
        <ele>468.39999389648</ele>
        <time>2022-02-18T10:57:30.234Z</time>
      </trkpt>
      <trkpt lat="46.9659" lon="6.85488">
        <ele>470</ele>
        <time>2022-02-18T10:58:22.107Z</time>
      </trkpt>
      <trkpt lat="46.96599" lon="6.85446">
        <ele>470.89999389648</ele>
        <time>2022-02-18T10:59:04.109Z</time>
      </trkpt>
      <trkpt lat="46.96603" lon="6.8543">
        <ele>471.39999389648</ele>
        <time>2022-02-18T10:59:23.570Z</time>
      </trkpt>
      <trkpt lat="46.96603" lon="6.85428">
        <ele>471.39999389648</ele>
        <time>2022-02-18T10:59:24.955Z</time>
      </trkpt>
      <trkpt lat="46.96603" lon="6.85425">
        <ele>471.39999389648</ele>
        <time>2022-02-18T10:59:27.032Z</time>
      </trkpt>
      <trkpt lat="46.96602" lon="6.85422">
        <ele>471.39999389648</ele>
        <time>2022-02-18T10:59:29.343Z</time>
      </trkpt>
      <trkpt lat="46.96601" lon="6.8542">
        <ele>471.59999084473</ele>
        <time>2022-02-18T10:59:34.769Z</time>
      </trkpt>
      <trkpt lat="46.96596" lon="6.85417">
        <ele>471.79998779297</ele>
        <time>2022-02-18T10:59:43.062Z</time>
      </trkpt>
      <trkpt lat="46.96586" lon="6.8541">
        <ele>472.19999694824</ele>
        <time>2022-02-18T10:59:59.858Z</time>
      </trkpt>
      <trkpt lat="46.9658" lon="6.85407">
        <ele>472.29998779297</ele>
        <time>2022-02-18T11:00:07.375Z</time>
      </trkpt>
      <trkpt lat="46.96575" lon="6.85403">
        <ele>472.39999389648</ele>
        <time>2022-02-18T11:00:14.261Z</time>
      </trkpt>
      <trkpt lat="46.96563" lon="6.8539">
        <ele>473</ele>
        <time>2022-02-18T11:00:38.226Z</time>
      </trkpt>
      <trkpt lat="46.9655" lon="6.85377">
        <ele>474.09999084473</ele>
        <time>2022-02-18T11:01:10.327Z</time>
      </trkpt>
      <trkpt lat="46.9654" lon="6.85364">
        <ele>475</ele>
        <time>2022-02-18T11:01:37.077Z</time>
      </trkpt>
      <trkpt lat="46.96539" lon="6.85364">
        <ele>475.09999084473</ele>
        <time>2022-02-18T11:01:39.715Z</time>
      </trkpt>
      <trkpt lat="46.96537" lon="6.85365">
        <ele>475.09999084473</ele>
        <time>2022-02-18T11:01:41.858Z</time>
      </trkpt>
      <trkpt lat="46.96536" lon="6.85364">
        <ele>475.09999084473</ele>
        <time>2022-02-18T11:01:43.087Z</time>
      </trkpt>
      <trkpt lat="46.96535" lon="6.85364">
        <ele>475.19999694824</ele>
        <time>2022-02-18T11:01:45.725Z</time>
      </trkpt>
      <trkpt lat="46.96534" lon="6.85362">
        <ele>475.19999694824</ele>
        <time>2022-02-18T11:01:47.441Z</time>
      </trkpt>
      <trkpt lat="46.96533" lon="6.85361">
        <ele>475.29998779297</ele>
        <time>2022-02-18T11:01:50.172Z</time>
      </trkpt>
      <trkpt lat="46.96533" lon="6.85359">
        <ele>475.29998779297</ele>
        <time>2022-02-18T11:01:51.556Z</time>
      </trkpt>
      <trkpt lat="46.96533" lon="6.85357">
        <ele>475.39999389648</ele>
        <time>2022-02-18T11:01:54.413Z</time>
      </trkpt>
      <trkpt lat="46.96533" lon="6.85355">
        <ele>475.39999389648</ele>
        <time>2022-02-18T11:01:55.798Z</time>
      </trkpt>
      <trkpt lat="46.96533" lon="6.85354">
        <ele>475.5</ele>
        <time>2022-02-18T11:01:58.468Z</time>
      </trkpt>
      <trkpt lat="46.96534" lon="6.85353">
        <ele>475.5</ele>
        <time>2022-02-18T11:01:59.696Z</time>
      </trkpt>
      <trkpt lat="46.96523" lon="6.8533">
        <ele>476.59999084473</ele>
        <time>2022-02-18T11:02:35.425Z</time>
      </trkpt>
      <trkpt lat="46.96518" lon="6.85318">
        <ele>477.39999389648</ele>
        <time>2022-02-18T11:02:57.209Z</time>
      </trkpt>
      <trkpt lat="46.96516" lon="6.85314">
        <ele>477.59999084473</ele>
        <time>2022-02-18T11:03:03.592Z</time>
      </trkpt>
      <trkpt lat="46.96515" lon="6.85312">
        <ele>477.89999389648</ele>
        <time>2022-02-18T11:03:10.213Z</time>
      </trkpt>
      <trkpt lat="46.96505" lon="6.85301">
        <ele>478.89999389648</ele>
        <time>2022-02-18T11:03:37.814Z</time>
      </trkpt>
      <trkpt lat="46.965" lon="6.85293">
        <ele>479.59999084473</ele>
        <time>2022-02-18T11:03:56.360Z</time>
      </trkpt>
      <trkpt lat="46.96495" lon="6.85285">
        <ele>480.39999389648</ele>
        <time>2022-02-18T11:04:17.555Z</time>
      </trkpt>
      <trkpt lat="46.96491" lon="6.85277">
        <ele>481</ele>
        <time>2022-02-18T11:04:33.632Z</time>
      </trkpt>
      <trkpt lat="46.96488" lon="6.85269">
        <ele>481.39999389648</ele>
        <time>2022-02-18T11:04:45.817Z</time>
      </trkpt>
      <trkpt lat="46.96486" lon="6.8526">
        <ele>482</ele>
        <time>2022-02-18T11:05:01.753Z</time>
      </trkpt>
      <trkpt lat="46.96483" lon="6.85239">
        <ele>483.29998779297</ele>
        <time>2022-02-18T11:05:36.574Z</time>
      </trkpt>
      <trkpt lat="46.96481" lon="6.85231">
        <ele>483.89999389648</ele>
        <time>2022-02-18T11:05:52.406Z</time>
      </trkpt>
      <trkpt lat="46.9648" lon="6.85229">
        <ele>484.09999084473</ele>
        <time>2022-02-18T11:05:57.832Z</time>
      </trkpt>
      <trkpt lat="46.96475" lon="6.85214">
        <ele>485.09999084473</ele>
        <time>2022-02-18T11:06:24.688Z</time>
      </trkpt>
      <trkpt lat="46.96472" lon="6.85208">
        <ele>485.29998779297</ele>
        <time>2022-02-18T11:06:32.745Z</time>
      </trkpt>
      <trkpt lat="46.96468" lon="6.85203">
        <ele>485.79998779297</ele>
        <time>2022-02-18T11:06:45.983Z</time>
      </trkpt>
      <trkpt lat="46.96461" lon="6.85196">
        <ele>486.19999694824</ele>
        <time>2022-02-18T11:07:00.745Z</time>
      </trkpt>
      <trkpt lat="46.96448" lon="6.85184">
        <ele>486.89999389648</ele>
        <time>2022-02-18T11:07:27.228Z</time>
      </trkpt>
      <trkpt lat="46.9642" lon="6.85157">
        <ele>488.39999389648</ele>
        <time>2022-02-18T11:08:24.708Z</time>
      </trkpt>
      <trkpt lat="46.96396" lon="6.85131">
        <ele>489.79998779297</ele>
        <time>2022-02-18T11:09:16.600Z</time>
      </trkpt>
      <trkpt lat="46.96382" lon="6.85116">
        <ele>490.29998779297</ele>
        <time>2022-02-18T11:09:40.507Z</time>
      </trkpt>
      <trkpt lat="46.96375" lon="6.85107">
        <ele>490.39999389648</ele>
        <time>2022-02-18T11:09:50.985Z</time>
      </trkpt>
      <trkpt lat="46.96318" lon="6.85038">
        <ele>492.79998779297</ele>
        <time>2022-02-18T11:11:37.727Z</time>
      </trkpt>
      <trkpt lat="46.96308" lon="6.85025">
        <ele>493.39999389648</ele>
        <time>2022-02-18T11:12:00.671Z</time>
      </trkpt>
      <trkpt lat="46.96299" lon="6.85011">
        <ele>493.59999084473</ele>
        <time>2022-02-18T11:12:16.147Z</time>
      </trkpt>
      <trkpt lat="46.963" lon="6.85012">
        <ele>493.59999084473</ele>
        <time>2022-02-18T11:12:17.375Z</time>
      </trkpt>
      <trkpt lat="46.96299" lon="6.85011">
        <ele>493.59999084473</ele>
        <time>2022-02-18T11:12:18.603Z</time>
      </trkpt>
      <trkpt lat="46.96295" lon="6.85005">
        <ele>493.69999694824</ele>
        <time>2022-02-18T11:12:25.517Z</time>
      </trkpt>
      <trkpt lat="46.96286" lon="6.8499">
        <ele>493.39999389648</ele>
        <time>2022-02-18T11:12:29.703Z</time>
      </trkpt>
      <trkpt lat="46.96275" lon="6.84975">
        <ele>493.39999389648</ele>
        <time>2022-02-18T11:12:44.947Z</time>
      </trkpt>
      <trkpt lat="46.96267" lon="6.84963">
        <ele>493.39999389648</ele>
        <time>2022-02-18T11:12:56.561Z</time>
      </trkpt>
      <trkpt lat="46.9625" lon="6.8494">
        <ele>493.39999389648</ele>
        <time>2022-02-18T11:13:20.034Z</time>
      </trkpt>
      <trkpt lat="46.96237" lon="6.84921">
        <ele>493.29998779297</ele>
        <time>2022-02-18T11:13:37.226Z</time>
      </trkpt>
      <trkpt lat="46.96227" lon="6.84906">
        <ele>493.69999694824</ele>
        <time>2022-02-18T11:13:56.740Z</time>
      </trkpt>
      <trkpt lat="46.96217" lon="6.84891">
        <ele>493.59999084473</ele>
        <time>2022-02-18T11:14:09.854Z</time>
      </trkpt>
      <trkpt lat="46.96208" lon="6.84877">
        <ele>493.5</ele>
        <time>2022-02-18T11:14:14.681Z</time>
      </trkpt>
      <trkpt lat="46.96197" lon="6.84855">
        <ele>493.69999694824</ele>
        <time>2022-02-18T11:14:35.624Z</time>
      </trkpt>
      <trkpt lat="46.96184" lon="6.84867">
        <ele>493.19999694824</ele>
        <time>2022-02-18T11:14:39.835Z</time>
      </trkpt>
      <trkpt lat="46.96172" lon="6.8488">
        <ele>492.69999694824</ele>
        <time>2022-02-18T11:14:43.884Z</time>
      </trkpt>
      <trkpt lat="46.96166" lon="6.84886">
        <ele>492.19999694824</ele>
        <time>2022-02-18T11:14:45.495Z</time>
      </trkpt>
      <trkpt lat="46.96159" lon="6.84891">
        <ele>491.5</ele>
        <time>2022-02-18T11:14:47.222Z</time>
      </trkpt>
      <trkpt lat="46.96151" lon="6.84898">
        <ele>490.89999389648</ele>
        <time>2022-02-18T11:14:49.149Z</time>
      </trkpt>
      <trkpt lat="46.96137" lon="6.84907">
        <ele>490.09999084473</ele>
        <time>2022-02-18T11:14:52.633Z</time>
      </trkpt>
      <trkpt lat="46.9613" lon="6.84913">
        <ele>489.69999694824</ele>
        <time>2022-02-18T11:14:54.530Z</time>
      </trkpt>
      <trkpt lat="46.96123" lon="6.84919">
        <ele>489.59999084473</ele>
        <time>2022-02-18T11:14:57.332Z</time>
      </trkpt>
      <trkpt lat="46.96107" lon="6.84937">
        <ele>489.19999694824</ele>
        <time>2022-02-18T11:15:03.686Z</time>
      </trkpt>
      <trkpt lat="46.96099" lon="6.84946">
        <ele>489.09999084473</ele>
        <time>2022-02-18T11:15:07.281Z</time>
      </trkpt>
      <trkpt lat="46.96086" lon="6.84964">
        <ele>488.69999694824</ele>
        <time>2022-02-18T11:15:12.752Z</time>
      </trkpt>
      <trkpt lat="46.96061" lon="6.85001">
        <ele>488.59999084473</ele>
        <time>2022-02-18T11:15:47.310Z</time>
      </trkpt>
      <trkpt lat="46.96042" lon="6.85029">
        <ele>488.39999389648</ele>
        <time>2022-02-18T11:15:57.247Z</time>
      </trkpt>
      <trkpt lat="46.96029" lon="6.85048">
        <ele>488.5</ele>
        <time>2022-02-18T11:16:16.853Z</time>
      </trkpt>
      <trkpt lat="46.96017" lon="6.85069">
        <ele>488</ele>
        <time>2022-02-18T11:16:22.298Z</time>
      </trkpt>
      <trkpt lat="46.96009" lon="6.85076">
        <ele>487.19999694824</ele>
        <time>2022-02-18T11:16:24.364Z</time>
      </trkpt>
      <trkpt lat="46.95999" lon="6.85084">
        <ele>485.89999389648</ele>
        <time>2022-02-18T11:16:26.891Z</time>
      </trkpt>
      <trkpt lat="46.95996" lon="6.85085">
        <ele>485.29998779297</ele>
        <time>2022-02-18T11:16:27.573Z</time>
      </trkpt>
      <trkpt lat="46.95977" lon="6.85098">
        <ele>481.79998779297</ele>
        <time>2022-02-18T11:16:32.224Z</time>
      </trkpt>
      <trkpt lat="46.95966" lon="6.85108">
        <ele>479</ele>
        <time>2022-02-18T11:16:35.095Z</time>
      </trkpt>
      <trkpt lat="46.95961" lon="6.85115">
        <ele>477.79998779297</ele>
        <time>2022-02-18T11:16:36.628Z</time>
      </trkpt>
      <trkpt lat="46.95956" lon="6.85122">
        <ele>476.69999694824</ele>
        <time>2022-02-18T11:16:38.162Z</time>
      </trkpt>
      <trkpt lat="46.95954" lon="6.85128">
        <ele>476</ele>
        <time>2022-02-18T11:16:39.173Z</time>
      </trkpt>
      <trkpt lat="46.95952" lon="6.85139">
        <ele>474.79998779297</ele>
        <time>2022-02-18T11:16:40.896Z</time>
      </trkpt>
      <trkpt lat="46.95952" lon="6.8515">
        <ele>473.39999389648</ele>
        <time>2022-02-18T11:16:42.561Z</time>
      </trkpt>
      <trkpt lat="46.95953" lon="6.85163">
        <ele>472</ele>
        <time>2022-02-18T11:16:44.541Z</time>
      </trkpt>
      <trkpt lat="46.9596" lon="6.85199">
        <ele>469.89999389648</ele>
        <time>2022-02-18T11:16:50.206Z</time>
      </trkpt>
      <trkpt lat="46.95962" lon="6.85209">
        <ele>469.39999389648</ele>
        <time>2022-02-18T11:16:51.784Z</time>
      </trkpt>
      <trkpt lat="46.95963" lon="6.85221">
        <ele>469</ele>
        <time>2022-02-18T11:16:53.728Z</time>
      </trkpt>
      <trkpt lat="46.95963" lon="6.85236">
        <ele>468.19999694824</ele>
        <time>2022-02-18T11:16:55.998Z</time>
      </trkpt>
      <trkpt lat="46.95964" lon="6.85257">
        <ele>467</ele>
        <time>2022-02-18T11:16:59.185Z</time>
      </trkpt>
      <trkpt lat="46.95964" lon="6.85269">
        <ele>466.19999694824</ele>
        <time>2022-02-18T11:17:01.001Z</time>
      </trkpt>
      <trkpt lat="46.95963" lon="6.85275">
        <ele>465.39999389648</ele>
        <time>2022-02-18T11:17:01.936Z</time>
      </trkpt>
      <trkpt lat="46.95961" lon="6.85289">
        <ele>464.29998779297</ele>
        <time>2022-02-18T11:17:04.101Z</time>
      </trkpt>
      <trkpt lat="46.95956" lon="6.85306">
        <ele>463.39999389648</ele>
        <time>2022-02-18T11:17:06.903Z</time>
      </trkpt>
      <trkpt lat="46.95957" lon="6.85306">
        <ele>463.39999389648</ele>
        <time>2022-02-18T11:17:07.917Z</time>
      </trkpt>
      <trkpt lat="46.95956" lon="6.85306">
        <ele>463.39999389648</ele>
        <time>2022-02-18T11:17:08.932Z</time>
      </trkpt>
      <trkpt lat="46.95955" lon="6.85307">
        <ele>462.39999389648</ele>
        <time>2022-02-18T11:17:09.200Z</time>
      </trkpt>
      <trkpt lat="46.9595" lon="6.85323">
        <ele>460.59999084473</ele>
        <time>2022-02-18T11:17:11.864Z</time>
      </trkpt>
      <trkpt lat="46.95943" lon="6.85336">
        <ele>459.29998779297</ele>
        <time>2022-02-18T11:17:14.370Z</time>
      </trkpt>
      <trkpt lat="46.95937" lon="6.85345">
        <ele>458</ele>
        <time>2022-02-18T11:17:16.274Z</time>
      </trkpt>
      <trkpt lat="46.95929" lon="6.85354">
        <ele>456.29998779297</ele>
        <time>2022-02-18T11:17:18.511Z</time>
      </trkpt>
      <trkpt lat="46.95919" lon="6.85363">
        <ele>454.19999694824</ele>
        <time>2022-02-18T11:17:21.114Z</time>
      </trkpt>
      <trkpt lat="46.95907" lon="6.85376">
        <ele>451.79998779297</ele>
        <time>2022-02-18T11:17:24.423Z</time>
      </trkpt>
      <trkpt lat="46.95908" lon="6.8537">
        <ele>452.19999694824</ele>
        <time>2022-02-18T11:17:35.017Z</time>
      </trkpt>
      <trkpt lat="46.95908" lon="6.85364">
        <ele>452.5</ele>
        <time>2022-02-18T11:17:43.587Z</time>
      </trkpt>
      <trkpt lat="46.95906" lon="6.85349">
        <ele>453.19999694824</ele>
        <time>2022-02-18T11:18:04.426Z</time>
      </trkpt>
      <trkpt lat="46.95902" lon="6.85331">
        <ele>454.09999084473</ele>
        <time>2022-02-18T11:18:30.732Z</time>
      </trkpt>
      <trkpt lat="46.95896" lon="6.85307">
        <ele>454.79998779297</ele>
        <time>2022-02-18T11:18:58.714Z</time>
      </trkpt>
      <trkpt lat="46.95887" lon="6.85266">
        <ele>454.79998779297</ele>
        <time>2022-02-18T11:19:28.534Z</time>
      </trkpt>
      <trkpt lat="46.95875" lon="6.85219">
        <ele>454.69999694824</ele>
        <time>2022-02-18T11:20:01.791Z</time>
      </trkpt>
      <trkpt lat="46.95864" lon="6.85177">
        <ele>455.29998779297</ele>
        <time>2022-02-18T11:20:39.730Z</time>
      </trkpt>
      <trkpt lat="46.95852" lon="6.85136">
        <ele>456.19999694824</ele>
        <time>2022-02-18T11:21:22.086Z</time>
      </trkpt>
      <trkpt lat="46.95831" lon="6.85062">
        <ele>457.39999389648</ele>
        <time>2022-02-18T11:22:31.530Z</time>
      </trkpt>
      <trkpt lat="46.95826" lon="6.85046">
        <ele>457.79998779297</ele>
        <time>2022-02-18T11:22:49.063Z</time>
      </trkpt>
      <trkpt lat="46.95819" lon="6.85017">
        <ele>458.19999694824</ele>
        <time>2022-02-18T11:23:14.864Z</time>
      </trkpt>
      <trkpt lat="46.95815" lon="6.84996">
        <ele>458.69999694824</ele>
        <time>2022-02-18T11:23:36.672Z</time>
      </trkpt>
      <trkpt lat="46.95803" lon="6.84949">
        <ele>458.79998779297</ele>
        <time>2022-02-18T11:24:12.371Z</time>
      </trkpt>
      <trkpt lat="46.95799" lon="6.84936">
        <ele>458.5</ele>
        <time>2022-02-18T11:24:15.086Z</time>
      </trkpt>
      <trkpt lat="46.95794" lon="6.84922">
        <ele>457.79998779297</ele>
        <time>2022-02-18T11:24:17.307Z</time>
      </trkpt>
      <trkpt lat="46.95793" lon="6.84918">
        <ele>457.39999389648</ele>
        <time>2022-02-18T11:24:17.952Z</time>
      </trkpt>
      <trkpt lat="46.95786" lon="6.84853">
        <ele>453.39999389648</ele>
        <time>2022-02-18T11:24:27.912Z</time>
      </trkpt>
      <trkpt lat="46.95785" lon="6.84841">
        <ele>453.79998779297</ele>
        <time>2022-02-18T11:24:42.404Z</time>
      </trkpt>
      <trkpt lat="46.95783" lon="6.84834">
        <ele>453.89999389648</ele>
        <time>2022-02-18T11:24:48.787Z</time>
      </trkpt>
      <trkpt lat="46.95779" lon="6.84817">
        <ele>454.39999389648</ele>
        <time>2022-02-18T11:25:08.650Z</time>
      </trkpt>
      <trkpt lat="46.95772" lon="6.84788">
        <ele>454.59999084473</ele>
        <time>2022-02-18T11:25:31.984Z</time>
      </trkpt>
      <trkpt lat="46.95768" lon="6.84774">
        <ele>454.39999389648</ele>
        <time>2022-02-18T11:25:35.267Z</time>
      </trkpt>
      <trkpt lat="46.95765" lon="6.84762">
        <ele>453.79998779297</ele>
        <time>2022-02-18T11:25:37.202Z</time>
      </trkpt>
      <trkpt lat="46.95763" lon="6.84751">
        <ele>453.09999084473</ele>
        <time>2022-02-18T11:25:38.925Z</time>
      </trkpt>
      <trkpt lat="46.95761" lon="6.8474">
        <ele>452.39999389648</ele>
        <time>2022-02-18T11:25:40.648Z</time>
      </trkpt>
      <trkpt lat="46.9576" lon="6.84727">
        <ele>452</ele>
        <time>2022-02-18T11:25:42.822Z</time>
      </trkpt>
      <trkpt lat="46.9576" lon="6.84728">
        <ele>452</ele>
        <time>2022-02-18T11:25:43.515Z</time>
      </trkpt>
      <trkpt lat="46.9576" lon="6.84727">
        <ele>452</ele>
        <time>2022-02-18T11:25:44.207Z</time>
      </trkpt>
      <trkpt lat="46.9576" lon="6.84723">
        <ele>451.5</ele>
        <time>2022-02-18T11:25:44.813Z</time>
      </trkpt>
      <trkpt lat="46.95757" lon="6.84688">
        <ele>450.29998779297</ele>
        <time>2022-02-18T11:25:50.419Z</time>
      </trkpt>
      <trkpt lat="46.95755" lon="6.84634">
        <ele>449.09999084473</ele>
        <time>2022-02-18T11:26:00.538Z</time>
      </trkpt>
      <trkpt lat="46.95754" lon="6.84617">
        <ele>449.09999084473</ele>
        <time>2022-02-18T11:26:12.352Z</time>
      </trkpt>
      <trkpt lat="46.95755" lon="6.84604">
        <ele>449.09999084473</ele>
        <time>2022-02-18T11:26:21.411Z</time>
      </trkpt>
      <trkpt lat="46.95755" lon="6.84554">
        <ele>449.39999389648</ele>
        <time>2022-02-18T11:26:59.063Z</time>
      </trkpt>
      <trkpt lat="46.95756" lon="6.84537">
        <ele>449.79998779297</ele>
        <time>2022-02-18T11:27:16.300Z</time>
      </trkpt>
      <trkpt lat="46.95755" lon="6.84529">
        <ele>449.89999389648</ele>
        <time>2022-02-18T11:27:23.044Z</time>
      </trkpt>
      <trkpt lat="46.95754" lon="6.84525">
        <ele>450.09999084473</ele>
        <time>2022-02-18T11:27:28.926Z</time>
      </trkpt>
      <trkpt lat="46.95753" lon="6.84522">
        <ele>450.09999084473</ele>
        <time>2022-02-18T11:27:31.237Z</time>
      </trkpt>
      <trkpt lat="46.9575" lon="6.84519">
        <ele>450</ele>
        <time>2022-02-18T11:27:32.287Z</time>
      </trkpt>
      <trkpt lat="46.95746" lon="6.84518">
        <ele>450</ele>
        <time>2022-02-18T11:27:36.403Z</time>
      </trkpt>
      <trkpt lat="46.95742" lon="6.84519">
        <ele>449.79998779297</ele>
        <time>2022-02-18T11:27:37.352Z</time>
      </trkpt>
      <trkpt lat="46.95733" lon="6.84526">
        <ele>449.39999389648</ele>
        <time>2022-02-18T11:27:39.965Z</time>
      </trkpt>
      <trkpt lat="46.95723" lon="6.84532">
        <ele>448.89999389648</ele>
        <time>2022-02-18T11:27:42.562Z</time>
      </trkpt>
      <trkpt lat="46.95715" lon="6.84538">
        <ele>448.69999694824</ele>
        <time>2022-02-18T11:27:45.315Z</time>
      </trkpt>
      <trkpt lat="46.95709" lon="6.84543">
        <ele>448.29998779297</ele>
        <time>2022-02-18T11:27:46.816Z</time>
      </trkpt>
      <trkpt lat="46.95703" lon="6.84549">
        <ele>448</ele>
        <time>2022-02-18T11:27:48.644Z</time>
      </trkpt>
      <trkpt lat="46.9568" lon="6.84575">
        <ele>446.59999084473</ele>
        <time>2022-02-18T11:27:55.506Z</time>
      </trkpt>
      <trkpt lat="46.95666" lon="6.8459">
        <ele>445.89999389648</ele>
        <time>2022-02-18T11:27:59.908Z</time>
      </trkpt>
      <trkpt lat="46.95654" lon="6.84601">
        <ele>445.5</ele>
        <time>2022-02-18T11:28:03.965Z</time>
      </trkpt>
      <trkpt lat="46.95645" lon="6.84609">
        <ele>445.5</ele>
        <time>2022-02-18T11:28:14.644Z</time>
      </trkpt>
      <trkpt lat="46.95641" lon="6.84612">
        <ele>445.5</ele>
        <time>2022-02-18T11:28:19.202Z</time>
      </trkpt>
      <trkpt lat="46.95638" lon="6.84613">
        <ele>445.5</ele>
        <time>2022-02-18T11:28:22.324Z</time>
      </trkpt>
      <trkpt lat="46.95635" lon="6.84612">
        <ele>445.5</ele>
        <time>2022-02-18T11:28:25.445Z</time>
      </trkpt>
      <trkpt lat="46.95633" lon="6.84611">
        <ele>445.59999084473</ele>
        <time>2022-02-18T11:28:29.128Z</time>
      </trkpt>
      <trkpt lat="46.9563" lon="6.84608">
        <ele>445.79998779297</ele>
        <time>2022-02-18T11:28:35.792Z</time>
      </trkpt>
      <trkpt lat="46.95628" lon="6.84605">
        <ele>445.69999694824</ele>
        <time>2022-02-18T11:28:36.558Z</time>
      </trkpt>
      <trkpt lat="46.95626" lon="6.84601">
        <ele>445.69999694824</ele>
        <time>2022-02-18T11:28:39.991Z</time>
      </trkpt>
      <trkpt lat="46.95619" lon="6.84586">
        <ele>446.09999084473</ele>
        <time>2022-02-18T11:28:57.848Z</time>
      </trkpt>
      <trkpt lat="46.95617" lon="6.84578">
        <ele>446.39999389648</ele>
        <time>2022-02-18T11:29:08.272Z</time>
      </trkpt>
      <trkpt lat="46.95615" lon="6.84571">
        <ele>446.59999084473</ele>
        <time>2022-02-18T11:29:16.402Z</time>
      </trkpt>
      <trkpt lat="46.95611" lon="6.84552">
        <ele>446.59999084473</ele>
        <time>2022-02-18T11:29:30.170Z</time>
      </trkpt>
      <trkpt lat="46.9561" lon="6.84547">
        <ele>446.69999694824</ele>
        <time>2022-02-18T11:29:35.029Z</time>
      </trkpt>
      <trkpt lat="46.95609" lon="6.84542">
        <ele>446.69999694824</ele>
        <time>2022-02-18T11:29:38.637Z</time>
      </trkpt>
      <trkpt lat="46.95608" lon="6.84528">
        <ele>447.19999694824</ele>
        <time>2022-02-18T11:29:55.911Z</time>
      </trkpt>
      <trkpt lat="46.95607" lon="6.84517">
        <ele>447.39999389648</ele>
        <time>2022-02-18T11:30:06.046Z</time>
      </trkpt>
      <trkpt lat="46.95607" lon="6.84488">
        <ele>448.79998779297</ele>
        <time>2022-02-18T11:30:46.675Z</time>
      </trkpt>
      <trkpt lat="46.95606" lon="6.84475">
        <ele>450</ele>
        <time>2022-02-18T11:31:21.615Z</time>
      </trkpt>
      <trkpt lat="46.95606" lon="6.84454">
        <ele>452.59999084473</ele>
        <time>2022-02-18T11:32:17.702Z</time>
      </trkpt>
      <trkpt lat="46.95606" lon="6.84441">
        <ele>454.29998779297</ele>
        <time>2022-02-18T11:32:52.422Z</time>
      </trkpt>
      <trkpt lat="46.95607" lon="6.84427">
        <ele>456.39999389648</ele>
        <time>2022-02-18T11:33:30.017Z</time>
      </trkpt>
      <trkpt lat="46.95609" lon="6.84413">
        <ele>458.39999389648</ele>
        <time>2022-02-18T11:34:08.218Z</time>
      </trkpt>
      <trkpt lat="46.95607" lon="6.84413">
        <ele>458.39999389648</ele>
        <time>2022-02-18T11:34:10.247Z</time>
      </trkpt>
      <trkpt lat="46.95603" lon="6.84412">
        <ele>458.39999389648</ele>
        <time>2022-02-18T11:34:14.364Z</time>
      </trkpt>
      <trkpt lat="46.95592" lon="6.84406">
        <ele>458.79998779297</ele>
        <time>2022-02-18T11:34:31.675Z</time>
      </trkpt>
      <trkpt lat="46.95578" lon="6.84398">
        <ele>459</ele>
        <time>2022-02-18T11:34:49.036Z</time>
      </trkpt>
      <trkpt lat="46.95563" lon="6.84389">
        <ele>459.29998779297</ele>
        <time>2022-02-18T11:35:08.836Z</time>
      </trkpt>
      <trkpt lat="46.95549" lon="6.84382">
        <ele>459.39999389648</ele>
        <time>2022-02-18T11:35:24.833Z</time>
      </trkpt>
      <trkpt lat="46.95505" lon="6.84357">
        <ele>463.5</ele>
        <time>2022-02-18T11:37:15.217Z</time>
      </trkpt>
      <trkpt lat="46.95497" lon="6.84352">
        <ele>464.5</ele>
        <time>2022-02-18T11:37:42.082Z</time>
      </trkpt>
      <trkpt lat="46.95492" lon="6.84348">
        <ele>464.79998779297</ele>
        <time>2022-02-18T11:37:52.367Z</time>
      </trkpt>
      <trkpt lat="46.95489" lon="6.84344">
        <ele>465.29998779297</ele>
        <time>2022-02-18T11:38:06.205Z</time>
      </trkpt>
      <trkpt lat="46.95483" lon="6.84336">
        <ele>466</ele>
        <time>2022-02-18T11:38:25.084Z</time>
      </trkpt>
      <trkpt lat="46.95475" lon="6.84326">
        <ele>466.5</ele>
        <time>2022-02-18T11:38:43.442Z</time>
      </trkpt>
      <trkpt lat="46.95457" lon="6.84303">
        <ele>466.89999389648</ele>
        <time>2022-02-18T11:39:12.062Z</time>
      </trkpt>
      <trkpt lat="46.9544" lon="6.84281">
        <ele>466.59999084473</ele>
        <time>2022-02-18T11:39:19.808Z</time>
      </trkpt>
      <trkpt lat="46.95414" lon="6.84247">
        <ele>465</ele>
        <time>2022-02-18T11:39:28.211Z</time>
      </trkpt>
      <trkpt lat="46.95403" lon="6.84232">
        <ele>464.19999694824</ele>
        <time>2022-02-18T11:39:31.610Z</time>
      </trkpt>
      <trkpt lat="46.95398" lon="6.84222">
        <ele>464.09999084473</ele>
        <time>2022-02-18T11:39:34.552Z</time>
      </trkpt>
      <trkpt lat="46.95392" lon="6.8421">
        <ele>463.69999694824</ele>
        <time>2022-02-18T11:39:37.152Z</time>
      </trkpt>
      <trkpt lat="46.95389" lon="6.84203">
        <ele>463.5</ele>
        <time>2022-02-18T11:39:38.653Z</time>
      </trkpt>
      <trkpt lat="46.95383" lon="6.8419">
        <ele>463.69999694824</ele>
        <time>2022-02-18T11:39:51.762Z</time>
      </trkpt>
      <trkpt lat="46.95368" lon="6.84153">
        <ele>464.19999694824</ele>
        <time>2022-02-18T11:40:27.065Z</time>
      </trkpt>
      <trkpt lat="46.95369" lon="6.84153">
        <ele>464.19999694824</ele>
        <time>2022-02-18T11:40:28.080Z</time>
      </trkpt>
      <trkpt lat="46.95368" lon="6.84153">
        <ele>464.19999694824</ele>
        <time>2022-02-18T11:40:29.094Z</time>
      </trkpt>
      <trkpt lat="46.95366" lon="6.84147">
        <ele>464.59999084473</ele>
        <time>2022-02-18T11:40:39.837Z</time>
      </trkpt>
      <trkpt lat="46.95347" lon="6.84101">
        <ele>462.79998779297</ele>
        <time>2022-02-18T11:40:48.442Z</time>
      </trkpt>
      <trkpt lat="46.95339" lon="6.84082">
        <ele>462.79998779297</ele>
        <time>2022-02-18T11:41:03.901Z</time>
      </trkpt>
      <trkpt lat="46.95331" lon="6.8406">
        <ele>463.19999694824</ele>
        <time>2022-02-18T11:41:25.899Z</time>
      </trkpt>
      <trkpt lat="46.95314" lon="6.8401">
        <ele>465.59999084473</ele>
        <time>2022-02-18T11:42:39.801Z</time>
      </trkpt>
      <trkpt lat="46.95281" lon="6.83919">
        <ele>471.59999084473</ele>
        <time>2022-02-18T11:45:22.113Z</time>
      </trkpt>
      <trkpt lat="46.9528" lon="6.83916">
        <ele>471.89999389648</ele>
        <time>2022-02-18T11:45:30.805Z</time>
      </trkpt>
      <trkpt lat="46.95276" lon="6.83909">
        <ele>472.5</ele>
        <time>2022-02-18T11:45:46.670Z</time>
      </trkpt>
      <trkpt lat="46.95271" lon="6.839">
        <ele>473.09999084473</ele>
        <time>2022-02-18T11:46:03.572Z</time>
      </trkpt>
      <trkpt lat="46.95268" lon="6.83894">
        <ele>473.5</ele>
        <time>2022-02-18T11:46:14.671Z</time>
      </trkpt>
      <trkpt lat="46.95266" lon="6.83887">
        <ele>473.69999694824</ele>
        <time>2022-02-18T11:46:22.801Z</time>
      </trkpt>
      <trkpt lat="46.95261" lon="6.83865">
        <ele>472.79998779297</ele>
        <time>2022-02-18T11:46:26.275Z</time>
      </trkpt>
      <trkpt lat="46.95258" lon="6.83844">
        <ele>471.69999694824</ele>
        <time>2022-02-18T11:46:29.522Z</time>
      </trkpt>
      <trkpt lat="46.95257" lon="6.83841">
        <ele>471.29998779297</ele>
        <time>2022-02-18T11:46:30.028Z</time>
      </trkpt>
      <trkpt lat="46.95258" lon="6.83842">
        <ele>471.29998779297</ele>
        <time>2022-02-18T11:46:31.256Z</time>
      </trkpt>
      <trkpt lat="46.95257" lon="6.83841">
        <ele>471.29998779297</ele>
        <time>2022-02-18T11:46:32.484Z</time>
      </trkpt>
      <trkpt lat="46.95254" lon="6.83818">
        <ele>470.79998779297</ele>
        <time>2022-02-18T11:46:36.922Z</time>
      </trkpt>
      <trkpt lat="46.95251" lon="6.83799">
        <ele>470.39999389648</ele>
        <time>2022-02-18T11:46:40.665Z</time>
      </trkpt>
      <trkpt lat="46.9525" lon="6.83789">
        <ele>470.39999389648</ele>
        <time>2022-02-18T11:46:47.664Z</time>
      </trkpt>
      <trkpt lat="46.9525" lon="6.83781">
        <ele>470.59999084473</ele>
        <time>2022-02-18T11:46:56.000Z</time>
      </trkpt>
      <trkpt lat="46.9525" lon="6.83775">
        <ele>470.5</ele>
        <time>2022-02-18T11:46:57.224Z</time>
      </trkpt>
      <trkpt lat="46.9525" lon="6.83768">
        <ele>470.5</ele>
        <time>2022-02-18T11:47:02.072Z</time>
      </trkpt>
      <trkpt lat="46.95252" lon="6.83757">
        <ele>470.39999389648</ele>
        <time>2022-02-18T11:47:04.737Z</time>
      </trkpt>
      <trkpt lat="46.95253" lon="6.8375">
        <ele>470.29998779297</ele>
        <time>2022-02-18T11:47:06.263Z</time>
      </trkpt>
      <trkpt lat="46.95254" lon="6.83739">
        <ele>470.29998779297</ele>
        <time>2022-02-18T11:47:13.948Z</time>
      </trkpt>
      <trkpt lat="46.95254" lon="6.8373">
        <ele>470.09999084473</ele>
        <time>2022-02-18T11:47:15.631Z</time>
      </trkpt>
      <trkpt lat="46.95253" lon="6.83722">
        <ele>470.19999694824</ele>
        <time>2022-02-18T11:47:22.376Z</time>
      </trkpt>
      <trkpt lat="46.95251" lon="6.83703">
        <ele>470</ele>
        <time>2022-02-18T11:47:26.745Z</time>
      </trkpt>
      <trkpt lat="46.95244" lon="6.83641">
        <ele>469.39999389648</ele>
        <time>2022-02-18T11:47:41.252Z</time>
      </trkpt>
      <trkpt lat="46.9524" lon="6.83609">
        <ele>469</ele>
        <time>2022-02-18T11:47:48.400Z</time>
      </trkpt>
      <trkpt lat="46.95225" lon="6.8361">
        <ele>467.29998779297</ele>
        <time>2022-02-18T11:47:51.730Z</time>
      </trkpt>
      <trkpt lat="46.95217" lon="6.83609">
        <ele>466.5</ele>
        <time>2022-02-18T11:47:53.510Z</time>
      </trkpt>
      <trkpt lat="46.95217" lon="6.8361">
        <ele>466.5</ele>
        <time>2022-02-18T11:47:54.203Z</time>
      </trkpt>
      <trkpt lat="46.95217" lon="6.83609">
        <ele>466.5</ele>
        <time>2022-02-18T11:47:54.895Z</time>
      </trkpt>
      <trkpt lat="46.95212" lon="6.83609">
        <ele>465.59999084473</ele>
        <time>2022-02-18T11:47:56.004Z</time>
      </trkpt>
      <trkpt lat="46.95202" lon="6.83608">
        <ele>463.69999694824</ele>
        <time>2022-02-18T11:47:58.227Z</time>
      </trkpt>
      <trkpt lat="46.95192" lon="6.83606">
        <ele>462.29998779297</ele>
        <time>2022-02-18T11:48:00.465Z</time>
      </trkpt>
      <trkpt lat="46.95148" lon="6.83594">
        <ele>454.89999389648</ele>
        <time>2022-02-18T11:48:10.391Z</time>
      </trkpt>
      <trkpt lat="46.95139" lon="6.83591">
        <ele>453.39999389648</ele>
        <time>2022-02-18T11:48:12.438Z</time>
      </trkpt>
      <trkpt lat="46.95134" lon="6.83588">
        <ele>452.69999694824</ele>
        <time>2022-02-18T11:48:13.636Z</time>
      </trkpt>
      <trkpt lat="46.95131" lon="6.83586">
        <ele>452.39999389648</ele>
        <time>2022-02-18T11:48:14.367Z</time>
      </trkpt>
      <trkpt lat="46.95125" lon="6.83593">
        <ele>451.79998779297</ele>
        <time>2022-02-18T11:48:16.068Z</time>
      </trkpt>
      <trkpt lat="46.95117" lon="6.83603">
        <ele>450.79998779297</ele>
        <time>2022-02-18T11:48:18.400Z</time>
      </trkpt>
      <trkpt lat="46.9511" lon="6.83614">
        <ele>450.09999084473</ele>
        <time>2022-02-18T11:48:20.677Z</time>
      </trkpt>
      <trkpt lat="46.95102" lon="6.83625">
        <ele>449.19999694824</ele>
        <time>2022-02-18T11:48:23.110Z</time>
      </trkpt>
      <trkpt lat="46.95094" lon="6.83635">
        <ele>448.39999389648</ele>
        <time>2022-02-18T11:48:25.442Z</time>
      </trkpt>
      <trkpt lat="46.95077" lon="6.83653">
        <ele>447.69999694824</ele>
        <time>2022-02-18T11:48:31.142Z</time>
      </trkpt>
      <trkpt lat="46.95071" lon="6.83658">
        <ele>447.39999389648</ele>
        <time>2022-02-18T11:48:32.844Z</time>
      </trkpt>
      <trkpt lat="46.95061" lon="6.83666">
        <ele>447</ele>
        <time>2022-02-18T11:48:35.886Z</time>
      </trkpt>
      <trkpt lat="46.95049" lon="6.83674">
        <ele>446.79998779297</ele>
        <time>2022-02-18T11:48:40.280Z</time>
      </trkpt>
      <trkpt lat="46.95031" lon="6.83685">
        <ele>446.59999084473</ele>
        <time>2022-02-18T11:48:47.202Z</time>
      </trkpt>
      <trkpt lat="46.95017" lon="6.83697">
        <ele>446.39999389648</ele>
        <time>2022-02-18T11:48:52.805Z</time>
      </trkpt>
      <trkpt lat="46.95006" lon="6.83706">
        <ele>446.19999694824</ele>
        <time>2022-02-18T11:48:56.967Z</time>
      </trkpt>
      <trkpt lat="46.95" lon="6.83713">
        <ele>446.29998779297</ele>
        <time>2022-02-18T11:49:05.803Z</time>
      </trkpt>
      <trkpt lat="46.94995" lon="6.8372">
        <ele>446.19999694824</ele>
        <time>2022-02-18T11:49:08.128Z</time>
      </trkpt>
      <trkpt lat="46.94989" lon="6.83731">
        <ele>446.19999694824</ele>
        <time>2022-02-18T11:49:17.879Z</time>
      </trkpt>
      <trkpt lat="46.94968" lon="6.83771">
        <ele>446.09999084473</ele>
        <time>2022-02-18T11:49:51.336Z</time>
      </trkpt>
      <trkpt lat="46.94956" lon="6.83793">
        <ele>446.09999084473</ele>
        <time>2022-02-18T11:50:10.837Z</time>
      </trkpt>
      <trkpt lat="46.94951" lon="6.83801">
        <ele>446.09999084473</ele>
        <time>2022-02-18T11:50:18.348Z</time>
      </trkpt>
      <trkpt lat="46.94949" lon="6.83807">
        <ele>446.29998779297</ele>
        <time>2022-02-18T11:50:26.080Z</time>
      </trkpt>
      <trkpt lat="46.94948" lon="6.8381">
        <ele>446.29998779297</ele>
        <time>2022-02-18T11:50:28.392Z</time>
      </trkpt>
      <trkpt lat="46.94944" lon="6.83805">
        <ele>446.69999694824</ele>
        <time>2022-02-18T11:50:39.641Z</time>
      </trkpt>
      <trkpt lat="46.94935" lon="6.83795">
        <ele>447.5</ele>
        <time>2022-02-18T11:51:02.843Z</time>
      </trkpt>
      <trkpt lat="46.9493" lon="6.83792">
        <ele>447.79998779297</ele>
        <time>2022-02-18T11:51:12.787Z</time>
      </trkpt>
      <trkpt lat="46.9491" lon="6.8378">
        <ele>449.59999084473</ele>
        <time>2022-02-18T11:52:01.817Z</time>
      </trkpt>
      <trkpt lat="46.94904" lon="6.83777">
        <ele>450</ele>
        <time>2022-02-18T11:52:14.119Z</time>
      </trkpt>
      <trkpt lat="46.94901" lon="6.83775">
        <ele>450.09999084473</ele>
        <time>2022-02-18T11:52:18.749Z</time>
      </trkpt>
      <trkpt lat="46.94895" lon="6.83768">
        <ele>450.69999694824</ele>
        <time>2022-02-18T11:52:35.442Z</time>
      </trkpt>
      <trkpt lat="46.94893" lon="6.8377">
        <ele>450.79998779297</ele>
        <time>2022-02-18T11:52:39.393Z</time>
      </trkpt>
      <trkpt lat="46.94889" lon="6.83772">
        <ele>450.59999084473</ele>
        <time>2022-02-18T11:52:40.399Z</time>
      </trkpt>
      <trkpt lat="46.9488" lon="6.83775">
        <ele>449.59999084473</ele>
        <time>2022-02-18T11:52:42.446Z</time>
      </trkpt>
      <trkpt lat="46.94878" lon="6.83775">
        <ele>449.5</ele>
        <time>2022-02-18T11:52:42.911Z</time>
      </trkpt>
      <trkpt lat="46.94874" lon="6.83775">
        <ele>449.5</ele>
        <time>2022-02-18T11:52:46.969Z</time>
      </trkpt>
      <trkpt lat="46.94868" lon="6.83774">
        <ele>449.5</ele>
        <time>2022-02-18T11:52:53.095Z</time>
      </trkpt>
      <trkpt lat="46.94863" lon="6.83773">
        <ele>449.5</ele>
        <time>2022-02-18T11:52:58.214Z</time>
      </trkpt>
      <trkpt lat="46.9486" lon="6.83771">
        <ele>449.39999389648</ele>
        <time>2022-02-18T11:52:59.138Z</time>
      </trkpt>
      <trkpt lat="46.94855" lon="6.83768">
        <ele>449.39999389648</ele>
        <time>2022-02-18T11:53:04.619Z</time>
      </trkpt>
      <trkpt lat="46.94853" lon="6.83766">
        <ele>449.39999389648</ele>
        <time>2022-02-18T11:53:07.076Z</time>
      </trkpt>
      <trkpt lat="46.9485" lon="6.83763">
        <ele>449.5</ele>
        <time>2022-02-18T11:53:12.004Z</time>
      </trkpt>
      <trkpt lat="46.94847" lon="6.83758">
        <ele>449.59999084473</ele>
        <time>2022-02-18T11:53:17.777Z</time>
      </trkpt>
      <trkpt lat="46.94842" lon="6.83747">
        <ele>449.79998779297</ele>
        <time>2022-02-18T11:53:29.261Z</time>
      </trkpt>
      <trkpt lat="46.9484" lon="6.83748">
        <ele>449.79998779297</ele>
        <time>2022-02-18T11:53:31.405Z</time>
      </trkpt>
      <trkpt lat="46.94837" lon="6.8375">
        <ele>450.59999084473</ele>
        <time>2022-02-18T11:53:44.302Z</time>
      </trkpt>
      <trkpt lat="46.94835" lon="6.83752">
        <ele>450.89999389648</ele>
        <time>2022-02-18T11:53:52.629Z</time>
      </trkpt>
      <trkpt lat="46.94834" lon="6.83756">
        <ele>451.29998779297</ele>
        <time>2022-02-18T11:54:04.007Z</time>
      </trkpt>
      <trkpt lat="46.94834" lon="6.83767">
        <ele>452.29998779297</ele>
        <time>2022-02-18T11:54:33.278Z</time>
      </trkpt>
      <trkpt lat="46.94835" lon="6.83779">
        <ele>453.69999694824</ele>
        <time>2022-02-18T11:55:05.570Z</time>
      </trkpt>
      <trkpt lat="46.94836" lon="6.83784">
        <ele>454.39999389648</ele>
        <time>2022-02-18T11:55:19.487Z</time>
      </trkpt>
      <trkpt lat="46.94846" lon="6.83809">
        <ele>457.19999694824</ele>
        <time>2022-02-18T11:56:36.886Z</time>
      </trkpt>
      <trkpt lat="46.94857" lon="6.83834">
        <ele>459.29998779297</ele>
        <time>2022-02-18T11:57:32.301Z</time>
      </trkpt>
      <trkpt lat="46.94857" lon="6.83836">
        <ele>459.39999389648</ele>
        <time>2022-02-18T11:57:35.158Z</time>
      </trkpt>
      <trkpt lat="46.94856" lon="6.83835">
        <ele>459.59999084473</ele>
        <time>2022-02-18T11:57:39.895Z</time>
      </trkpt>
      <trkpt lat="46.94853" lon="6.83829">
        <ele>460.5</ele>
        <time>2022-02-18T11:57:59.761Z</time>
      </trkpt>
      <trkpt lat="46.94849" lon="6.83824">
        <ele>461.5</ele>
        <time>2022-02-18T11:58:20.337Z</time>
      </trkpt>
      <trkpt lat="46.9484" lon="6.83817">
        <ele>464.39999389648</ele>
        <time>2022-02-18T11:59:00.209Z</time>
      </trkpt>
      <trkpt lat="46.94839" lon="6.83817">
        <ele>465</ele>
        <time>2022-02-18T11:59:04.122Z</time>
      </trkpt>
      <trkpt lat="46.94839" lon="6.83819">
        <ele>465.39999389648</ele>
        <time>2022-02-18T11:59:09.464Z</time>
      </trkpt>
      <trkpt lat="46.94838" lon="6.83822">
        <ele>465.69999694824</ele>
        <time>2022-02-18T11:59:18.156Z</time>
      </trkpt>
      <trkpt lat="46.94843" lon="6.83855">
        <ele>470.09999084473</ele>
        <time>2022-02-18T12:00:48.450Z</time>
      </trkpt>
      <trkpt lat="46.94846" lon="6.83862">
        <ele>470.39999389648</ele>
        <time>2022-02-18T12:00:58.670Z</time>
      </trkpt>
      <trkpt lat="46.94851" lon="6.83876">
        <ele>471.59999084473</ele>
        <time>2022-02-18T12:01:30.630Z</time>
      </trkpt>
      <trkpt lat="46.94851" lon="6.83879">
        <ele>471.79998779297</ele>
        <time>2022-02-18T12:01:35.912Z</time>
      </trkpt>
      <trkpt lat="46.94851" lon="6.83888">
        <ele>473.09999084473</ele>
        <time>2022-02-18T12:01:59.952Z</time>
      </trkpt>
      <trkpt lat="46.9485" lon="6.83899">
        <ele>474</ele>
        <time>2022-02-18T12:02:24.421Z</time>
      </trkpt>
      <trkpt lat="46.94849" lon="6.83902">
        <ele>474.29998779297</ele>
        <time>2022-02-18T12:02:33.112Z</time>
      </trkpt>
      <trkpt lat="46.94848" lon="6.83903">
        <ele>474.59999084473</ele>
        <time>2022-02-18T12:02:37.850Z</time>
      </trkpt>
      <trkpt lat="46.94847" lon="6.83902">
        <ele>474.79998779297</ele>
        <time>2022-02-18T12:02:42.587Z</time>
      </trkpt>
      <trkpt lat="46.94846" lon="6.83897">
        <ele>475.29998779297</ele>
        <time>2022-02-18T12:02:56.505Z</time>
      </trkpt>
      <trkpt lat="46.94845" lon="6.83891">
        <ele>476.09999084473</ele>
        <time>2022-02-18T12:03:13.002Z</time>
      </trkpt>
      <trkpt lat="46.94841" lon="6.83881">
        <ele>477</ele>
        <time>2022-02-18T12:03:37.105Z</time>
      </trkpt>
      <trkpt lat="46.94839" lon="6.83874">
        <ele>477</ele>
        <time>2022-02-18T12:03:42.360Z</time>
      </trkpt>
      <trkpt lat="46.94834" lon="6.83865">
        <ele>477.39999389648</ele>
        <time>2022-02-18T12:03:56.457Z</time>
      </trkpt>
      <trkpt lat="46.9483" lon="6.83855">
        <ele>477.89999389648</ele>
        <time>2022-02-18T12:04:11.820Z</time>
      </trkpt>
      <trkpt lat="46.94827" lon="6.83848">
        <ele>478.5</ele>
        <time>2022-02-18T12:04:27.685Z</time>
      </trkpt>
      <trkpt lat="46.94825" lon="6.83845">
        <ele>478.89999389648</ele>
        <time>2022-02-18T12:04:38.886Z</time>
      </trkpt>
      <trkpt lat="46.94823" lon="6.83844">
        <ele>479.09999084473</ele>
        <time>2022-02-18T12:04:44.184Z</time>
      </trkpt>
      <trkpt lat="46.94821" lon="6.83844">
        <ele>479.39999389648</ele>
        <time>2022-02-18T12:04:52.010Z</time>
      </trkpt>
      <trkpt lat="46.94818" lon="6.83845">
        <ele>479.69999694824</ele>
        <time>2022-02-18T12:04:59.934Z</time>
      </trkpt>
      <trkpt lat="46.94815" lon="6.83848">
        <ele>480.29998779297</ele>
        <time>2022-02-18T12:05:14.147Z</time>
      </trkpt>
      <trkpt lat="46.9481" lon="6.83854">
        <ele>481.5</ele>
        <time>2022-02-18T12:05:39.438Z</time>
      </trkpt>
      <trkpt lat="46.94803" lon="6.83865">
        <ele>482.59999084473</ele>
        <time>2022-02-18T12:06:08.549Z</time>
      </trkpt>
      <trkpt lat="46.94779" lon="6.83895">
        <ele>485.69999694824</ele>
        <time>2022-02-18T12:07:30.390Z</time>
      </trkpt>
      <trkpt lat="46.94761" lon="6.83917">
        <ele>486.19999694824</ele>
        <time>2022-02-18T12:07:59.946Z</time>
      </trkpt>
      <trkpt lat="46.94756" lon="6.83921">
        <ele>486.19999694824</ele>
        <time>2022-02-18T12:08:05.726Z</time>
      </trkpt>
      <trkpt lat="46.94758" lon="6.83929">
        <ele>486.19999694824</ele>
        <time>2022-02-18T12:08:11.626Z</time>
      </trkpt>
      <trkpt lat="46.94752" lon="6.83933">
        <ele>486.5</ele>
        <time>2022-02-18T12:08:22.985Z</time>
      </trkpt>
      <trkpt lat="46.94746" lon="6.83939">
        <ele>486.69999694824</ele>
        <time>2022-02-18T12:08:32.840Z</time>
      </trkpt>
      <trkpt lat="46.94731" lon="6.83958">
        <ele>487.29998779297</ele>
        <time>2022-02-18T12:09:00.669Z</time>
      </trkpt>
      <trkpt lat="46.94714" lon="6.83978">
        <ele>488.09999084473</ele>
        <time>2022-02-18T12:09:33.985Z</time>
      </trkpt>
      <trkpt lat="46.94698" lon="6.83997">
        <ele>489.09999084473</ele>
        <time>2022-02-18T12:10:10.177Z</time>
      </trkpt>
      <trkpt lat="46.94688" lon="6.84009">
        <ele>489</ele>
        <time>2022-02-18T12:10:14.924Z</time>
      </trkpt>
      <trkpt lat="46.94677" lon="6.84023">
        <ele>488.29998779297</ele>
        <time>2022-02-18T12:10:18.371Z</time>
      </trkpt>
      <trkpt lat="46.94668" lon="6.84034">
        <ele>487.59999084473</ele>
        <time>2022-02-18T12:10:20.885Z</time>
      </trkpt>
      <trkpt lat="46.9466" lon="6.84043">
        <ele>486.89999389648</ele>
        <time>2022-02-18T12:10:23.122Z</time>
      </trkpt>
      <trkpt lat="46.94652" lon="6.84053">
        <ele>486.59999084473</ele>
        <time>2022-02-18T12:10:26.127Z</time>
      </trkpt>
      <trkpt lat="46.94591" lon="6.84131">
        <ele>486.79998779297</ele>
        <time>2022-02-18T12:11:50.171Z</time>
      </trkpt>
      <trkpt lat="46.94584" lon="6.8414">
        <ele>487</ele>
        <time>2022-02-18T12:12:01.934Z</time>
      </trkpt>
      <trkpt lat="46.94581" lon="6.84142">
        <ele>487.19999694824</ele>
        <time>2022-02-18T12:12:08.220Z</time>
      </trkpt>
      <trkpt lat="46.94579" lon="6.84145">
        <ele>487.39999389648</ele>
        <time>2022-02-18T12:12:14.058Z</time>
      </trkpt>
      <trkpt lat="46.94577" lon="6.84146">
        <ele>487.59999084473</ele>
        <time>2022-02-18T12:12:19.356Z</time>
      </trkpt>
      <trkpt lat="46.94574" lon="6.84147">
        <ele>487.79998779297</ele>
        <time>2022-02-18T12:12:25.409Z</time>
      </trkpt>
      <trkpt lat="46.9457" lon="6.84147">
        <ele>488.19999694824</ele>
        <time>2022-02-18T12:12:35.961Z</time>
      </trkpt>
      <trkpt lat="46.94567" lon="6.84146">
        <ele>488.29998779297</ele>
        <time>2022-02-18T12:12:40.405Z</time>
      </trkpt>
      <trkpt lat="46.94565" lon="6.84145">
        <ele>488.19999694824</ele>
        <time>2022-02-18T12:12:40.908Z</time>
      </trkpt>
      <trkpt lat="46.94557" lon="6.8416">
        <ele>488.29998779297</ele>
        <time>2022-02-18T12:12:55.091Z</time>
      </trkpt>
      <trkpt lat="46.94547" lon="6.8418">
        <ele>488.39999389648</ele>
        <time>2022-02-18T12:13:13.242Z</time>
      </trkpt>
      <trkpt lat="46.94533" lon="6.84209">
        <ele>488.79998779297</ele>
        <time>2022-02-18T12:13:42.219Z</time>
      </trkpt>
      <trkpt lat="46.94527" lon="6.84222">
        <ele>489.29998779297</ele>
        <time>2022-02-18T12:14:00.816Z</time>
      </trkpt>
      <trkpt lat="46.94509" lon="6.8426">
        <ele>490.59999084473</ele>
        <time>2022-02-18T12:14:52.242Z</time>
      </trkpt>
      <trkpt lat="46.94504" lon="6.84269">
        <ele>491</ele>
        <time>2022-02-18T12:15:06.339Z</time>
      </trkpt>
      <trkpt lat="46.94497" lon="6.84282">
        <ele>491.29998779297</ele>
        <time>2022-02-18T12:15:21.489Z</time>
      </trkpt>
      <trkpt lat="46.94479" lon="6.84312">
        <ele>491.89999389648</ele>
        <time>2022-02-18T12:15:56.133Z</time>
      </trkpt>
      <trkpt lat="46.94473" lon="6.84324">
        <ele>491.89999389648</ele>
        <time>2022-02-18T12:16:06.434Z</time>
      </trkpt>
      <trkpt lat="46.94469" lon="6.84331">
        <ele>491.89999389648</ele>
        <time>2022-02-18T12:16:12.756Z</time>
      </trkpt>
      <trkpt lat="46.94465" lon="6.84343">
        <ele>491.69999694824</ele>
        <time>2022-02-18T12:16:15.558Z</time>
      </trkpt>
      <trkpt lat="46.9446" lon="6.84358">
        <ele>491.5</ele>
        <time>2022-02-18T12:16:19.247Z</time>
      </trkpt>
      <trkpt lat="46.94458" lon="6.84363">
        <ele>491.29998779297</ele>
        <time>2022-02-18T12:16:20.162Z</time>
      </trkpt>
      <trkpt lat="46.9445" lon="6.84397">
        <ele>490.89999389648</ele>
        <time>2022-02-18T12:16:28.231Z</time>
      </trkpt>
      <trkpt lat="46.94451" lon="6.84392">
        <ele>491.09999084473</ele>
        <time>2022-02-18T12:16:34.809Z</time>
      </trkpt>
      <trkpt lat="46.94452" lon="6.84392">
        <ele>491.09999084473</ele>
        <time>2022-02-18T12:16:35.823Z</time>
      </trkpt>
      <trkpt lat="46.94451" lon="6.84392">
        <ele>491.09999084473</ele>
        <time>2022-02-18T12:16:36.838Z</time>
      </trkpt>
      <trkpt lat="46.9445" lon="6.84397">
        <ele>490.89999389648</ele>
        <time>2022-02-18T12:16:37.623Z</time>
      </trkpt>
      <trkpt lat="46.94445" lon="6.84422">
        <ele>490.69999694824</ele>
        <time>2022-02-18T12:16:43.853Z</time>
      </trkpt>
      <trkpt lat="46.94442" lon="6.84435">
        <ele>490.59999084473</ele>
        <time>2022-02-18T12:16:47.160Z</time>
      </trkpt>
      <trkpt lat="46.94439" lon="6.84448">
        <ele>490.59999084473</ele>
        <time>2022-02-18T12:16:56.664Z</time>
      </trkpt>
      <trkpt lat="46.94432" lon="6.84471">
        <ele>490.29998779297</ele>
        <time>2022-02-18T12:17:02.235Z</time>
      </trkpt>
      <trkpt lat="46.94429" lon="6.8448">
        <ele>490</ele>
        <time>2022-02-18T12:17:03.914Z</time>
      </trkpt>
      <trkpt lat="46.94423" lon="6.84495">
        <ele>489.5</ele>
        <time>2022-02-18T12:17:06.876Z</time>
      </trkpt>
      <trkpt lat="46.94417" lon="6.84507">
        <ele>488.79998779297</ele>
        <time>2022-02-18T12:17:09.128Z</time>
      </trkpt>
      <trkpt lat="46.94409" lon="6.84524">
        <ele>488.5</ele>
        <time>2022-02-18T12:17:13.494Z</time>
      </trkpt>
      <trkpt lat="46.944" lon="6.84542">
        <ele>488.09999084473</ele>
        <time>2022-02-18T12:17:17.954Z</time>
      </trkpt>
      <trkpt lat="46.94391" lon="6.84557">
        <ele>487.89999389648</ele>
        <time>2022-02-18T12:17:22.526Z</time>
      </trkpt>
      <trkpt lat="46.94386" lon="6.84566">
        <ele>487.69999694824</ele>
        <time>2022-02-18T12:17:24.872Z</time>
      </trkpt>
      <trkpt lat="46.94375" lon="6.84587">
        <ele>487.29998779297</ele>
        <time>2022-02-18T12:17:30.414Z</time>
      </trkpt>
      <trkpt lat="46.94358" lon="6.84624">
        <ele>486.5</ele>
        <time>2022-02-18T12:17:39.329Z</time>
      </trkpt>
      <trkpt lat="46.94353" lon="6.84631">
        <ele>486.39999389648</ele>
        <time>2022-02-18T12:17:41.654Z</time>
      </trkpt>
      <trkpt lat="46.94347" lon="6.84642">
        <ele>486.19999694824</ele>
        <time>2022-02-18T12:17:44.648Z</time>
      </trkpt>
      <trkpt lat="46.94342" lon="6.84649">
        <ele>485.79998779297</ele>
        <time>2022-02-18T12:17:46.154Z</time>
      </trkpt>
      <trkpt lat="46.94336" lon="6.84657">
        <ele>485.29998779297</ele>
        <time>2022-02-18T12:17:47.868Z</time>
      </trkpt>
      <trkpt lat="46.94331" lon="6.84661">
        <ele>485</ele>
        <time>2022-02-18T12:17:49.163Z</time>
      </trkpt>
      <trkpt lat="46.94328" lon="6.84663">
        <ele>484.69999694824</ele>
        <time>2022-02-18T12:17:49.894Z</time>
      </trkpt>
      <trkpt lat="46.94317" lon="6.84664">
        <ele>484</ele>
        <time>2022-02-18T12:17:52.188Z</time>
      </trkpt>
      <trkpt lat="46.94311" lon="6.84665">
        <ele>483.89999389648</ele>
        <time>2022-02-18T12:17:54.166Z</time>
      </trkpt>
      <trkpt lat="46.94308" lon="6.84665">
        <ele>483.69999694824</ele>
        <time>2022-02-18T12:17:54.775Z</time>
      </trkpt>
      <trkpt lat="46.94304" lon="6.84663">
        <ele>483.5</ele>
        <time>2022-02-18T12:17:55.781Z</time>
      </trkpt>
      <trkpt lat="46.943" lon="6.8466">
        <ele>483.19999694824</ele>
        <time>2022-02-18T12:17:56.778Z</time>
      </trkpt>
      <trkpt lat="46.94293" lon="6.84653">
        <ele>483</ele>
        <time>2022-02-18T12:17:59.335Z</time>
      </trkpt>
      <trkpt lat="46.94288" lon="6.84646">
        <ele>483</ele>
        <time>2022-02-18T12:18:06.351Z</time>
      </trkpt>
      <trkpt lat="46.94285" lon="6.84643">
        <ele>483.19999694824</ele>
        <time>2022-02-18T12:18:13.015Z</time>
      </trkpt>
      <trkpt lat="46.9428" lon="6.84636">
        <ele>483.39999389648</ele>
        <time>2022-02-18T12:18:22.560Z</time>
      </trkpt>
      <trkpt lat="46.9427" lon="6.84625">
        <ele>483.29998779297</ele>
        <time>2022-02-18T12:18:27.135Z</time>
      </trkpt>
      <trkpt lat="46.9426" lon="6.84617">
        <ele>483.09999084473</ele>
        <time>2022-02-18T12:18:30.823Z</time>
      </trkpt>
      <trkpt lat="46.94247" lon="6.84605">
        <ele>482.89999389648</ele>
        <time>2022-02-18T12:18:36.085Z</time>
      </trkpt>
      <trkpt lat="46.94209" lon="6.84578">
        <ele>482.69999694824</ele>
        <time>2022-02-18T12:19:16.032Z</time>
      </trkpt>
      <trkpt lat="46.94195" lon="6.84569">
        <ele>482.59999084473</ele>
        <time>2022-02-18T12:19:30.129Z</time>
      </trkpt>
      <trkpt lat="46.94185" lon="6.84561">
        <ele>482.19999694824</ele>
        <time>2022-02-18T12:19:33.172Z</time>
      </trkpt>
      <trkpt lat="46.94177" lon="6.84554">
        <ele>482.09999084473</ele>
        <time>2022-02-18T12:19:36.459Z</time>
      </trkpt>
      <trkpt lat="46.94171" lon="6.84548">
        <ele>482.09999084473</ele>
        <time>2022-02-18T12:19:43.829Z</time>
      </trkpt>
      <trkpt lat="46.94157" lon="6.84535">
        <ele>482.09999084473</ele>
        <time>2022-02-18T12:20:00.645Z</time>
      </trkpt>
      <trkpt lat="46.94145" lon="6.84521">
        <ele>482.09999084473</ele>
        <time>2022-02-18T12:20:16.208Z</time>
      </trkpt>
      <trkpt lat="46.94136" lon="6.8451">
        <ele>481.89999389648</ele>
        <time>2022-02-18T12:20:20.024Z</time>
      </trkpt>
      <trkpt lat="46.94127" lon="6.84499">
        <ele>481.79998779297</ele>
        <time>2022-02-18T12:20:24.282Z</time>
      </trkpt>
      <trkpt lat="46.9411" lon="6.84478">
        <ele>481.89999389648</ele>
        <time>2022-02-18T12:20:47.811Z</time>
      </trkpt>
      <trkpt lat="46.94096" lon="6.84458">
        <ele>482.19999694824</ele>
        <time>2022-02-18T12:21:10.894Z</time>
      </trkpt>
      <trkpt lat="46.94087" lon="6.84445">
        <ele>482.19999694824</ele>
        <time>2022-02-18T12:21:23.717Z</time>
      </trkpt>
      <trkpt lat="46.94082" lon="6.84437">
        <ele>482.39999389648</ele>
        <time>2022-02-18T12:21:33.699Z</time>
      </trkpt>
      <trkpt lat="46.94081" lon="6.84435">
        <ele>482.5</ele>
        <time>2022-02-18T12:21:36.891Z</time>
      </trkpt>
      <trkpt lat="46.94079" lon="6.8443">
        <ele>482.79998779297</ele>
        <time>2022-02-18T12:21:45.338Z</time>
      </trkpt>
      <trkpt lat="46.94076" lon="6.84426">
        <ele>483</ele>
        <time>2022-02-18T12:21:52.502Z</time>
      </trkpt>
      <trkpt lat="46.94068" lon="6.84417">
        <ele>483.19999694824</ele>
        <time>2022-02-18T12:22:05.006Z</time>
      </trkpt>
      <trkpt lat="46.94061" lon="6.84409">
        <ele>483.39999389648</ele>
        <time>2022-02-18T12:22:16.355Z</time>
      </trkpt>
      <trkpt lat="46.94046" lon="6.84391">
        <ele>484.39999389648</ele>
        <time>2022-02-18T12:22:51.109Z</time>
      </trkpt>
      <trkpt lat="46.94018" lon="6.84355">
        <ele>486.39999389648</ele>
        <time>2022-02-18T12:23:58.831Z</time>
      </trkpt>
      <trkpt lat="46.94005" lon="6.84341">
        <ele>487.19999694824</ele>
        <time>2022-02-18T12:24:27.375Z</time>
      </trkpt>
      <trkpt lat="46.93995" lon="6.8433">
        <ele>487.79998779297</ele>
        <time>2022-02-18T12:24:49.269Z</time>
      </trkpt>
      <trkpt lat="46.93992" lon="6.84327">
        <ele>488.19999694824</ele>
        <time>2022-02-18T12:24:59.900Z</time>
      </trkpt>
      <trkpt lat="46.93986" lon="6.8432">
        <ele>488.5</ele>
        <time>2022-02-18T12:25:12.025Z</time>
      </trkpt>
      <trkpt lat="46.93975" lon="6.8431">
        <ele>489.29998779297</ele>
        <time>2022-02-18T12:25:36.913Z</time>
      </trkpt>
      <trkpt lat="46.93953" lon="6.84289">
        <ele>490.79998779297</ele>
        <time>2022-02-18T12:26:25.774Z</time>
      </trkpt>
      <trkpt lat="46.9393" lon="6.84267">
        <ele>492.79998779297</ele>
        <time>2022-02-18T12:27:23.062Z</time>
      </trkpt>
      <trkpt lat="46.93918" lon="6.84256">
        <ele>493.79998779297</ele>
        <time>2022-02-18T12:27:52.100Z</time>
      </trkpt>
      <trkpt lat="46.93892" lon="6.8423">
        <ele>495.69999694824</ele>
        <time>2022-02-18T12:28:52.008Z</time>
      </trkpt>
      <trkpt lat="46.93883" lon="6.84221">
        <ele>496.29998779297</ele>
        <time>2022-02-18T12:29:12.001Z</time>
      </trkpt>
      <trkpt lat="46.93874" lon="6.84211">
        <ele>497</ele>
        <time>2022-02-18T12:29:33.744Z</time>
      </trkpt>
      <trkpt lat="46.93865" lon="6.84199">
        <ele>497.79998779297</ele>
        <time>2022-02-18T12:29:57.814Z</time>
      </trkpt>
      <trkpt lat="46.93856" lon="6.84185">
        <ele>498.59999084473</ele>
        <time>2022-02-18T12:30:22.900Z</time>
      </trkpt>
      <trkpt lat="46.93848" lon="6.8417">
        <ele>499.19999694824</ele>
        <time>2022-02-18T12:30:45.388Z</time>
      </trkpt>
      <trkpt lat="46.9381" lon="6.84089">
        <ele>502.69999694824</ele>
        <time>2022-02-18T12:32:46.124Z</time>
      </trkpt>
      <trkpt lat="46.93798" lon="6.84062">
        <ele>502.29998779297</ele>
        <time>2022-02-18T12:32:53.190Z</time>
      </trkpt>
      <trkpt lat="46.93791" lon="6.84048">
        <ele>501.59999084473</ele>
        <time>2022-02-18T12:32:55.743Z</time>
      </trkpt>
      <trkpt lat="46.93777" lon="6.84019">
        <ele>501</ele>
        <time>2022-02-18T12:33:02.965Z</time>
      </trkpt>
      <trkpt lat="46.93769" lon="6.84002">
        <ele>500.29998779297</ele>
        <time>2022-02-18T12:33:06.253Z</time>
      </trkpt>
      <trkpt lat="46.93759" lon="6.83984">
        <ele>498.89999389648</ele>
        <time>2022-02-18T12:33:09.767Z</time>
      </trkpt>
      <trkpt lat="46.93753" lon="6.83972">
        <ele>498.09999084473</ele>
        <time>2022-02-18T12:33:12.019Z</time>
      </trkpt>
      <trkpt lat="46.93744" lon="6.83958">
        <ele>496.89999389648</ele>
        <time>2022-02-18T12:33:14.931Z</time>
      </trkpt>
      <trkpt lat="46.93717" lon="6.8392">
        <ele>493.59999084473</ele>
        <time>2022-02-18T12:33:23.235Z</time>
      </trkpt>
      <trkpt lat="46.93704" lon="6.83901">
        <ele>492.09999084473</ele>
        <time>2022-02-18T12:33:27.308Z</time>
      </trkpt>
      <trkpt lat="46.93694" lon="6.83886">
        <ele>490.69999694824</ele>
        <time>2022-02-18T12:33:30.482Z</time>
      </trkpt>
      <trkpt lat="46.93683" lon="6.83869">
        <ele>489.29998779297</ele>
        <time>2022-02-18T12:33:34.029Z</time>
      </trkpt>
      <trkpt lat="46.93674" lon="6.83854">
        <ele>488.09999084473</ele>
        <time>2022-02-18T12:33:37.053Z</time>
      </trkpt>
      <trkpt lat="46.93661" lon="6.83834">
        <ele>486.89999389648</ele>
        <time>2022-02-18T12:33:40.973Z</time>
      </trkpt>
      <trkpt lat="46.93648" lon="6.83813">
        <ele>485.69999694824</ele>
        <time>2022-02-18T12:33:45.049Z</time>
      </trkpt>
      <trkpt lat="46.93626" lon="6.83778">
        <ele>483.89999389648</ele>
        <time>2022-02-18T12:33:52.264Z</time>
      </trkpt>
      <trkpt lat="46.93616" lon="6.83759">
        <ele>483.09999084473</ele>
        <time>2022-02-18T12:33:56.111Z</time>
      </trkpt>
      <trkpt lat="46.9358" lon="6.83695">
        <ele>480.29998779297</ele>
        <time>2022-02-18T12:34:09.340Z</time>
      </trkpt>
      <trkpt lat="46.93576" lon="6.83689">
        <ele>480</ele>
        <time>2022-02-18T12:34:10.645Z</time>
      </trkpt>
      <trkpt lat="46.93568" lon="6.83673">
        <ele>478.59999084473</ele>
        <time>2022-02-18T12:34:13.648Z</time>
      </trkpt>
      <trkpt lat="46.93557" lon="6.83653">
        <ele>476.09999084473</ele>
        <time>2022-02-18T12:34:17.536Z</time>
      </trkpt>
      <trkpt lat="46.93551" lon="6.83643">
        <ele>474.59999084473</ele>
        <time>2022-02-18T12:34:19.552Z</time>
      </trkpt>
      <trkpt lat="46.93548" lon="6.83635">
        <ele>473.29998779297</ele>
        <time>2022-02-18T12:34:20.934Z</time>
      </trkpt>
      <trkpt lat="46.93538" lon="6.83608">
        <ele>470.79998779297</ele>
        <time>2022-02-18T12:34:25.586Z</time>
      </trkpt>
      <trkpt lat="46.93538" lon="6.83609">
        <ele>470.79998779297</ele>
        <time>2022-02-18T12:34:26.278Z</time>
      </trkpt>
      <trkpt lat="46.93538" lon="6.83608">
        <ele>470.79998779297</ele>
        <time>2022-02-18T12:34:26.971Z</time>
      </trkpt>
      <trkpt lat="46.93535" lon="6.836">
        <ele>468.39999389648</ele>
        <time>2022-02-18T12:34:28.353Z</time>
      </trkpt>
      <trkpt lat="46.93531" lon="6.83592">
        <ele>467.39999389648</ele>
        <time>2022-02-18T12:34:29.855Z</time>
      </trkpt>
      <trkpt lat="46.93529" lon="6.83588">
        <ele>466.59999084473</ele>
        <time>2022-02-18T12:34:30.605Z</time>
      </trkpt>
      <trkpt lat="46.93526" lon="6.83585">
        <ele>466.09999084473</ele>
        <time>2022-02-18T12:34:31.411Z</time>
      </trkpt>
      <trkpt lat="46.93525" lon="6.83584">
        <ele>465.79998779297</ele>
        <time>2022-02-18T12:34:31.679Z</time>
      </trkpt>
      <trkpt lat="46.93522" lon="6.83583">
        <ele>465.59999084473</ele>
        <time>2022-02-18T12:34:32.312Z</time>
      </trkpt>
      <trkpt lat="46.9352" lon="6.83583">
        <ele>465.19999694824</ele>
        <time>2022-02-18T12:34:32.756Z</time>
      </trkpt>
      <trkpt lat="46.93517" lon="6.83584">
        <ele>464.69999694824</ele>
        <time>2022-02-18T12:34:33.438Z</time>
      </trkpt>
      <trkpt lat="46.93513" lon="6.83587">
        <ele>464.19999694824</ele>
        <time>2022-02-18T12:34:34.435Z</time>
      </trkpt>
      <trkpt lat="46.935" lon="6.83597">
        <ele>462.5</ele>
        <time>2022-02-18T12:34:37.691Z</time>
      </trkpt>
      <trkpt lat="46.93469" lon="6.83621">
        <ele>460.69999694824</ele>
        <time>2022-02-18T12:34:45.752Z</time>
      </trkpt>
      <trkpt lat="46.93423" lon="6.83656">
        <ele>459.19999694824</ele>
        <time>2022-02-18T12:35:00.502Z</time>
      </trkpt>
      <trkpt lat="46.93413" lon="6.83663">
        <ele>459</ele>
        <time>2022-02-18T12:35:04.068Z</time>
      </trkpt>
      <trkpt lat="46.93405" lon="6.83668">
        <ele>458.69999694824</ele>
        <time>2022-02-18T12:35:06.405Z</time>
      </trkpt>
      <trkpt lat="46.93396" lon="6.83671">
        <ele>458</ele>
        <time>2022-02-18T12:35:08.452Z</time>
      </trkpt>
      <trkpt lat="46.93385" lon="6.83675">
        <ele>457.09999084473</ele>
        <time>2022-02-18T12:35:10.965Z</time>
      </trkpt>
      <trkpt lat="46.93378" lon="6.83678">
        <ele>456.19999694824</ele>
        <time>2022-02-18T12:35:12.583Z</time>
      </trkpt>
      <trkpt lat="46.93356" lon="6.83691">
        <ele>453.19999694824</ele>
        <time>2022-02-18T12:35:17.844Z</time>
      </trkpt>
      <trkpt lat="46.93349" lon="6.83694">
        <ele>452.09999084473</ele>
        <time>2022-02-18T12:35:19.461Z</time>
      </trkpt>
      <trkpt lat="46.93343" lon="6.83696">
        <ele>451.29998779297</ele>
        <time>2022-02-18T12:35:20.826Z</time>
      </trkpt>
      <trkpt lat="46.93334" lon="6.83696">
        <ele>450.09999084473</ele>
        <time>2022-02-18T12:35:22.822Z</time>
      </trkpt>
      <trkpt lat="46.93325" lon="6.83698">
        <ele>448.59999084473</ele>
        <time>2022-02-18T12:35:24.841Z</time>
      </trkpt>
      <trkpt lat="46.93321" lon="6.83699">
        <ele>448.19999694824</ele>
        <time>2022-02-18T12:35:25.741Z</time>
      </trkpt>
      <trkpt lat="46.93317" lon="6.83702">
        <ele>447.69999694824</ele>
        <time>2022-02-18T12:35:26.737Z</time>
      </trkpt>
      <trkpt lat="46.93313" lon="6.83708">
        <ele>446.79998779297</ele>
        <time>2022-02-18T12:35:28.007Z</time>
      </trkpt>
      <trkpt lat="46.93309" lon="6.83716">
        <ele>445.79998779297</ele>
        <time>2022-02-18T12:35:29.508Z</time>
      </trkpt>
      <trkpt lat="46.93305" lon="6.83725">
        <ele>444.69999694824</ele>
        <time>2022-02-18T12:35:31.135Z</time>
      </trkpt>
      <trkpt lat="46.93303" lon="6.83736">
        <ele>443.59999084473</ele>
        <time>2022-02-18T12:35:32.858Z</time>
      </trkpt>
      <trkpt lat="46.93302" lon="6.83747">
        <ele>442.39999389648</ele>
        <time>2022-02-18T12:35:34.539Z</time>
      </trkpt>
      <trkpt lat="46.93301" lon="6.83764">
        <ele>440.19999694824</ele>
        <time>2022-02-18T12:35:37.123Z</time>
      </trkpt>
      <trkpt lat="46.933" lon="6.83778">
        <ele>438.79998779297</ele>
        <time>2022-02-18T12:35:39.255Z</time>
      </trkpt>
      <trkpt lat="46.93299" lon="6.83795">
        <ele>437.29998779297</ele>
        <time>2022-02-18T12:35:41.838Z</time>
      </trkpt>
      <trkpt lat="46.93297" lon="6.8381">
        <ele>436.19999694824</ele>
        <time>2022-02-18T12:35:44.153Z</time>
      </trkpt>
      <trkpt lat="46.93295" lon="6.83821">
        <ele>435.59999084473</ele>
        <time>2022-02-18T12:35:45.877Z</time>
      </trkpt>
      <trkpt lat="46.93293" lon="6.83828">
        <ele>435.19999694824</ele>
        <time>2022-02-18T12:35:47.026Z</time>
      </trkpt>
      <trkpt lat="46.93291" lon="6.83831">
        <ele>435</ele>
        <time>2022-02-18T12:35:47.661Z</time>
      </trkpt>
      <trkpt lat="46.93288" lon="6.83833">
        <ele>434.69999694824</ele>
        <time>2022-02-18T12:35:48.392Z</time>
      </trkpt>
      <trkpt lat="46.93286" lon="6.83843">
        <ele>434</ele>
        <time>2022-02-18T12:35:49.970Z</time>
      </trkpt>
      <trkpt lat="46.93284" lon="6.83854">
        <ele>433.19999694824</ele>
        <time>2022-02-18T12:35:51.694Z</time>
      </trkpt>
      <trkpt lat="46.9328" lon="6.83868">
        <ele>432.39999389648</ele>
        <time>2022-02-18T12:35:53.992Z</time>
      </trkpt>
      <trkpt lat="46.93274" lon="6.83888">
        <ele>431.69999694824</ele>
        <time>2022-02-18T12:35:57.556Z</time>
      </trkpt>
      <trkpt lat="46.93275" lon="6.83903">
        <ele>431.39999389648</ele>
        <time>2022-02-18T12:36:00.477Z</time>
      </trkpt>
      <trkpt lat="46.93276" lon="6.83911">
        <ele>431.29998779297</ele>
        <time>2022-02-18T12:36:02.265Z</time>
      </trkpt>
      <trkpt lat="46.93279" lon="6.83914">
        <ele>431.29998779297</ele>
        <time>2022-02-18T12:36:05.950Z</time>
      </trkpt>
      <trkpt lat="46.93283" lon="6.83917">
        <ele>431.29998779297</ele>
        <time>2022-02-18T12:36:10.509Z</time>
      </trkpt>
      <trkpt lat="46.93287" lon="6.83921">
        <ele>431.29998779297</ele>
        <time>2022-02-18T12:36:15.423Z</time>
      </trkpt>
      <trkpt lat="46.93297" lon="6.83929">
        <ele>431.19999694824</ele>
        <time>2022-02-18T12:36:19.548Z</time>
      </trkpt>
      <trkpt lat="46.93298" lon="6.83929">
        <ele>431.19999694824</ele>
        <time>2022-02-18T12:36:20.562Z</time>
      </trkpt>
      <trkpt lat="46.93297" lon="6.83929">
        <ele>431.29998779297</ele>
        <time>2022-02-18T12:36:23.200Z</time>
      </trkpt>
      <trkpt lat="46.93357" lon="6.8397">
        <ele>431.09999084473</ele>
        <time>2022-02-18T12:37:27.396Z</time>
      </trkpt>
      <trkpt lat="46.9337" lon="6.83979">
        <ele>431.09999084473</ele>
        <time>2022-02-18T12:37:41.984Z</time>
      </trkpt>
      <trkpt lat="46.93384" lon="6.83988">
        <ele>431.09999084473</ele>
        <time>2022-02-18T12:37:57.494Z</time>
      </trkpt>
      <trkpt lat="46.93407" lon="6.84005">
        <ele>431.09999084473</ele>
        <time>2022-02-18T12:38:23.630Z</time>
      </trkpt>
      <trkpt lat="46.93417" lon="6.84012">
        <ele>431.09999084473</ele>
        <time>2022-02-18T12:38:34.874Z</time>
      </trkpt>
      <trkpt lat="46.93429" lon="6.84021">
        <ele>431.09999084473</ele>
        <time>2022-02-18T12:38:48.551Z</time>
      </trkpt>
      <trkpt lat="46.93442" lon="6.84031">
        <ele>431.09999084473</ele>
        <time>2022-02-18T12:39:03.447Z</time>
      </trkpt>
      <trkpt lat="46.9345" lon="6.84037">
        <ele>431.09999084473</ele>
        <time>2022-02-18T12:39:12.565Z</time>
      </trkpt>
      <trkpt lat="46.93458" lon="6.84044">
        <ele>431.09999084473</ele>
        <time>2022-02-18T12:39:22.019Z</time>
      </trkpt>
      <trkpt lat="46.93463" lon="6.84049">
        <ele>431.09999084473</ele>
        <time>2022-02-18T12:39:28.161Z</time>
      </trkpt>
      <trkpt lat="46.93469" lon="6.84056">
        <ele>431.09999084473</ele>
        <time>2022-02-18T12:39:35.943Z</time>
      </trkpt>
      <trkpt lat="46.93477" lon="6.84066">
        <ele>431.09999084473</ele>
        <time>2022-02-18T12:39:46.613Z</time>
      </trkpt>
      <trkpt lat="46.93492" lon="6.84087">
        <ele>431.09999084473</ele>
        <time>2022-02-18T12:40:07.665Z</time>
      </trkpt>
      <trkpt lat="46.93537" lon="6.84146">
        <ele>431.09999084473</ele>
        <time>2022-02-18T12:41:08.937Z</time>
      </trkpt>
      <trkpt lat="46.93559" lon="6.84177">
        <ele>431.09999084473</ele>
        <time>2022-02-18T12:41:39.908Z</time>
      </trkpt>
      <trkpt lat="46.93562" lon="6.84182">
        <ele>431.19999694824</ele>
        <time>2022-02-18T12:41:45.682Z</time>
      </trkpt>
      <trkpt lat="46.93566" lon="6.84189">
        <ele>431.19999694824</ele>
        <time>2022-02-18T12:41:52.005Z</time>
      </trkpt>
      <trkpt lat="46.93581" lon="6.84221">
        <ele>431.29998779297</ele>
        <time>2022-02-18T12:42:19.854Z</time>
      </trkpt>
      <trkpt lat="46.93589" lon="6.84237">
        <ele>431.29998779297</ele>
        <time>2022-02-18T12:42:33.590Z</time>
      </trkpt>
      <trkpt lat="46.93601" lon="6.84262">
        <ele>431.29998779297</ele>
        <time>2022-02-18T12:42:54.758Z</time>
      </trkpt>
      <trkpt lat="46.93631" lon="6.84331">
        <ele>431</ele>
        <time>2022-02-18T12:43:47.112Z</time>
      </trkpt>
      <trkpt lat="46.93635" lon="6.8434">
        <ele>431</ele>
        <time>2022-02-18T12:43:54.550Z</time>
      </trkpt>
      <trkpt lat="46.93641" lon="6.84349">
        <ele>430.89999389648</ele>
        <time>2022-02-18T12:43:57.544Z</time>
      </trkpt>
      <trkpt lat="46.93648" lon="6.84358">
        <ele>430.89999389648</ele>
        <time>2022-02-18T12:44:06.993Z</time>
      </trkpt>
      <trkpt lat="46.93657" lon="6.84368">
        <ele>430.89999389648</ele>
        <time>2022-02-18T12:44:18.453Z</time>
      </trkpt>
      <trkpt lat="46.93678" lon="6.84389">
        <ele>430.89999389648</ele>
        <time>2022-02-18T12:44:44.249Z</time>
      </trkpt>
      <trkpt lat="46.93713" lon="6.84421">
        <ele>431.09999084473</ele>
        <time>2022-02-18T12:45:28.051Z</time>
      </trkpt>
      <trkpt lat="46.9375" lon="6.84456">
        <ele>431.19999694824</ele>
        <time>2022-02-18T12:46:13.683Z</time>
      </trkpt>
      <trkpt lat="46.93759" lon="6.84463">
        <ele>431.09999084473</ele>
        <time>2022-02-18T12:46:17.321Z</time>
      </trkpt>
      <trkpt lat="46.93799" lon="6.84501">
        <ele>431.29998779297</ele>
        <time>2022-02-18T12:47:07.621Z</time>
      </trkpt>
      <trkpt lat="46.93822" lon="6.84524">
        <ele>431.09999084473</ele>
        <time>2022-02-18T12:47:33.073Z</time>
      </trkpt>
      <trkpt lat="46.93837" lon="6.84539">
        <ele>431.09999084473</ele>
        <time>2022-02-18T12:47:51.499Z</time>
      </trkpt>
      <trkpt lat="46.93849" lon="6.84556">
        <ele>431.09999084473</ele>
        <time>2022-02-18T12:48:08.435Z</time>
      </trkpt>
      <trkpt lat="46.93853" lon="6.84562">
        <ele>431.09999084473</ele>
        <time>2022-02-18T12:48:14.244Z</time>
      </trkpt>
      <trkpt lat="46.93859" lon="6.84573">
        <ele>431.09999084473</ele>
        <time>2022-02-18T12:48:23.996Z</time>
      </trkpt>
      <trkpt lat="46.93865" lon="6.84586">
        <ele>431.09999084473</ele>
        <time>2022-02-18T12:48:34.864Z</time>
      </trkpt>
      <trkpt lat="46.93883" lon="6.84625">
        <ele>430.89999389648</ele>
        <time>2022-02-18T12:49:04.632Z</time>
      </trkpt>
      <trkpt lat="46.93892" lon="6.84645">
        <ele>430.89999389648</ele>
        <time>2022-02-18T12:49:21.224Z</time>
      </trkpt>
      <trkpt lat="46.939" lon="6.84663">
        <ele>430.89999389648</ele>
        <time>2022-02-18T12:49:36.100Z</time>
      </trkpt>
      <trkpt lat="46.93916" lon="6.84702">
        <ele>430.89999389648</ele>
        <time>2022-02-18T12:50:07.614Z</time>
      </trkpt>
      <trkpt lat="46.93924" lon="6.8472">
        <ele>431</ele>
        <time>2022-02-18T12:50:23.482Z</time>
      </trkpt>
      <trkpt lat="46.9393" lon="6.84736">
        <ele>430.89999389648</ele>
        <time>2022-02-18T12:50:28.040Z</time>
      </trkpt>
      <trkpt lat="46.93935" lon="6.8475">
        <ele>430.89999389648</ele>
        <time>2022-02-18T12:50:38.984Z</time>
      </trkpt>
      <trkpt lat="46.93939" lon="6.84763">
        <ele>430.89999389648</ele>
        <time>2022-02-18T12:50:48.860Z</time>
      </trkpt>
      <trkpt lat="46.93943" lon="6.84778">
        <ele>430.79998779297</ele>
        <time>2022-02-18T12:50:52.823Z</time>
      </trkpt>
      <trkpt lat="46.93949" lon="6.84805">
        <ele>430.79998779297</ele>
        <time>2022-02-18T12:51:12.490Z</time>
      </trkpt>
      <trkpt lat="46.93958" lon="6.84845">
        <ele>430.79998779297</ele>
        <time>2022-02-18T12:51:41.661Z</time>
      </trkpt>
      <trkpt lat="46.93964" lon="6.8488">
        <ele>430.79998779297</ele>
        <time>2022-02-18T12:52:06.656Z</time>
      </trkpt>
      <trkpt lat="46.9397" lon="6.84908">
        <ele>430.69999694824</ele>
        <time>2022-02-18T12:52:25.539Z</time>
      </trkpt>
      <trkpt lat="46.93972" lon="6.84925">
        <ele>430.79998779297</ele>
        <time>2022-02-18T12:52:38.495Z</time>
      </trkpt>
      <trkpt lat="46.93979" lon="6.84981">
        <ele>430.89999389648</ele>
        <time>2022-02-18T12:53:18.879Z</time>
      </trkpt>
      <trkpt lat="46.93972" lon="6.84925">
        <ele>430.79998779297</ele>
        <time>2022-02-18T12:53:56.816Z</time>
      </trkpt>
      <trkpt lat="46.93989" lon="6.85063">
        <ele>431</ele>
        <time>2022-02-18T12:55:35.838Z</time>
      </trkpt>
      <trkpt lat="46.93991" lon="6.85083">
        <ele>431.09999084473</ele>
        <time>2022-02-18T12:55:50.833Z</time>
      </trkpt>
      <trkpt lat="46.93993" lon="6.85089">
        <ele>431.09999084473</ele>
        <time>2022-02-18T12:55:55.458Z</time>
      </trkpt>
      <trkpt lat="46.93996" lon="6.85104">
        <ele>431</ele>
        <time>2022-02-18T12:55:59.290Z</time>
      </trkpt>
      <trkpt lat="46.94001" lon="6.85119">
        <ele>431.09999084473</ele>
        <time>2022-02-18T12:56:11.862Z</time>
      </trkpt>
      <trkpt lat="46.94004" lon="6.85127">
        <ele>431.29998779297</ele>
        <time>2022-02-18T12:56:20.816Z</time>
      </trkpt>
      <trkpt lat="46.94006" lon="6.85135">
        <ele>431.39999389648</ele>
        <time>2022-02-18T12:56:27.820Z</time>
      </trkpt>
      <trkpt lat="46.94012" lon="6.8515">
        <ele>431.59999084473</ele>
        <time>2022-02-18T12:56:42.059Z</time>
      </trkpt>
      <trkpt lat="46.94016" lon="6.85163">
        <ele>431.79998779297</ele>
        <time>2022-02-18T12:56:54.224Z</time>
      </trkpt>
      <trkpt lat="46.94026" lon="6.85187">
        <ele>432.09999084473</ele>
        <time>2022-02-18T12:57:16.952Z</time>
      </trkpt>
      <trkpt lat="46.94032" lon="6.85201">
        <ele>432.5</ele>
        <time>2022-02-18T12:57:33.904Z</time>
      </trkpt>
      <trkpt lat="46.94037" lon="6.85209">
        <ele>432.59999084473</ele>
        <time>2022-02-18T12:57:42.477Z</time>
      </trkpt>
      <trkpt lat="46.94042" lon="6.85215">
        <ele>433</ele>
        <time>2022-02-18T12:57:54.911Z</time>
      </trkpt>
      <trkpt lat="46.94044" lon="6.85218">
        <ele>433</ele>
        <time>2022-02-18T12:57:57.815Z</time>
      </trkpt>
      <trkpt lat="46.94046" lon="6.85221">
        <ele>433.29998779297</ele>
        <time>2022-02-18T12:58:05.737Z</time>
      </trkpt>
      <trkpt lat="46.94048" lon="6.85226">
        <ele>433.19999694824</ele>
        <time>2022-02-18T12:58:06.908Z</time>
      </trkpt>
      <trkpt lat="46.94052" lon="6.85227">
        <ele>433.5</ele>
        <time>2022-02-18T12:58:15.445Z</time>
      </trkpt>
      <trkpt lat="46.94055" lon="6.85228">
        <ele>433.5</ele>
        <time>2022-02-18T12:58:18.566Z</time>
      </trkpt>
      <trkpt lat="46.9406" lon="6.85231">
        <ele>433.5</ele>
        <time>2022-02-18T12:58:24.047Z</time>
      </trkpt>
      <trkpt lat="46.94064" lon="6.85235">
        <ele>433.59999084473</ele>
        <time>2022-02-18T12:58:30.107Z</time>
      </trkpt>
      <trkpt lat="46.94067" lon="6.8524">
        <ele>433.59999084473</ele>
        <time>2022-02-18T12:58:34.717Z</time>
      </trkpt>
      <trkpt lat="46.9407" lon="6.85245">
        <ele>433.69999694824</ele>
        <time>2022-02-18T12:58:40.491Z</time>
      </trkpt>
      <trkpt lat="46.94074" lon="6.8525">
        <ele>433.89999389648</ele>
        <time>2022-02-18T12:58:48.678Z</time>
      </trkpt>
      <trkpt lat="46.94073" lon="6.85254">
        <ele>433.79998779297</ele>
        <time>2022-02-18T12:58:49.460Z</time>
      </trkpt>
      <trkpt lat="46.94073" lon="6.85259">
        <ele>433.89999389648</ele>
        <time>2022-02-18T12:58:54.193Z</time>
      </trkpt>
      <trkpt lat="46.94073" lon="6.85264">
        <ele>433.89999389648</ele>
        <time>2022-02-18T12:58:57.656Z</time>
      </trkpt>
      <trkpt lat="46.94074" lon="6.8527">
        <ele>434</ele>
        <time>2022-02-18T12:59:03.121Z</time>
      </trkpt>
      <trkpt lat="46.94078" lon="6.85278">
        <ele>434.09999084473</ele>
        <time>2022-02-18T12:59:11.064Z</time>
      </trkpt>
      <trkpt lat="46.94082" lon="6.85288">
        <ele>434.19999694824</ele>
        <time>2022-02-18T12:59:20.142Z</time>
      </trkpt>
      <trkpt lat="46.94085" lon="6.85293">
        <ele>434.19999694824</ele>
        <time>2022-02-18T12:59:24.752Z</time>
      </trkpt>
      <trkpt lat="46.94089" lon="6.85296">
        <ele>434.19999694824</ele>
        <time>2022-02-18T12:59:29.311Z</time>
      </trkpt>
      <trkpt lat="46.94095" lon="6.853">
        <ele>434.29998779297</ele>
        <time>2022-02-18T12:59:37.078Z</time>
      </trkpt>
      <trkpt lat="46.94103" lon="6.85306">
        <ele>434.29998779297</ele>
        <time>2022-02-18T12:59:46.196Z</time>
      </trkpt>
      <trkpt lat="46.94113" lon="6.85311">
        <ele>434.29998779297</ele>
        <time>2022-02-18T12:59:56.915Z</time>
      </trkpt>
      <trkpt lat="46.94116" lon="6.85307">
        <ele>434.39999389648</ele>
        <time>2022-02-18T13:00:02.231Z</time>
      </trkpt>
      <trkpt lat="46.94118" lon="6.85306">
        <ele>434.29998779297</ele>
        <time>2022-02-18T13:00:02.734Z</time>
      </trkpt>
      <trkpt lat="46.9412" lon="6.85308">
        <ele>434.39999389648</ele>
        <time>2022-02-18T13:00:06.685Z</time>
      </trkpt>
      <trkpt lat="46.94139" lon="6.85316">
        <ele>434.39999389648</ele>
        <time>2022-02-18T13:00:26.741Z</time>
      </trkpt>
      <trkpt lat="46.94149" lon="6.8532">
        <ele>434.29998779297</ele>
        <time>2022-02-18T13:00:30.450Z</time>
      </trkpt>
      <trkpt lat="46.94157" lon="6.85322">
        <ele>434.29998779297</ele>
        <time>2022-02-18T13:00:38.683Z</time>
      </trkpt>
      <trkpt lat="46.94164" lon="6.85323">
        <ele>434.29998779297</ele>
        <time>2022-02-18T13:00:45.817Z</time>
      </trkpt>
      <trkpt lat="46.94192" lon="6.85323">
        <ele>434.19999694824</ele>
        <time>2022-02-18T13:01:12.749Z</time>
      </trkpt>
      <trkpt lat="46.9423" lon="6.85324">
        <ele>434.19999694824</ele>
        <time>2022-02-18T13:01:51.304Z</time>
      </trkpt>
      <trkpt lat="46.94247" lon="6.85325">
        <ele>434.09999084473</ele>
        <time>2022-02-18T13:02:07.138Z</time>
      </trkpt>
      <trkpt lat="46.94264" lon="6.85325">
        <ele>434</ele>
        <time>2022-02-18T13:02:22.958Z</time>
      </trkpt>
      <trkpt lat="46.94261" lon="6.85339">
        <ele>434.19999694824</ele>
        <time>2022-02-18T13:02:35.395Z</time>
      </trkpt>
      <trkpt lat="46.9427" lon="6.85345">
        <ele>434.19999694824</ele>
        <time>2022-02-18T13:02:45.426Z</time>
      </trkpt>
      <trkpt lat="46.94289" lon="6.8536">
        <ele>434.29998779297</ele>
        <time>2022-02-18T13:03:08.293Z</time>
      </trkpt>
      <trkpt lat="46.94299" lon="6.85367">
        <ele>434.39999389648</ele>
        <time>2022-02-18T13:03:20.549Z</time>
      </trkpt>
      <trkpt lat="46.94336" lon="6.85394">
        <ele>434.5</ele>
        <time>2022-02-18T13:04:03.435Z</time>
      </trkpt>
      <trkpt lat="46.94347" lon="6.85402">
        <ele>434.39999389648</ele>
        <time>2022-02-18T13:04:07.919Z</time>
      </trkpt>
      <trkpt lat="46.94355" lon="6.85409">
        <ele>434.29998779297</ele>
        <time>2022-02-18T13:04:11.206Z</time>
      </trkpt>
      <trkpt lat="46.9436" lon="6.85416">
        <ele>434.29998779297</ele>
        <time>2022-02-18T13:04:18.222Z</time>
      </trkpt>
      <trkpt lat="46.94372" lon="6.8543">
        <ele>434.09999084473</ele>
        <time>2022-02-18T13:04:23.474Z</time>
      </trkpt>
      <trkpt lat="46.94383" lon="6.85442">
        <ele>434</ele>
        <time>2022-02-18T13:04:28.540Z</time>
      </trkpt>
      <trkpt lat="46.94396" lon="6.85453">
        <ele>433.89999389648</ele>
        <time>2022-02-18T13:04:42.360Z</time>
      </trkpt>
      <trkpt lat="46.94418" lon="6.8547">
        <ele>434</ele>
        <time>2022-02-18T13:05:08.558Z</time>
      </trkpt>
      <trkpt lat="46.94448" lon="6.85492">
        <ele>434.19999694824</ele>
        <time>2022-02-18T13:05:44.559Z</time>
      </trkpt>
      <trkpt lat="46.94514" lon="6.85539">
        <ele>434.39999389648</ele>
        <time>2022-02-18T13:07:00.912Z</time>
      </trkpt>
      <trkpt lat="46.94535" lon="6.85554">
        <ele>434.69999694824</ele>
        <time>2022-02-18T13:07:27.773Z</time>
      </trkpt>
      <trkpt lat="46.9454" lon="6.85558">
        <ele>434.79998779297</ele>
        <time>2022-02-18T13:07:34.660Z</time>
      </trkpt>
      <trkpt lat="46.94543" lon="6.85562">
        <ele>434.69999694824</ele>
        <time>2022-02-18T13:07:35.869Z</time>
      </trkpt>
      <trkpt lat="46.94533" lon="6.85572">
        <ele>434.89999389648</ele>
        <time>2022-02-18T13:07:50.342Z</time>
      </trkpt>
      <trkpt lat="46.94529" lon="6.85581">
        <ele>434.89999389648</ele>
        <time>2022-02-18T13:07:57.779Z</time>
      </trkpt>
      <trkpt lat="46.94515" lon="6.85606">
        <ele>434.89999389648</ele>
        <time>2022-02-18T13:08:20.173Z</time>
      </trkpt>
      <trkpt lat="46.94503" lon="6.85629">
        <ele>434.79998779297</ele>
        <time>2022-02-18T13:08:38.779Z</time>
      </trkpt>
      <trkpt lat="46.94479" lon="6.85677">
        <ele>434.5</ele>
        <time>2022-02-18T13:08:53.764Z</time>
      </trkpt>
      <trkpt lat="46.94475" lon="6.85688">
        <ele>434.29998779297</ele>
        <time>2022-02-18T13:08:56.333Z</time>
      </trkpt>
      <trkpt lat="46.94474" lon="6.85695">
        <ele>434.29998779297</ele>
        <time>2022-02-18T13:09:01.286Z</time>
      </trkpt>
      <trkpt lat="46.94473" lon="6.85701">
        <ele>434.19999694824</ele>
        <time>2022-02-18T13:09:02.556Z</time>
      </trkpt>
      <trkpt lat="46.94472" lon="6.85717">
        <ele>434.09999084473</ele>
        <time>2022-02-18T13:09:06.509Z</time>
      </trkpt>
      <trkpt lat="46.94473" lon="6.85729">
        <ele>434</ele>
        <time>2022-02-18T13:09:09.368Z</time>
      </trkpt>
      <trkpt lat="46.94474" lon="6.85737">
        <ele>434</ele>
        <time>2022-02-18T13:09:15.001Z</time>
      </trkpt>
      <trkpt lat="46.94475" lon="6.85743">
        <ele>434</ele>
        <time>2022-02-18T13:09:19.278Z</time>
      </trkpt>
      <trkpt lat="46.94479" lon="6.85752">
        <ele>434</ele>
        <time>2022-02-18T13:09:26.716Z</time>
      </trkpt>
      <trkpt lat="46.94524" lon="6.85831">
        <ele>434</ele>
        <time>2022-02-18T13:10:37.972Z</time>
      </trkpt>
      <trkpt lat="46.94543" lon="6.85864">
        <ele>434</ele>
        <time>2022-02-18T13:11:07.869Z</time>
      </trkpt>
      <trkpt lat="46.94555" lon="6.85884">
        <ele>434</ele>
        <time>2022-02-18T13:11:26.310Z</time>
      </trkpt>
      <trkpt lat="46.94556" lon="6.85887">
        <ele>434</ele>
        <time>2022-02-18T13:11:28.622Z</time>
      </trkpt>
      <trkpt lat="46.94561" lon="6.85896">
        <ele>434.09999084473</ele>
        <time>2022-02-18T13:11:37.709Z</time>
      </trkpt>
      <trkpt lat="46.94565" lon="6.85904">
        <ele>434</ele>
        <time>2022-02-18T13:11:39.976Z</time>
      </trkpt>
      <trkpt lat="46.9456" lon="6.85913">
        <ele>433.89999389648</ele>
        <time>2022-02-18T13:11:42.702Z</time>
      </trkpt>
      <trkpt lat="46.94552" lon="6.85934">
        <ele>433.89999389648</ele>
        <time>2022-02-18T13:11:59.357Z</time>
      </trkpt>
      <trkpt lat="46.94549" lon="6.85943">
        <ele>433.89999389648</ele>
        <time>2022-02-18T13:12:06.293Z</time>
      </trkpt>
      <trkpt lat="46.94547" lon="6.85949">
        <ele>434</ele>
        <time>2022-02-18T13:12:12.080Z</time>
      </trkpt>
      <trkpt lat="46.94547" lon="6.85956">
        <ele>434.09999084473</ele>
        <time>2022-02-18T13:12:18.077Z</time>
      </trkpt>
      <trkpt lat="46.94546" lon="6.85971">
        <ele>434.09999084473</ele>
        <time>2022-02-18T13:12:28.515Z</time>
      </trkpt>
      <trkpt lat="46.94545" lon="6.85983">
        <ele>434.09999084473</ele>
        <time>2022-02-18T13:12:36.888Z</time>
      </trkpt>
      <trkpt lat="46.94543" lon="6.85993">
        <ele>434</ele>
        <time>2022-02-18T13:12:39.292Z</time>
      </trkpt>
      <trkpt lat="46.94539" lon="6.86011">
        <ele>434</ele>
        <time>2022-02-18T13:12:52.402Z</time>
      </trkpt>
      <trkpt lat="46.94533" lon="6.86045">
        <ele>433.69999694824</ele>
        <time>2022-02-18T13:13:00.663Z</time>
      </trkpt>
      <trkpt lat="46.9453" lon="6.86065">
        <ele>433.29998779297</ele>
        <time>2022-02-18T13:13:04.655Z</time>
      </trkpt>
      <trkpt lat="46.94528" lon="6.86079">
        <ele>433.19999694824</ele>
        <time>2022-02-18T13:13:08.121Z</time>
      </trkpt>
      <trkpt lat="46.94527" lon="6.86093">
        <ele>433.09999084473</ele>
        <time>2022-02-18T13:13:11.525Z</time>
      </trkpt>
      <trkpt lat="46.94527" lon="6.86112">
        <ele>433</ele>
        <time>2022-02-18T13:13:16.289Z</time>
      </trkpt>
      <trkpt lat="46.94527" lon="6.86126">
        <ele>433</ele>
        <time>2022-02-18T13:13:25.985Z</time>
      </trkpt>
      <trkpt lat="46.94528" lon="6.86134">
        <ele>433</ele>
        <time>2022-02-18T13:13:31.618Z</time>
      </trkpt>
      <trkpt lat="46.9453" lon="6.86144">
        <ele>433</ele>
        <time>2022-02-18T13:13:38.835Z</time>
      </trkpt>
      <trkpt lat="46.94535" lon="6.86162">
        <ele>432.89999389648</ele>
        <time>2022-02-18T13:13:43.719Z</time>
      </trkpt>
      <trkpt lat="46.94537" lon="6.86169">
        <ele>433.09999084473</ele>
        <time>2022-02-18T13:13:51.849Z</time>
      </trkpt>
      <trkpt lat="46.9454" lon="6.86183">
        <ele>433.09999084473</ele>
        <time>2022-02-18T13:14:02.012Z</time>
      </trkpt>
      <trkpt lat="46.94541" lon="6.86196">
        <ele>433.09999084473</ele>
        <time>2022-02-18T13:14:11.072Z</time>
      </trkpt>
      <trkpt lat="46.94542" lon="6.86206">
        <ele>433.09999084473</ele>
        <time>2022-02-18T13:14:18.072Z</time>
      </trkpt>
      <trkpt lat="46.94542" lon="6.86216">
        <ele>433.09999084473</ele>
        <time>2022-02-18T13:14:24.997Z</time>
      </trkpt>
      <trkpt lat="46.94542" lon="6.86231">
        <ele>433.19999694824</ele>
        <time>2022-02-18T13:14:36.406Z</time>
      </trkpt>
      <trkpt lat="46.94542" lon="6.86241">
        <ele>433.19999694824</ele>
        <time>2022-02-18T13:14:43.332Z</time>
      </trkpt>
      <trkpt lat="46.94541" lon="6.86253">
        <ele>433.29998779297</ele>
        <time>2022-02-18T13:14:52.749Z</time>
      </trkpt>
      <trkpt lat="46.94538" lon="6.86277">
        <ele>433.29998779297</ele>
        <time>2022-02-18T13:15:09.647Z</time>
      </trkpt>
      <trkpt lat="46.94536" lon="6.86288">
        <ele>433.29998779297</ele>
        <time>2022-02-18T13:15:17.531Z</time>
      </trkpt>
      <trkpt lat="46.94544" lon="6.86297">
        <ele>433.69999694824</ele>
        <time>2022-02-18T13:15:33.601Z</time>
      </trkpt>
      <trkpt lat="46.94555" lon="6.86309">
        <ele>433.89999389648</ele>
        <time>2022-02-18T13:15:49.660Z</time>
      </trkpt>
      <trkpt lat="46.94568" lon="6.86322">
        <ele>434.09999084473</ele>
        <time>2022-02-18T13:16:07.731Z</time>
      </trkpt>
      <trkpt lat="46.9458" lon="6.86336">
        <ele>434.09999084473</ele>
        <time>2022-02-18T13:16:23.294Z</time>
      </trkpt>
      <trkpt lat="46.94597" lon="6.86356">
        <ele>434</ele>
        <time>2022-02-18T13:16:43.961Z</time>
      </trkpt>
      <trkpt lat="46.94601" lon="6.86362">
        <ele>433.89999389648</ele>
        <time>2022-02-18T13:16:45.816Z</time>
      </trkpt>
      <trkpt lat="46.9461" lon="6.86378">
        <ele>433.69999694824</ele>
        <time>2022-02-18T13:16:50.594Z</time>
      </trkpt>
      <trkpt lat="46.94616" lon="6.86388">
        <ele>433.59999084473</ele>
        <time>2022-02-18T13:16:53.788Z</time>
      </trkpt>
      <trkpt lat="46.94643" lon="6.86428">
        <ele>434</ele>
        <time>2022-02-18T13:17:36.854Z</time>
      </trkpt>
      <trkpt lat="46.94651" lon="6.86441">
        <ele>434</ele>
        <time>2022-02-18T13:17:48.975Z</time>
      </trkpt>
      <trkpt lat="46.94662" lon="6.86457">
        <ele>433.89999389648</ele>
        <time>2022-02-18T13:18:03.287Z</time>
      </trkpt>
      <trkpt lat="46.94666" lon="6.86462">
        <ele>433.79998779297</ele>
        <time>2022-02-18T13:18:04.959Z</time>
      </trkpt>
      <trkpt lat="46.9467" lon="6.86464">
        <ele>433.79998779297</ele>
        <time>2022-02-18T13:18:09.247Z</time>
      </trkpt>
      <trkpt lat="46.94674" lon="6.86474">
        <ele>433.29998779297</ele>
        <time>2022-02-18T13:18:10.897Z</time>
      </trkpt>
      <trkpt lat="46.94682" lon="6.86486">
        <ele>433.09999084473</ele>
        <time>2022-02-18T13:18:14.607Z</time>
      </trkpt>
      <trkpt lat="46.94692" lon="6.86501">
        <ele>432.79998779297</ele>
        <time>2022-02-18T13:18:19.056Z</time>
      </trkpt>
      <trkpt lat="46.94712" lon="6.86531">
        <ele>432.79998779297</ele>
        <time>2022-02-18T13:18:48.096Z</time>
      </trkpt>
      <trkpt lat="46.94722" lon="6.86546">
        <ele>433</ele>
        <time>2022-02-18T13:19:04.747Z</time>
      </trkpt>
      <trkpt lat="46.94763" lon="6.86608">
        <ele>433.19999694824</ele>
        <time>2022-02-18T13:20:06.445Z</time>
      </trkpt>
      <trkpt lat="46.9479" lon="6.8665">
        <ele>433.09999084473</ele>
        <time>2022-02-18T13:20:44.901Z</time>
      </trkpt>
      <trkpt lat="46.94803" lon="6.86669">
        <ele>433.09999084473</ele>
        <time>2022-02-18T13:21:03.531Z</time>
      </trkpt>
      <trkpt lat="46.9481" lon="6.86679">
        <ele>433.5</ele>
        <time>2022-02-18T13:21:19.394Z</time>
      </trkpt>
      <trkpt lat="46.94818" lon="6.86688">
        <ele>433.5</ele>
        <time>2022-02-18T13:21:29.627Z</time>
      </trkpt>
      <trkpt lat="46.94818" lon="6.86689">
        <ele>433.5</ele>
        <time>2022-02-18T13:21:30.320Z</time>
      </trkpt>
      <trkpt lat="46.94818" lon="6.86688">
        <ele>433.5</ele>
        <time>2022-02-18T13:21:31.012Z</time>
      </trkpt>
      <trkpt lat="46.94834" lon="6.8671">
        <ele>433.39999389648</ele>
        <time>2022-02-18T13:21:51.821Z</time>
      </trkpt>
      <trkpt lat="46.94844" lon="6.86722">
        <ele>433.5</ele>
        <time>2022-02-18T13:22:05.935Z</time>
      </trkpt>
      <trkpt lat="46.94846" lon="6.86725">
        <ele>433.5</ele>
        <time>2022-02-18T13:22:08.839Z</time>
      </trkpt>
      <trkpt lat="46.94847" lon="6.86726">
        <ele>433.39999389648</ele>
        <time>2022-02-18T13:22:09.107Z</time>
      </trkpt>
      <trkpt lat="46.94855" lon="6.86736">
        <ele>433.29998779297</ele>
        <time>2022-02-18T13:22:12.877Z</time>
      </trkpt>
      <trkpt lat="46.94863" lon="6.86744">
        <ele>433.39999389648</ele>
        <time>2022-02-18T13:22:23.730Z</time>
      </trkpt>
      <trkpt lat="46.94867" lon="6.8675">
        <ele>433.59999084473</ele>
        <time>2022-02-18T13:22:32.271Z</time>
      </trkpt>
      <trkpt lat="46.94869" lon="6.86753">
        <ele>433.59999084473</ele>
        <time>2022-02-18T13:22:35.174Z</time>
      </trkpt>
      <trkpt lat="46.9487" lon="6.86756">
        <ele>433.59999084473</ele>
        <time>2022-02-18T13:22:37.486Z</time>
      </trkpt>
      <trkpt lat="46.94876" lon="6.86759">
        <ele>433.5</ele>
        <time>2022-02-18T13:22:39.583Z</time>
      </trkpt>
      <trkpt lat="46.94881" lon="6.86761">
        <ele>431.29998779297</ele>
        <time>2022-02-18T13:22:40.733Z</time>
      </trkpt>
      <trkpt lat="46.9488" lon="6.86767">
        <ele>431.19999694824</ele>
        <time>2022-02-18T13:22:42.003Z</time>
      </trkpt>
      <trkpt lat="46.94876" lon="6.86783">
        <ele>431.19999694824</ele>
        <time>2022-02-18T13:22:53.803Z</time>
      </trkpt>
      <trkpt lat="46.94864" lon="6.86814">
        <ele>431.09999084473</ele>
        <time>2022-02-18T13:23:17.020Z</time>
      </trkpt>
      <trkpt lat="46.9486" lon="6.86825">
        <ele>431.89999389648</ele>
        <time>2022-02-18T13:23:38.231Z</time>
      </trkpt>
      <trkpt lat="46.94858" lon="6.8683">
        <ele>433.19999694824</ele>
        <time>2022-02-18T13:23:53.711Z</time>
      </trkpt>
      <trkpt lat="46.94862" lon="6.86836">
        <ele>433.69999694824</ele>
        <time>2022-02-18T13:24:07.155Z</time>
      </trkpt>
      <trkpt lat="46.94865" lon="6.86842">
        <ele>433.89999389648</ele>
        <time>2022-02-18T13:24:15.213Z</time>
      </trkpt>
      <trkpt lat="46.94874" lon="6.86855">
        <ele>432.09999084473</ele>
        <time>2022-02-18T13:24:18.016Z</time>
      </trkpt>
      <trkpt lat="46.94876" lon="6.8686">
        <ele>433</ele>
        <time>2022-02-18T13:24:33.495Z</time>
      </trkpt>
      <trkpt lat="46.94878" lon="6.86864">
        <ele>433.39999389648</ele>
        <time>2022-02-18T13:24:44.346Z</time>
      </trkpt>
      <trkpt lat="46.94876" lon="6.86871">
        <ele>433.39999389648</ele>
        <time>2022-02-18T13:24:49.602Z</time>
      </trkpt>
      <trkpt lat="46.94872" lon="6.86881">
        <ele>433.39999389648</ele>
        <time>2022-02-18T13:24:57.628Z</time>
      </trkpt>
      <trkpt lat="46.9487" lon="6.86891">
        <ele>432.79998779297</ele>
        <time>2022-02-18T13:24:59.206Z</time>
      </trkpt>
      <trkpt lat="46.9487" lon="6.869">
        <ele>433.39999389648</ele>
        <time>2022-02-18T13:25:15.052Z</time>
      </trkpt>
      <trkpt lat="46.94871" lon="6.86908">
        <ele>433.39999389648</ele>
        <time>2022-02-18T13:25:20.684Z</time>
      </trkpt>
      <trkpt lat="46.94874" lon="6.86913">
        <ele>433.5</ele>
        <time>2022-02-18T13:25:26.458Z</time>
      </trkpt>
      <trkpt lat="46.94894" lon="6.86906">
        <ele>433.39999389648</ele>
        <time>2022-02-18T13:25:45.872Z</time>
      </trkpt>
      <trkpt lat="46.9491" lon="6.869">
        <ele>433.59999084473</ele>
        <time>2022-02-18T13:26:04.717Z</time>
      </trkpt>
      <trkpt lat="46.94917" lon="6.86899">
        <ele>433.59999084473</ele>
        <time>2022-02-18T13:26:11.852Z</time>
      </trkpt>
      <trkpt lat="46.94926" lon="6.86897">
        <ele>433.69999694824</ele>
        <time>2022-02-18T13:26:22.120Z</time>
      </trkpt>
      <trkpt lat="46.94936" lon="6.86897">
        <ele>433.69999694824</ele>
        <time>2022-02-18T13:26:32.264Z</time>
      </trkpt>
      <trkpt lat="46.94952" lon="6.86897">
        <ele>433.79998779297</ele>
        <time>2022-02-18T13:26:49.481Z</time>
      </trkpt>
      <trkpt lat="46.94965" lon="6.86897">
        <ele>434.09999084473</ele>
        <time>2022-02-18T13:27:06.204Z</time>
      </trkpt>
      <trkpt lat="46.94962" lon="6.86901">
        <ele>433.79998779297</ele>
        <time>2022-02-18T13:27:07.103Z</time>
      </trkpt>
      <trkpt lat="46.94961" lon="6.86907">
        <ele>433.69999694824</ele>
        <time>2022-02-18T13:27:08.373Z</time>
      </trkpt>
      <trkpt lat="46.9496" lon="6.86914">
        <ele>433.5</ele>
        <time>2022-02-18T13:27:09.605Z</time>
      </trkpt>
      <trkpt lat="46.9496" lon="6.8693">
        <ele>433.5</ele>
        <time>2022-02-18T13:27:20.685Z</time>
      </trkpt>
      <trkpt lat="46.94962" lon="6.86942">
        <ele>433.39999389648</ele>
        <time>2022-02-18T13:27:23.616Z</time>
      </trkpt>
      <trkpt lat="46.94962" lon="6.86947">
        <ele>433.5</ele>
        <time>2022-02-18T13:27:28.348Z</time>
      </trkpt>
      <trkpt lat="46.94962" lon="6.86951">
        <ele>433.39999389648</ele>
        <time>2022-02-18T13:27:29.067Z</time>
      </trkpt>
      <trkpt lat="46.9496" lon="6.86957">
        <ele>433.29998779297</ele>
        <time>2022-02-18T13:27:30.468Z</time>
      </trkpt>
      <trkpt lat="46.94957" lon="6.86963">
        <ele>433.29998779297</ele>
        <time>2022-02-18T13:27:35.618Z</time>
      </trkpt>
      <trkpt lat="46.94952" lon="6.8697">
        <ele>433.29998779297</ele>
        <time>2022-02-18T13:27:42.634Z</time>
      </trkpt>
      <trkpt lat="46.94939" lon="6.86985">
        <ele>433.29998779297</ele>
        <time>2022-02-18T13:27:59.422Z</time>
      </trkpt>
      <trkpt lat="46.94931" lon="6.86999">
        <ele>433.29998779297</ele>
        <time>2022-02-18T13:28:12.066Z</time>
      </trkpt>
      <trkpt lat="46.94924" lon="6.87014">
        <ele>433.19999694824</ele>
        <time>2022-02-18T13:28:16.600Z</time>
      </trkpt>
      <trkpt lat="46.94917" lon="6.87038">
        <ele>433</ele>
        <time>2022-02-18T13:28:22.843Z</time>
      </trkpt>
      <trkpt lat="46.94914" lon="6.8705">
        <ele>432.69999694824</ele>
        <time>2022-02-18T13:28:25.189Z</time>
      </trkpt>
      <trkpt lat="46.9491" lon="6.8707">
        <ele>431.59999084473</ele>
        <time>2022-02-18T13:28:28.344Z</time>
      </trkpt>
      <trkpt lat="46.94908" lon="6.87075">
        <ele>431.09999084473</ele>
        <time>2022-02-18T13:28:29.221Z</time>
      </trkpt>
      <trkpt lat="46.94907" lon="6.87079">
        <ele>430.59999084473</ele>
        <time>2022-02-18T13:28:29.866Z</time>
      </trkpt>
      <trkpt lat="46.94909" lon="6.87083">
        <ele>430.39999389648</ele>
        <time>2022-02-18T13:28:30.596Z</time>
      </trkpt>
      <trkpt lat="46.9491" lon="6.87088">
        <ele>430.19999694824</ele>
        <time>2022-02-18T13:28:31.380Z</time>
      </trkpt>
      <trkpt lat="46.94912" lon="6.871">
        <ele>429.59999084473</ele>
        <time>2022-02-18T13:28:33.250Z</time>
      </trkpt>
      <trkpt lat="46.94917" lon="6.871">
        <ele>430.5</ele>
        <time>2022-02-18T13:28:52.815Z</time>
      </trkpt>
      <trkpt lat="46.94926" lon="6.87099">
        <ele>430.59999084473</ele>
        <time>2022-02-18T13:29:03.005Z</time>
      </trkpt>
      <trkpt lat="46.94942" lon="6.87097">
        <ele>430.59999084473</ele>
        <time>2022-02-18T13:29:19.296Z</time>
      </trkpt>
      <trkpt lat="46.94955" lon="6.87096">
        <ele>430.5</ele>
        <time>2022-02-18T13:29:24.079Z</time>
      </trkpt>
      <trkpt lat="46.94957" lon="6.87094">
        <ele>430.89999389648</ele>
        <time>2022-02-18T13:29:33.554Z</time>
      </trkpt>
      <trkpt lat="46.94965" lon="6.87092">
        <ele>431</ele>
        <time>2022-02-18T13:29:42.835Z</time>
      </trkpt>
      <trkpt lat="46.94977" lon="6.8709">
        <ele>431.19999694824</ele>
        <time>2022-02-18T13:29:57.277Z</time>
      </trkpt>
      <trkpt lat="46.94984" lon="6.87089">
        <ele>431.19999694824</ele>
        <time>2022-02-18T13:30:04.412Z</time>
      </trkpt>
      <trkpt lat="46.94987" lon="6.87089">
        <ele>431.39999389648</ele>
        <time>2022-02-18T13:30:10.386Z</time>
      </trkpt>
      <trkpt lat="46.9499" lon="6.87089">
        <ele>431.39999389648</ele>
        <time>2022-02-18T13:30:13.429Z</time>
      </trkpt>
      <trkpt lat="46.94992" lon="6.87089">
        <ele>431.09999084473</ele>
        <time>2022-02-18T13:30:13.873Z</time>
      </trkpt>
      <trkpt lat="46.94994" lon="6.87093">
        <ele>430</ele>
        <time>2022-02-18T13:30:14.624Z</time>
      </trkpt>
      <trkpt lat="46.94997" lon="6.87096">
        <ele>429.79998779297</ele>
        <time>2022-02-18T13:30:15.433Z</time>
      </trkpt>
      <trkpt lat="46.95004" lon="6.87099">
        <ele>430.5</ele>
        <time>2022-02-18T13:30:33.948Z</time>
      </trkpt>
      <trkpt lat="46.95011" lon="6.87099">
        <ele>430.5</ele>
        <time>2022-02-18T13:30:41.049Z</time>
      </trkpt>
      <trkpt lat="46.95015" lon="6.87101">
        <ele>430.29998779297</ele>
        <time>2022-02-18T13:30:42.055Z</time>
      </trkpt>
      <trkpt lat="46.9502" lon="6.87104">
        <ele>429.69999694824</ele>
        <time>2022-02-18T13:30:43.254Z</time>
      </trkpt>
      <trkpt lat="46.95028" lon="6.87105">
        <ele>429.59999084473</ele>
        <time>2022-02-18T13:30:46.022Z</time>
      </trkpt>
      <trkpt lat="46.95038" lon="6.87104">
        <ele>430</ele>
        <time>2022-02-18T13:31:02.049Z</time>
      </trkpt>
      <trkpt lat="46.95049" lon="6.87106">
        <ele>430.59999084473</ele>
        <time>2022-02-18T13:31:22.258Z</time>
      </trkpt>
      <trkpt lat="46.95059" lon="6.87109">
        <ele>431</ele>
        <time>2022-02-18T13:31:38.411Z</time>
      </trkpt>
      <trkpt lat="46.95067" lon="6.87113">
        <ele>430.39999389648</ele>
        <time>2022-02-18T13:31:40.286Z</time>
      </trkpt>
      <trkpt lat="46.95073" lon="6.87112">
        <ele>430.29998779297</ele>
        <time>2022-02-18T13:31:42.264Z</time>
      </trkpt>
      <trkpt lat="46.95085" lon="6.87115">
        <ele>430.5</ele>
        <time>2022-02-18T13:31:56.801Z</time>
      </trkpt>
      <trkpt lat="46.95089" lon="6.87117">
        <ele>430.39999389648</ele>
        <time>2022-02-18T13:31:58.075Z</time>
      </trkpt>
      <trkpt lat="46.95094" lon="6.8712">
        <ele>430.39999389648</ele>
        <time>2022-02-18T13:32:03.556Z</time>
      </trkpt>
      <trkpt lat="46.95101" lon="6.87122">
        <ele>430.39999389648</ele>
        <time>2022-02-18T13:32:10.791Z</time>
      </trkpt>
      <trkpt lat="46.95107" lon="6.87126">
        <ele>430.19999694824</ele>
        <time>2022-02-18T13:32:12.639Z</time>
      </trkpt>
      <trkpt lat="46.9512" lon="6.87136">
        <ele>429.79998779297</ele>
        <time>2022-02-18T13:32:16.894Z</time>
      </trkpt>
      <trkpt lat="46.95123" lon="6.87136">
        <ele>430</ele>
        <time>2022-02-18T13:32:22.868Z</time>
      </trkpt>
      <trkpt lat="46.95126" lon="6.87134">
        <ele>430.19999694824</ele>
        <time>2022-02-18T13:32:29.154Z</time>
      </trkpt>
      <trkpt lat="46.95129" lon="6.87134">
        <ele>430.29998779297</ele>
        <time>2022-02-18T13:32:33.535Z</time>
      </trkpt>
      <trkpt lat="46.95137" lon="6.8714">
        <ele>429.89999389648</ele>
        <time>2022-02-18T13:32:35.730Z</time>
      </trkpt>
      <trkpt lat="46.95143" lon="6.87139">
        <ele>430.19999694824</ele>
        <time>2022-02-18T13:32:46.419Z</time>
      </trkpt>
      <trkpt lat="46.95147" lon="6.87137">
        <ele>430.79998779297</ele>
        <time>2022-02-18T13:33:02.957Z</time>
      </trkpt>
      <trkpt lat="46.95152" lon="6.87134">
        <ele>431</ele>
        <time>2022-02-18T13:33:11.250Z</time>
      </trkpt>
      <trkpt lat="46.95161" lon="6.87128">
        <ele>430.79998779297</ele>
        <time>2022-02-18T13:33:14.350Z</time>
      </trkpt>
      <trkpt lat="46.9517" lon="6.87123">
        <ele>430.69999694824</ele>
        <time>2022-02-18T13:33:17.760Z</time>
      </trkpt>
      <trkpt lat="46.95189" lon="6.87117">
        <ele>430.39999389648</ele>
        <time>2022-02-18T13:33:24.216Z</time>
      </trkpt>
      <trkpt lat="46.95195" lon="6.87116">
        <ele>430.5</ele>
        <time>2022-02-18T13:33:31.437Z</time>
      </trkpt>
      <trkpt lat="46.952" lon="6.87116">
        <ele>430.39999389648</ele>
        <time>2022-02-18T13:33:33.009Z</time>
      </trkpt>
      <trkpt lat="46.95206" lon="6.87117">
        <ele>430.59999084473</ele>
        <time>2022-02-18T13:33:41.803Z</time>
      </trkpt>
      <trkpt lat="46.95214" lon="6.8712">
        <ele>430.59999084473</ele>
        <time>2022-02-18T13:33:50.180Z</time>
      </trkpt>
      <trkpt lat="46.95224" lon="6.87124">
        <ele>430.69999694824</ele>
        <time>2022-02-18T13:34:01.715Z</time>
      </trkpt>
      <trkpt lat="46.95224" lon="6.87125">
        <ele>430.69999694824</ele>
        <time>2022-02-18T13:34:02.408Z</time>
      </trkpt>
      <trkpt lat="46.95224" lon="6.87124">
        <ele>430.69999694824</ele>
        <time>2022-02-18T13:34:03.100Z</time>
      </trkpt>
      <trkpt lat="46.9523" lon="6.87127">
        <ele>430.69999694824</ele>
        <time>2022-02-18T13:34:09.532Z</time>
      </trkpt>
      <trkpt lat="46.9524" lon="6.87131">
        <ele>430.69999694824</ele>
        <time>2022-02-18T13:34:20.048Z</time>
      </trkpt>
      <trkpt lat="46.95247" lon="6.87136">
        <ele>430.69999694824</ele>
        <time>2022-02-18T13:34:27.948Z</time>
      </trkpt>
      <trkpt lat="46.95271" lon="6.87162">
        <ele>430.29998779297</ele>
        <time>2022-02-18T13:34:38.118Z</time>
      </trkpt>
      <trkpt lat="46.95278" lon="6.87165">
        <ele>430.39999389648</ele>
        <time>2022-02-18T13:34:46.580Z</time>
      </trkpt>
      <trkpt lat="46.95288" lon="6.87169">
        <ele>430.5</ele>
        <time>2022-02-18T13:34:58.115Z</time>
      </trkpt>
      <trkpt lat="46.95298" lon="6.87174">
        <ele>430.59999084473</ele>
        <time>2022-02-18T13:35:09.852Z</time>
      </trkpt>
      <trkpt lat="46.95306" lon="6.87179">
        <ele>430.69999694824</ele>
        <time>2022-02-18T13:35:19.714Z</time>
      </trkpt>
      <trkpt lat="46.95317" lon="6.87185">
        <ele>430.79998779297</ele>
        <time>2022-02-18T13:35:32.629Z</time>
      </trkpt>
      <trkpt lat="46.95326" lon="6.87191">
        <ele>430.59999084473</ele>
        <time>2022-02-18T13:35:35.729Z</time>
      </trkpt>
      <trkpt lat="46.95336" lon="6.87201">
        <ele>430.69999694824</ele>
        <time>2022-02-18T13:35:49.017Z</time>
      </trkpt>
      <trkpt lat="46.95349" lon="6.87212">
        <ele>430.79998779297</ele>
        <time>2022-02-18T13:36:05.236Z</time>
      </trkpt>
      <trkpt lat="46.95353" lon="6.87215">
        <ele>430.69999694824</ele>
        <time>2022-02-18T13:36:06.612Z</time>
      </trkpt>
      <trkpt lat="46.95361" lon="6.87217">
        <ele>431.09999084473</ele>
        <time>2022-02-18T13:36:20.941Z</time>
      </trkpt>
      <trkpt lat="46.95367" lon="6.87222">
        <ele>430.79998779297</ele>
        <time>2022-02-18T13:36:22.643Z</time>
      </trkpt>
      <trkpt lat="46.95374" lon="6.87229">
        <ele>430.69999694824</ele>
        <time>2022-02-18T13:36:25.591Z</time>
      </trkpt>
      <trkpt lat="46.95381" lon="6.8723">
        <ele>430.69999694824</ele>
        <time>2022-02-18T13:36:32.725Z</time>
      </trkpt>
      <trkpt lat="46.95392" lon="6.87234">
        <ele>430.59999084473</ele>
        <time>2022-02-18T13:36:36.826Z</time>
      </trkpt>
      <trkpt lat="46.95403" lon="6.87239">
        <ele>430.59999084473</ele>
        <time>2022-02-18T13:36:48.509Z</time>
      </trkpt>
      <trkpt lat="46.95413" lon="6.87249">
        <ele>430.59999084473</ele>
        <time>2022-02-18T13:37:00.792Z</time>
      </trkpt>
      <trkpt lat="46.95425" lon="6.87257">
        <ele>430.69999694824</ele>
        <time>2022-02-18T13:37:15.165Z</time>
      </trkpt>
      <trkpt lat="46.95442" lon="6.87267">
        <ele>430.59999084473</ele>
        <time>2022-02-18T13:37:32.315Z</time>
      </trkpt>
      <trkpt lat="46.9545" lon="6.87271">
        <ele>430.59999084473</ele>
        <time>2022-02-18T13:37:40.890Z</time>
      </trkpt>
      <trkpt lat="46.9546" lon="6.87276">
        <ele>430.59999084473</ele>
        <time>2022-02-18T13:37:51.609Z</time>
      </trkpt>
      <trkpt lat="46.95464" lon="6.8728">
        <ele>430.69999694824</ele>
        <time>2022-02-18T13:37:57.668Z</time>
      </trkpt>
      <trkpt lat="46.95473" lon="6.87293">
        <ele>430.69999694824</ele>
        <time>2022-02-18T13:38:10.490Z</time>
      </trkpt>
      <trkpt lat="46.95481" lon="6.87304">
        <ele>430.79998779297</ele>
        <time>2022-02-18T13:38:22.634Z</time>
      </trkpt>
      <trkpt lat="46.95486" lon="6.87309">
        <ele>431</ele>
        <time>2022-02-18T13:38:31.440Z</time>
      </trkpt>
      <trkpt lat="46.95489" lon="6.87314">
        <ele>430.89999389648</ele>
        <time>2022-02-18T13:38:32.836Z</time>
      </trkpt>
      <trkpt lat="46.9549" lon="6.8732">
        <ele>430.89999389648</ele>
        <time>2022-02-18T13:38:37.112Z</time>
      </trkpt>
      <trkpt lat="46.95493" lon="6.8733">
        <ele>430.89999389648</ele>
        <time>2022-02-18T13:38:44.676Z</time>
      </trkpt>
      <trkpt lat="46.95495" lon="6.87339">
        <ele>431</ele>
        <time>2022-02-18T13:38:52.313Z</time>
      </trkpt>
      <trkpt lat="46.95497" lon="6.87346">
        <ele>431.09999084473</ele>
        <time>2022-02-18T13:38:58.696Z</time>
      </trkpt>
      <trkpt lat="46.95501" lon="6.87349">
        <ele>431.39999389648</ele>
        <time>2022-02-18T13:39:07.650Z</time>
      </trkpt>
      <trkpt lat="46.95507" lon="6.87355">
        <ele>431.39999389648</ele>
        <time>2022-02-18T13:39:15.020Z</time>
      </trkpt>
      <trkpt lat="46.95512" lon="6.87359">
        <ele>431.39999389648</ele>
        <time>2022-02-18T13:39:20.799Z</time>
      </trkpt>
      <trkpt lat="46.95516" lon="6.87362">
        <ele>431.39999389648</ele>
        <time>2022-02-18T13:39:25.358Z</time>
      </trkpt>
      <trkpt lat="46.95519" lon="6.87363">
        <ele>431.29998779297</ele>
        <time>2022-02-18T13:39:26.201Z</time>
      </trkpt>
      <trkpt lat="46.95524" lon="6.87368">
        <ele>430.69999694824</ele>
        <time>2022-02-18T13:39:27.544Z</time>
      </trkpt>
      <trkpt lat="46.95529" lon="6.87369">
        <ele>430.5</ele>
        <time>2022-02-18T13:39:28.833Z</time>
      </trkpt>
      <trkpt lat="46.95535" lon="6.87371">
        <ele>430.19999694824</ele>
        <time>2022-02-18T13:39:30.280Z</time>
      </trkpt>
      <trkpt lat="46.9554" lon="6.87373">
        <ele>430.19999694824</ele>
        <time>2022-02-18T13:39:35.538Z</time>
      </trkpt>
      <trkpt lat="46.95548" lon="6.87374">
        <ele>430.29998779297</ele>
        <time>2022-02-18T13:39:44.732Z</time>
      </trkpt>
      <trkpt lat="46.95556" lon="6.87376">
        <ele>429.89999389648</ele>
        <time>2022-02-18T13:39:46.630Z</time>
      </trkpt>
      <trkpt lat="46.95564" lon="6.87375">
        <ele>430.09999084473</ele>
        <time>2022-02-18T13:39:57.183Z</time>
      </trkpt>
      <trkpt lat="46.95568" lon="6.87378">
        <ele>429.89999389648</ele>
        <time>2022-02-18T13:39:58.281Z</time>
      </trkpt>
      <trkpt lat="46.95574" lon="6.8738">
        <ele>429.89999389648</ele>
        <time>2022-02-18T13:40:04.523Z</time>
      </trkpt>
      <trkpt lat="46.956" lon="6.87391">
        <ele>430.69999694824</ele>
        <time>2022-02-18T13:40:42.171Z</time>
      </trkpt>
      <trkpt lat="46.95606" lon="6.87395">
        <ele>430.59999084473</ele>
        <time>2022-02-18T13:40:44.367Z</time>
      </trkpt>
      <trkpt lat="46.95609" lon="6.87394">
        <ele>430.5</ele>
        <time>2022-02-18T13:40:45.211Z</time>
      </trkpt>
      <trkpt lat="46.95612" lon="6.87394">
        <ele>430.5</ele>
        <time>2022-02-18T13:40:48.254Z</time>
      </trkpt>
      <trkpt lat="46.95626" lon="6.87396">
        <ele>430.89999389648</ele>
        <time>2022-02-18T13:41:07.550Z</time>
      </trkpt>
      <trkpt lat="46.95637" lon="6.87398">
        <ele>430.89999389648</ele>
        <time>2022-02-18T13:41:18.794Z</time>
      </trkpt>
      <trkpt lat="46.95641" lon="6.87398">
        <ele>431</ele>
        <time>2022-02-18T13:41:24.057Z</time>
      </trkpt>
      <trkpt lat="46.95655" lon="6.87405">
        <ele>430.69999694824</ele>
        <time>2022-02-18T13:41:28.692Z</time>
      </trkpt>
      <trkpt lat="46.95657" lon="6.87406">
        <ele>430.69999694824</ele>
        <time>2022-02-18T13:41:30.836Z</time>
      </trkpt>
      <trkpt lat="46.95682" lon="6.87404">
        <ele>430.79998779297</ele>
        <time>2022-02-18T13:41:57.200Z</time>
      </trkpt>
      <trkpt lat="46.95706" lon="6.87406">
        <ele>430.5</ele>
        <time>2022-02-18T13:42:05.487Z</time>
      </trkpt>
      <trkpt lat="46.95716" lon="6.87406">
        <ele>430.39999389648</ele>
        <time>2022-02-18T13:42:09.049Z</time>
      </trkpt>
      <trkpt lat="46.95727" lon="6.87406">
        <ele>430.5</ele>
        <time>2022-02-18T13:42:21.221Z</time>
      </trkpt>
      <trkpt lat="46.95739" lon="6.87407">
        <ele>430.69999694824</ele>
        <time>2022-02-18T13:42:35.607Z</time>
      </trkpt>
      <trkpt lat="46.95742" lon="6.87406">
        <ele>430.89999389648</ele>
        <time>2022-02-18T13:42:41.659Z</time>
      </trkpt>
      <trkpt lat="46.95746" lon="6.87404">
        <ele>431</ele>
        <time>2022-02-18T13:42:47.133Z</time>
      </trkpt>
      <trkpt lat="46.9575" lon="6.87404">
        <ele>431.09999084473</ele>
        <time>2022-02-18T13:42:52.396Z</time>
      </trkpt>
      <trkpt lat="46.95773" lon="6.87408">
        <ele>431</ele>
        <time>2022-02-18T13:43:14.435Z</time>
      </trkpt>
      <trkpt lat="46.95777" lon="6.87407">
        <ele>431.09999084473</ele>
        <time>2022-02-18T13:43:19.751Z</time>
      </trkpt>
      <trkpt lat="46.95791" lon="6.87405">
        <ele>431.09999084473</ele>
        <time>2022-02-18T13:43:34.021Z</time>
      </trkpt>
      <trkpt lat="46.95801" lon="6.87406">
        <ele>431.09999084473</ele>
        <time>2022-02-18T13:43:44.189Z</time>
      </trkpt>
      <trkpt lat="46.95808" lon="6.87407">
        <ele>431.29998779297</ele>
        <time>2022-02-18T13:43:53.837Z</time>
      </trkpt>
      <trkpt lat="46.95815" lon="6.87403">
        <ele>431.09999084473</ele>
        <time>2022-02-18T13:43:56.029Z</time>
      </trkpt>
      <trkpt lat="46.9582" lon="6.87401">
        <ele>431.19999694824</ele>
        <time>2022-02-18T13:44:02.416Z</time>
      </trkpt>
      <trkpt lat="46.95826" lon="6.87398">
        <ele>431.29998779297</ele>
        <time>2022-02-18T13:44:09.933Z</time>
      </trkpt>
      <trkpt lat="46.95839" lon="6.87396">
        <ele>431.29998779297</ele>
        <time>2022-02-18T13:44:23.193Z</time>
      </trkpt>
      <trkpt lat="46.95892" lon="6.87393">
        <ele>431.19999694824</ele>
        <time>2022-02-18T13:45:15.489Z</time>
      </trkpt>
      <trkpt lat="46.95898" lon="6.87394">
        <ele>431.09999084473</ele>
        <time>2022-02-18T13:45:17.467Z</time>
      </trkpt>
      <trkpt lat="46.95905" lon="6.87397">
        <ele>431.09999084473</ele>
        <time>2022-02-18T13:45:24.866Z</time>
      </trkpt>
      <trkpt lat="46.95912" lon="6.87402">
        <ele>431.19999694824</ele>
        <time>2022-02-18T13:45:33.819Z</time>
      </trkpt>
      <trkpt lat="46.95919" lon="6.87409">
        <ele>430.79998779297</ele>
        <time>2022-02-18T13:45:35.839Z</time>
      </trkpt>
      <trkpt lat="46.9594" lon="6.87408">
        <ele>430.89999389648</ele>
        <time>2022-02-18T13:45:58.125Z</time>
      </trkpt>
      <trkpt lat="46.95945" lon="6.87408">
        <ele>430.89999389648</ele>
        <time>2022-02-18T13:46:03.198Z</time>
      </trkpt>
      <trkpt lat="46.9595" lon="6.87406">
        <ele>431.09999084473</ele>
        <time>2022-02-18T13:46:11.330Z</time>
      </trkpt>
      <trkpt lat="46.95955" lon="6.87404">
        <ele>431.19999694824</ele>
        <time>2022-02-18T13:46:17.717Z</time>
      </trkpt>
      <trkpt lat="46.95961" lon="6.874">
        <ele>431.19999694824</ele>
        <time>2022-02-18T13:46:24.404Z</time>
      </trkpt>
      <trkpt lat="46.95964" lon="6.87399">
        <ele>431.19999694824</ele>
        <time>2022-02-18T13:46:27.525Z</time>
      </trkpt>
      <trkpt lat="46.95967" lon="6.87399">
        <ele>431.29998779297</ele>
        <time>2022-02-18T13:46:31.906Z</time>
      </trkpt>
      <trkpt lat="46.95972" lon="6.87402">
        <ele>431.19999694824</ele>
        <time>2022-02-18T13:46:33.635Z</time>
      </trkpt>
      <trkpt lat="46.95973" lon="6.87403">
        <ele>431.09999084473</ele>
        <time>2022-02-18T13:46:33.903Z</time>
      </trkpt>
      <trkpt lat="46.95974" lon="6.87404">
        <ele>431.09999084473</ele>
        <time>2022-02-18T13:46:35.131Z</time>
      </trkpt>
      <trkpt lat="46.95973" lon="6.87403">
        <ele>431.09999084473</ele>
        <time>2022-02-18T13:46:36.359Z</time>
      </trkpt>
      <trkpt lat="46.95975" lon="6.87404">
        <ele>431</ele>
        <time>2022-02-18T13:46:36.863Z</time>
      </trkpt>
      <trkpt lat="46.95979" lon="6.87406">
        <ele>430.69999694824</ele>
        <time>2022-02-18T13:46:37.800Z</time>
      </trkpt>
      <trkpt lat="46.95982" lon="6.87406">
        <ele>430.69999694824</ele>
        <time>2022-02-18T13:46:40.843Z</time>
      </trkpt>
      <trkpt lat="46.95986" lon="6.87405">
        <ele>430.59999084473</ele>
        <time>2022-02-18T13:46:42.053Z</time>
      </trkpt>
      <trkpt lat="46.9599" lon="6.87405">
        <ele>430.5</ele>
        <time>2022-02-18T13:46:43.241Z</time>
      </trkpt>
      <trkpt lat="46.95995" lon="6.87408">
        <ele>430.19999694824</ele>
        <time>2022-02-18T13:46:44.440Z</time>
      </trkpt>
      <trkpt lat="46.95999" lon="6.87408">
        <ele>430</ele>
        <time>2022-02-18T13:46:45.370Z</time>
      </trkpt>
      <trkpt lat="46.96011" lon="6.87405">
        <ele>430</ele>
        <time>2022-02-18T13:46:57.719Z</time>
      </trkpt>
      <trkpt lat="46.96018" lon="6.87404">
        <ele>430.29998779297</ele>
        <time>2022-02-18T13:47:09.429Z</time>
      </trkpt>
      <trkpt lat="46.96028" lon="6.87402">
        <ele>430</ele>
        <time>2022-02-18T13:47:12.277Z</time>
      </trkpt>
      <trkpt lat="46.96035" lon="6.874">
        <ele>430</ele>
        <time>2022-02-18T13:47:19.512Z</time>
      </trkpt>
      <trkpt lat="46.96037" lon="6.87399">
        <ele>430</ele>
        <time>2022-02-18T13:47:21.656Z</time>
      </trkpt>
      <trkpt lat="46.96038" lon="6.87398">
        <ele>430</ele>
        <time>2022-02-18T13:47:22.884Z</time>
      </trkpt>
      <trkpt lat="46.96037" lon="6.87379">
        <ele>430.79998779297</ele>
        <time>2022-02-18T13:47:47.836Z</time>
      </trkpt>
      <trkpt lat="46.96035" lon="6.87354">
        <ele>431.5</ele>
        <time>2022-02-18T13:48:15.642Z</time>
      </trkpt>
      <trkpt lat="46.96035" lon="6.87349">
        <ele>431.59999084473</ele>
        <time>2022-02-18T13:48:20.374Z</time>
      </trkpt>
      <trkpt lat="46.96038" lon="6.87347">
        <ele>431.59999084473</ele>
        <time>2022-02-18T13:48:23.717Z</time>
      </trkpt>
      <trkpt lat="46.9604" lon="6.87345">
        <ele>431.59999084473</ele>
        <time>2022-02-18T13:48:26.174Z</time>
      </trkpt>
      <trkpt lat="46.9604" lon="6.87342">
        <ele>431.59999084473</ele>
        <time>2022-02-18T13:48:28.251Z</time>
      </trkpt>
      <trkpt lat="46.96041" lon="6.8734">
        <ele>431.5</ele>
        <time>2022-02-18T13:48:28.616Z</time>
      </trkpt>
      <trkpt lat="46.9604" lon="6.87334">
        <ele>431.79998779297</ele>
        <time>2022-02-18T13:48:37.297Z</time>
      </trkpt>
      <trkpt lat="46.96027" lon="6.87269">
        <ele>432.89999389648</ele>
        <time>2022-02-18T13:49:37.264Z</time>
      </trkpt>
      <trkpt lat="46.96025" lon="6.87255">
        <ele>433.69999694824</ele>
        <time>2022-02-18T13:49:59.165Z</time>
      </trkpt>
      <trkpt lat="46.96025" lon="6.87248">
        <ele>433.89999389648</ele>
        <time>2022-02-18T13:50:07.026Z</time>
      </trkpt>
      <trkpt lat="46.96025" lon="6.87242">
        <ele>434.19999694824</ele>
        <time>2022-02-18T13:50:15.596Z</time>
      </trkpt>
      <trkpt lat="46.96024" lon="6.87236">
        <ele>434.19999694824</ele>
        <time>2022-02-18T13:50:19.872Z</time>
      </trkpt>
      <trkpt lat="46.96044" lon="6.8723">
        <ele>434.19999694824</ele>
        <time>2022-02-18T13:50:40.582Z</time>
      </trkpt>
      <trkpt lat="46.96082" lon="6.87219">
        <ele>434.19999694824</ele>
        <time>2022-02-18T13:51:19.876Z</time>
      </trkpt>
      <trkpt lat="46.96177" lon="6.8719">
        <ele>434.09999084473</ele>
        <time>2022-02-18T13:52:56.789Z</time>
      </trkpt>
      <trkpt lat="46.96194" lon="6.87185">
        <ele>434.19999694824</ele>
        <time>2022-02-18T13:53:15.360Z</time>
      </trkpt>
      <trkpt lat="46.96198" lon="6.87183">
        <ele>434.19999694824</ele>
        <time>2022-02-18T13:53:19.647Z</time>
      </trkpt>
      <trkpt lat="46.96198" lon="6.87187">
        <ele>434.39999389648</ele>
        <time>2022-02-18T13:53:25.360Z</time>
      </trkpt>
      <trkpt lat="46.96202" lon="6.87192">
        <ele>433.79998779297</ele>
        <time>2022-02-18T13:53:26.526Z</time>
      </trkpt>
      <trkpt lat="46.96204" lon="6.87195">
        <ele>433.39999389648</ele>
        <time>2022-02-18T13:53:27.161Z</time>
      </trkpt>
      <trkpt lat="46.96205" lon="6.872">
        <ele>432.69999694824</ele>
        <time>2022-02-18T13:53:27.950Z</time>
      </trkpt>
      <trkpt lat="46.96209" lon="6.87211">
        <ele>431.79998779297</ele>
        <time>2022-02-18T13:53:29.836Z</time>
      </trkpt>
      <trkpt lat="46.96215" lon="6.87225">
        <ele>431.79998779297</ele>
        <time>2022-02-18T13:53:41.282Z</time>
      </trkpt>
      <trkpt lat="46.9622" lon="6.87235">
        <ele>431.5</ele>
        <time>2022-02-18T13:53:43.533Z</time>
      </trkpt>
      <trkpt lat="46.96223" lon="6.87245">
        <ele>431.5</ele>
        <time>2022-02-18T13:53:51.096Z</time>
      </trkpt>
      <trkpt lat="46.96223" lon="6.87255">
        <ele>431.19999694824</ele>
        <time>2022-02-18T13:53:52.771Z</time>
      </trkpt>
      <trkpt lat="46.96221" lon="6.87262">
        <ele>431.79998779297</ele>
        <time>2022-02-18T13:54:08.929Z</time>
      </trkpt>
      <trkpt lat="46.96218" lon="6.87268">
        <ele>431.59999084473</ele>
        <time>2022-02-18T13:54:10.229Z</time>
      </trkpt>
      <trkpt lat="46.96219" lon="6.87281">
        <ele>431.39999389648</ele>
        <time>2022-02-18T13:54:12.959Z</time>
      </trkpt>
      <trkpt lat="46.9622" lon="6.87288">
        <ele>431.19999694824</ele>
        <time>2022-02-18T13:54:14.190Z</time>
      </trkpt>
      <trkpt lat="46.96222" lon="6.87294">
        <ele>431</ele>
        <time>2022-02-18T13:54:15.309Z</time>
      </trkpt>
      <trkpt lat="46.96225" lon="6.87298">
        <ele>431.19999694824</ele>
        <time>2022-02-18T13:54:22.472Z</time>
      </trkpt>
      <trkpt lat="46.96229" lon="6.87301">
        <ele>431</ele>
        <time>2022-02-18T13:54:23.569Z</time>
      </trkpt>
      <trkpt lat="46.96234" lon="6.87303">
        <ele>430.79998779297</ele>
        <time>2022-02-18T13:54:24.907Z</time>
      </trkpt>
      <trkpt lat="46.96239" lon="6.87305">
        <ele>430.79998779297</ele>
        <time>2022-02-18T13:54:30.164Z</time>
      </trkpt>
      <trkpt lat="46.96251" lon="6.87308">
        <ele>430.69999694824</ele>
        <time>2022-02-18T13:54:34.605Z</time>
      </trkpt>
      <trkpt lat="46.96261" lon="6.87312">
        <ele>430.79998779297</ele>
        <time>2022-02-18T13:54:46.140Z</time>
      </trkpt>
      <trkpt lat="46.96271" lon="6.87318">
        <ele>430.5</ele>
        <time>2022-02-18T13:54:49.253Z</time>
      </trkpt>
      <trkpt lat="46.96286" lon="6.87322">
        <ele>430.39999389648</ele>
        <time>2022-02-18T13:55:03.308Z</time>
      </trkpt>
      <trkpt lat="46.96293" lon="6.87323">
        <ele>430.39999389648</ele>
        <time>2022-02-18T13:55:10.443Z</time>
      </trkpt>
      <trkpt lat="46.96301" lon="6.87326">
        <ele>430.29998779297</ele>
        <time>2022-02-18T13:55:13.303Z</time>
      </trkpt>
      <trkpt lat="46.96309" lon="6.87328">
        <ele>430.5</ele>
        <time>2022-02-18T13:55:23.937Z</time>
      </trkpt>
      <trkpt lat="46.96317" lon="6.8733">
        <ele>430.59999084473</ele>
        <time>2022-02-18T13:55:33.217Z</time>
      </trkpt>
      <trkpt lat="46.96318" lon="6.87332">
        <ele>430.59999084473</ele>
        <time>2022-02-18T13:55:34.933Z</time>
      </trkpt>
      <trkpt lat="46.9632" lon="6.87333">
        <ele>430.39999389648</ele>
        <time>2022-02-18T13:55:35.402Z</time>
      </trkpt>
      <trkpt lat="46.96324" lon="6.87337">
        <ele>430.29998779297</ele>
        <time>2022-02-18T13:55:36.913Z</time>
      </trkpt>
      <trkpt lat="46.96329" lon="6.87341">
        <ele>430.09999084473</ele>
        <time>2022-02-18T13:55:38.434Z</time>
      </trkpt>
      <trkpt lat="46.96334" lon="6.87347">
        <ele>430.09999084473</ele>
        <time>2022-02-18T13:55:44.990Z</time>
      </trkpt>
      <trkpt lat="46.96342" lon="6.8736">
        <ele>430.09999084473</ele>
        <time>2022-02-18T13:55:57.109Z</time>
      </trkpt>
      <trkpt lat="46.96348" lon="6.87371">
        <ele>430.09999084473</ele>
        <time>2022-02-18T13:56:06.858Z</time>
      </trkpt>
      <trkpt lat="46.96351" lon="6.8738">
        <ele>430.29998779297</ele>
        <time>2022-02-18T13:56:16.332Z</time>
      </trkpt>
      <trkpt lat="46.96354" lon="6.87386">
        <ele>430.09999084473</ele>
        <time>2022-02-18T13:56:17.631Z</time>
      </trkpt>
      <trkpt lat="46.96358" lon="6.87394">
        <ele>430</ele>
        <time>2022-02-18T13:56:19.898Z</time>
      </trkpt>
      <trkpt lat="46.96365" lon="6.87398">
        <ele>429.89999389648</ele>
        <time>2022-02-18T13:56:22.461Z</time>
      </trkpt>
      <trkpt lat="46.96373" lon="6.87401">
        <ele>429.89999389648</ele>
        <time>2022-02-18T13:56:30.838Z</time>
      </trkpt>
      <trkpt lat="46.96381" lon="6.87403">
        <ele>429.89999389648</ele>
        <time>2022-02-18T13:56:39.071Z</time>
      </trkpt>
      <trkpt lat="46.96395" lon="6.87406">
        <ele>430</ele>
        <time>2022-02-18T13:56:54.418Z</time>
      </trkpt>
      <trkpt lat="46.9641" lon="6.87407">
        <ele>429.89999389648</ele>
        <time>2022-02-18T13:57:08.240Z</time>
      </trkpt>
      <trkpt lat="46.9642" lon="6.87407">
        <ele>429.89999389648</ele>
        <time>2022-02-18T13:57:18.385Z</time>
      </trkpt>
      <trkpt lat="46.9644" lon="6.87407">
        <ele>429.69999694824</ele>
        <time>2022-02-18T13:57:25.507Z</time>
      </trkpt>
      <trkpt lat="46.96467" lon="6.87407">
        <ele>430.29998779297</ele>
        <time>2022-02-18T13:57:59.898Z</time>
      </trkpt>
      <trkpt lat="46.96469" lon="6.87408">
        <ele>430.29998779297</ele>
        <time>2022-02-18T13:58:02.041Z</time>
      </trkpt>
      <trkpt lat="46.96472" lon="6.87414">
        <ele>430.09999084473</ele>
        <time>2022-02-18T13:58:03.341Z</time>
      </trkpt>
      <trkpt lat="46.96475" lon="6.87418">
        <ele>430.39999389648</ele>
        <time>2022-02-18T13:58:11.876Z</time>
      </trkpt>
      <trkpt lat="46.96477" lon="6.87419">
        <ele>430.09999084473</ele>
        <time>2022-02-18T13:58:12.345Z</time>
      </trkpt>
      <trkpt lat="46.96479" lon="6.87421">
        <ele>430.29998779297</ele>
        <time>2022-02-18T13:58:17.806Z</time>
      </trkpt>
      <trkpt lat="46.9648" lon="6.87421">
        <ele>430.29998779297</ele>
        <time>2022-02-18T13:58:18.821Z</time>
      </trkpt>
      <trkpt lat="46.96479" lon="6.87421">
        <ele>430.19999694824</ele>
        <time>2022-02-18T13:58:19.043Z</time>
      </trkpt>
      <trkpt lat="46.96499" lon="6.87426">
        <ele>430.39999389648</ele>
        <time>2022-02-18T13:58:41.668Z</time>
      </trkpt>
      <trkpt lat="46.96507" lon="6.87427">
        <ele>430.09999084473</ele>
        <time>2022-02-18T13:58:43.765Z</time>
      </trkpt>
      <trkpt lat="46.96511" lon="6.87427">
        <ele>430.39999389648</ele>
        <time>2022-02-18T13:58:52.250Z</time>
      </trkpt>
      <trkpt lat="46.96514" lon="6.87425">
        <ele>430.39999389648</ele>
        <time>2022-02-18T13:58:55.593Z</time>
      </trkpt>
      <trkpt lat="46.96517" lon="6.87421">
        <ele>430.39999389648</ele>
        <time>2022-02-18T13:58:59.708Z</time>
      </trkpt>
      <trkpt lat="46.96519" lon="6.87417">
        <ele>430.39999389648</ele>
        <time>2022-02-18T13:59:03.141Z</time>
      </trkpt>
      <trkpt lat="46.96521" lon="6.87416">
        <ele>430.69999694824</ele>
        <time>2022-02-18T13:59:11.410Z</time>
      </trkpt>
      <trkpt lat="46.96523" lon="6.87416">
        <ele>430.69999694824</ele>
        <time>2022-02-18T13:59:13.439Z</time>
      </trkpt>
      <trkpt lat="46.96529" lon="6.87415">
        <ele>430.69999694824</ele>
        <time>2022-02-18T13:59:19.565Z</time>
      </trkpt>
      <trkpt lat="46.96539" lon="6.87416">
        <ele>430.89999389648</ele>
        <time>2022-02-18T13:59:32.007Z</time>
      </trkpt>
      <trkpt lat="46.96554" lon="6.87418">
        <ele>430.39999389648</ele>
        <time>2022-02-18T13:59:36.107Z</time>
      </trkpt>
      <trkpt lat="46.96565" lon="6.87418">
        <ele>430.39999389648</ele>
        <time>2022-02-18T13:59:47.266Z</time>
      </trkpt>
      <trkpt lat="46.96571" lon="6.87417">
        <ele>430.39999389648</ele>
        <time>2022-02-18T13:59:53.392Z</time>
      </trkpt>
      <trkpt lat="46.96578" lon="6.87416">
        <ele>430.39999389648</ele>
        <time>2022-02-18T14:00:00.527Z</time>
      </trkpt>
      <trkpt lat="46.96587" lon="6.87412">
        <ele>430.19999694824</ele>
        <time>2022-02-18T14:00:03.440Z</time>
      </trkpt>
      <trkpt lat="46.96594" lon="6.87409">
        <ele>429.89999389648</ele>
        <time>2022-02-18T14:00:05.278Z</time>
      </trkpt>
      <trkpt lat="46.96601" lon="6.87405">
        <ele>429.69999694824</ele>
        <time>2022-02-18T14:00:07.469Z</time>
      </trkpt>
      <trkpt lat="46.96609" lon="6.87398">
        <ele>429.69999694824</ele>
        <time>2022-02-18T14:00:16.922Z</time>
      </trkpt>
      <trkpt lat="46.96617" lon="6.87389">
        <ele>429.89999389648</ele>
        <time>2022-02-18T14:00:29.424Z</time>
      </trkpt>
      <trkpt lat="46.96625" lon="6.87377">
        <ele>429.89999389648</ele>
        <time>2022-02-18T14:00:41.038Z</time>
      </trkpt>
      <trkpt lat="46.96641" lon="6.87352">
        <ele>430</ele>
        <time>2022-02-18T14:01:05.733Z</time>
      </trkpt>
      <trkpt lat="46.9665" lon="6.87336">
        <ele>430.39999389648</ele>
        <time>2022-02-18T14:01:25.103Z</time>
      </trkpt>
      <trkpt lat="46.96654" lon="6.8733">
        <ele>430.39999389648</ele>
        <time>2022-02-18T14:01:30.909Z</time>
      </trkpt>
      <trkpt lat="46.9666" lon="6.87324">
        <ele>430.39999389648</ele>
        <time>2022-02-18T14:01:38.278Z</time>
      </trkpt>
      <trkpt lat="46.96666" lon="6.87317">
        <ele>430.39999389648</ele>
        <time>2022-02-18T14:01:46.059Z</time>
      </trkpt>
      <trkpt lat="46.96691" lon="6.87295">
        <ele>430.69999694824</ele>
        <time>2022-02-18T14:02:18.719Z</time>
      </trkpt>
      <trkpt lat="46.967" lon="6.8729">
        <ele>430.39999389648</ele>
        <time>2022-02-18T14:02:21.395Z</time>
      </trkpt>
      <trkpt lat="46.96704" lon="6.87289">
        <ele>430.19999694824</ele>
        <time>2022-02-18T14:02:22.344Z</time>
      </trkpt>
      <trkpt lat="46.96706" lon="6.8729">
        <ele>429.89999389648</ele>
        <time>2022-02-18T14:02:22.813Z</time>
      </trkpt>
      <trkpt lat="46.96709" lon="6.87292">
        <ele>430.19999694824</ele>
        <time>2022-02-18T14:02:30.808Z</time>
      </trkpt>
      <trkpt lat="46.96724" lon="6.87298">
        <ele>430.19999694824</ele>
        <time>2022-02-18T14:02:46.582Z</time>
      </trkpt>
      <trkpt lat="46.96735" lon="6.87302">
        <ele>430.29998779297</ele>
        <time>2022-02-18T14:02:59.090Z</time>
      </trkpt>
      <trkpt lat="46.96741" lon="6.87305">
        <ele>430.19999694824</ele>
        <time>2022-02-18T14:03:01.187Z</time>
      </trkpt>
      <trkpt lat="46.96749" lon="6.87311">
        <ele>430.19999694824</ele>
        <time>2022-02-18T14:03:10.304Z</time>
      </trkpt>
      <trkpt lat="46.96756" lon="6.87318">
        <ele>429.89999389648</ele>
        <time>2022-02-18T14:03:12.560Z</time>
      </trkpt>
      <trkpt lat="46.96761" lon="6.87322">
        <ele>429.79998779297</ele>
        <time>2022-02-18T14:03:14.404Z</time>
      </trkpt>
      <trkpt lat="46.96768" lon="6.87328">
        <ele>430</ele>
        <time>2022-02-18T14:03:25.032Z</time>
      </trkpt>
      <trkpt lat="46.96776" lon="6.87332">
        <ele>430</ele>
        <time>2022-02-18T14:03:33.607Z</time>
      </trkpt>
      <trkpt lat="46.96781" lon="6.87336">
        <ele>429.79998779297</ele>
        <time>2022-02-18T14:03:35.128Z</time>
      </trkpt>
      <trkpt lat="46.96785" lon="6.87338">
        <ele>429.69999694824</ele>
        <time>2022-02-18T14:03:36.402Z</time>
      </trkpt>
      <trkpt lat="46.96788" lon="6.87338">
        <ele>429.69999694824</ele>
        <time>2022-02-18T14:03:39.445Z</time>
      </trkpt>
      <trkpt lat="46.96791" lon="6.87337">
        <ele>429.79998779297</ele>
        <time>2022-02-18T14:03:43.889Z</time>
      </trkpt>
      <trkpt lat="46.96793" lon="6.87336">
        <ele>429.79998779297</ele>
        <time>2022-02-18T14:03:46.033Z</time>
      </trkpt>
      <trkpt lat="46.96796" lon="6.87336">
        <ele>429.79998779297</ele>
        <time>2022-02-18T14:03:49.076Z</time>
      </trkpt>
      <trkpt lat="46.96801" lon="6.87339">
        <ele>429.79998779297</ele>
        <time>2022-02-18T14:03:54.557Z</time>
      </trkpt>
      <trkpt lat="46.96804" lon="6.87344">
        <ele>429.89999389648</ele>
        <time>2022-02-18T14:04:00.330Z</time>
      </trkpt>
      <trkpt lat="46.96807" lon="6.87347">
        <ele>429.89999389648</ele>
        <time>2022-02-18T14:04:04.015Z</time>
      </trkpt>
      <trkpt lat="46.96812" lon="6.87351">
        <ele>429.79998779297</ele>
        <time>2022-02-18T14:04:05.858Z</time>
      </trkpt>
      <trkpt lat="46.96832" lon="6.87361">
        <ele>429.89999389648</ele>
        <time>2022-02-18T14:04:28.267Z</time>
      </trkpt>
      <trkpt lat="46.96839" lon="6.87366">
        <ele>429.89999389648</ele>
        <time>2022-02-18T14:04:36.167Z</time>
      </trkpt>
      <trkpt lat="46.96846" lon="6.8737">
        <ele>429.89999389648</ele>
        <time>2022-02-18T14:04:43.789Z</time>
      </trkpt>
      <trkpt lat="46.96852" lon="6.87373">
        <ele>429.89999389648</ele>
        <time>2022-02-18T14:04:50.220Z</time>
      </trkpt>
      <trkpt lat="46.96856" lon="6.87375">
        <ele>430</ele>
        <time>2022-02-18T14:04:55.694Z</time>
      </trkpt>
      <trkpt lat="46.96866" lon="6.87378">
        <ele>429.89999389648</ele>
        <time>2022-02-18T14:04:59.339Z</time>
      </trkpt>
      <trkpt lat="46.96872" lon="6.8738">
        <ele>429.89999389648</ele>
        <time>2022-02-18T14:05:05.581Z</time>
      </trkpt>
      <trkpt lat="46.9688" lon="6.87384">
        <ele>429.79998779297</ele>
        <time>2022-02-18T14:05:08.520Z</time>
      </trkpt>
      <trkpt lat="46.96885" lon="6.87388">
        <ele>429.69999694824</ele>
        <time>2022-02-18T14:05:10.364Z</time>
      </trkpt>
      <trkpt lat="46.96889" lon="6.8739">
        <ele>429.69999694824</ele>
        <time>2022-02-18T14:05:14.651Z</time>
      </trkpt>
      <trkpt lat="46.96896" lon="6.87393">
        <ele>429.89999389648</ele>
        <time>2022-02-18T14:05:24.532Z</time>
      </trkpt>
      <trkpt lat="46.96901" lon="6.87397">
        <ele>429.69999694824</ele>
        <time>2022-02-18T14:05:26.053Z</time>
      </trkpt>
      <trkpt lat="46.96905" lon="6.87401">
        <ele>429.69999694824</ele>
        <time>2022-02-18T14:05:30.965Z</time>
      </trkpt>
      <trkpt lat="46.9691" lon="6.87404">
        <ele>429.69999694824</ele>
        <time>2022-02-18T14:05:36.446Z</time>
      </trkpt>
      <trkpt lat="46.96919" lon="6.87406">
        <ele>429.69999694824</ele>
        <time>2022-02-18T14:05:45.681Z</time>
      </trkpt>
      <trkpt lat="46.96924" lon="6.87406">
        <ele>429.89999389648</ele>
        <time>2022-02-18T14:05:53.686Z</time>
      </trkpt>
      <trkpt lat="46.96937" lon="6.87409">
        <ele>430</ele>
        <time>2022-02-18T14:06:08.035Z</time>
      </trkpt>
      <trkpt lat="46.96941" lon="6.8741">
        <ele>430</ele>
        <time>2022-02-18T14:06:12.152Z</time>
      </trkpt>
      <trkpt lat="46.96958" lon="6.87417">
        <ele>430.19999694824</ele>
        <time>2022-02-18T14:06:32.139Z</time>
      </trkpt>
      <trkpt lat="46.96964" lon="6.87419">
        <ele>430.19999694824</ele>
        <time>2022-02-18T14:06:38.381Z</time>
      </trkpt>
      <trkpt lat="46.96967" lon="6.8742">
        <ele>430.19999694824</ele>
        <time>2022-02-18T14:06:41.502Z</time>
      </trkpt>
      <trkpt lat="46.96968" lon="6.8742">
        <ele>430.19999694824</ele>
        <time>2022-02-18T14:06:42.517Z</time>
      </trkpt>
      <trkpt lat="46.96967" lon="6.8742">
        <ele>430.19999694824</ele>
        <time>2022-02-18T14:06:43.531Z</time>
      </trkpt>
      <trkpt lat="46.96971" lon="6.8742">
        <ele>430.09999084473</ele>
        <time>2022-02-18T14:06:44.719Z</time>
      </trkpt>
      <trkpt lat="46.96976" lon="6.87419">
        <ele>430.19999694824</ele>
        <time>2022-02-18T14:06:50.974Z</time>
      </trkpt>
      <trkpt lat="46.96983" lon="6.87417">
        <ele>430.19999694824</ele>
        <time>2022-02-18T14:06:58.209Z</time>
      </trkpt>
      <trkpt lat="46.96986" lon="6.87415">
        <ele>430.19999694824</ele>
        <time>2022-02-18T14:07:01.552Z</time>
      </trkpt>
      <trkpt lat="46.97001" lon="6.87396">
        <ele>430.29998779297</ele>
        <time>2022-02-18T14:07:22.639Z</time>
      </trkpt>
      <trkpt lat="46.97008" lon="6.87387">
        <ele>430.29998779297</ele>
        <time>2022-02-18T14:07:32.086Z</time>
      </trkpt>
      <trkpt lat="46.97016" lon="6.87376">
        <ele>430.29998779297</ele>
        <time>2022-02-18T14:07:43.215Z</time>
      </trkpt>
      <trkpt lat="46.97024" lon="6.87365">
        <ele>430.29998779297</ele>
        <time>2022-02-18T14:07:54.344Z</time>
      </trkpt>
      <trkpt lat="46.97034" lon="6.87353">
        <ele>430.29998779297</ele>
        <time>2022-02-18T14:08:07.455Z</time>
      </trkpt>
      <trkpt lat="46.97039" lon="6.87348">
        <ele>430.69999694824</ele>
        <time>2022-02-18T14:08:19.457Z</time>
      </trkpt>
      <trkpt lat="46.97044" lon="6.87344">
        <ele>430.69999694824</ele>
        <time>2022-02-18T14:08:25.236Z</time>
      </trkpt>
      <trkpt lat="46.97048" lon="6.87343">
        <ele>430.79998779297</ele>
        <time>2022-02-18T14:08:30.553Z</time>
      </trkpt>
      <trkpt lat="46.97054" lon="6.87343">
        <ele>430.69999694824</ele>
        <time>2022-02-18T14:08:32.516Z</time>
      </trkpt>
      <trkpt lat="46.97054" lon="6.87348">
        <ele>430.69999694824</ele>
        <time>2022-02-18T14:08:35.977Z</time>
      </trkpt>
      <trkpt lat="46.97058" lon="6.87359">
        <ele>430.59999084473</ele>
        <time>2022-02-18T14:08:38.937Z</time>
      </trkpt>
      <trkpt lat="46.97062" lon="6.8737">
        <ele>430.59999084473</ele>
        <time>2022-02-18T14:08:47.565Z</time>
      </trkpt>
      <trkpt lat="46.97075" lon="6.87399">
        <ele>430.59999084473</ele>
        <time>2022-02-18T14:09:11.584Z</time>
      </trkpt>
      <trkpt lat="46.97088" lon="6.87431">
        <ele>430.39999389648</ele>
        <time>2022-02-18T14:09:20.898Z</time>
      </trkpt>
      <trkpt lat="46.97091" lon="6.8744">
        <ele>430.39999389648</ele>
        <time>2022-02-18T14:09:27.831Z</time>
      </trkpt>
      <trkpt lat="46.97092" lon="6.87444">
        <ele>430.59999084473</ele>
        <time>2022-02-18T14:09:33.712Z</time>
      </trkpt>
      <trkpt lat="46.97093" lon="6.87454">
        <ele>430.5</ele>
        <time>2022-02-18T14:09:36.029Z</time>
      </trkpt>
      <trkpt lat="46.971" lon="6.87474">
        <ele>430.5</ele>
        <time>2022-02-18T14:09:51.589Z</time>
      </trkpt>
      <trkpt lat="46.97103" lon="6.87482">
        <ele>430.69999694824</ele>
        <time>2022-02-18T14:10:00.541Z</time>
      </trkpt>
      <trkpt lat="46.97105" lon="6.87485">
        <ele>430.5</ele>
        <time>2022-02-18T14:10:01.175Z</time>
      </trkpt>
      <trkpt lat="46.97106" lon="6.87487">
        <ele>430.59999084473</ele>
        <time>2022-02-18T14:10:04.367Z</time>
      </trkpt>
      <trkpt lat="46.97119" lon="6.87526">
        <ele>430.69999694824</ele>
        <time>2022-02-18T14:10:35.372Z</time>
      </trkpt>
      <trkpt lat="46.97119" lon="6.8753">
        <ele>430.69999694824</ele>
        <time>2022-02-18T14:10:38.141Z</time>
      </trkpt>
      <trkpt lat="46.97125" lon="6.8753">
        <ele>430.69999694824</ele>
        <time>2022-02-18T14:10:44.227Z</time>
      </trkpt>
      <trkpt lat="46.97125" lon="6.87527">
        <ele>430.69999694824</ele>
        <time>2022-02-18T14:10:46.304Z</time>
      </trkpt>
      <trkpt lat="46.97126" lon="6.87525">
        <ele>430.79998779297</ele>
        <time>2022-02-18T14:10:49.496Z</time>
      </trkpt>
      <trkpt lat="46.97128" lon="6.87521">
        <ele>430.79998779297</ele>
        <time>2022-02-18T14:10:52.928Z</time>
      </trkpt>
      <trkpt lat="46.97131" lon="6.87517">
        <ele>430.79998779297</ele>
        <time>2022-02-18T14:10:57.043Z</time>
      </trkpt>
      <trkpt lat="46.97136" lon="6.87514">
        <ele>431</ele>
        <time>2022-02-18T14:11:05.336Z</time>
      </trkpt>
      <trkpt lat="46.97142" lon="6.87511">
        <ele>431</ele>
        <time>2022-02-18T14:11:11.767Z</time>
      </trkpt>
      <trkpt lat="46.97147" lon="6.87511">
        <ele>431</ele>
        <time>2022-02-18T14:11:16.839Z</time>
      </trkpt>
      <trkpt lat="46.97154" lon="6.87511">
        <ele>431.09999084473</ele>
        <time>2022-02-18T14:11:25.009Z</time>
      </trkpt>
      <trkpt lat="46.97158" lon="6.8751">
        <ele>431.19999694824</ele>
        <time>2022-02-18T14:11:30.326Z</time>
      </trkpt>
      <trkpt lat="46.97162" lon="6.87508">
        <ele>431.09999084473</ele>
        <time>2022-02-18T14:11:31.600Z</time>
      </trkpt>
      <trkpt lat="46.97165" lon="6.87507">
        <ele>431.19999694824</ele>
        <time>2022-02-18T14:11:36.044Z</time>
      </trkpt>
      <trkpt lat="46.97166" lon="6.87507">
        <ele>431.19999694824</ele>
        <time>2022-02-18T14:11:37.059Z</time>
      </trkpt>
      <trkpt lat="46.97165" lon="6.87507">
        <ele>431.19999694824</ele>
        <time>2022-02-18T14:11:38.073Z</time>
      </trkpt>
      <trkpt lat="46.9717" lon="6.87504">
        <ele>431.19999694824</ele>
        <time>2022-02-18T14:11:43.554Z</time>
      </trkpt>
      <trkpt lat="46.97174" lon="6.87513">
        <ele>431.09999084473</ele>
        <time>2022-02-18T14:11:46.044Z</time>
      </trkpt>
      <trkpt lat="46.97179" lon="6.87526">
        <ele>430.89999389648</ele>
        <time>2022-02-18T14:11:49.258Z</time>
      </trkpt>
      <trkpt lat="46.97182" lon="6.87533">
        <ele>430.69999694824</ele>
        <time>2022-02-18T14:11:50.759Z</time>
      </trkpt>
      <trkpt lat="46.97186" lon="6.8754">
        <ele>430.69999694824</ele>
        <time>2022-02-18T14:11:57.079Z</time>
      </trkpt>
      <trkpt lat="46.9719" lon="6.87546">
        <ele>430.59999084473</ele>
        <time>2022-02-18T14:11:58.934Z</time>
      </trkpt>
      <trkpt lat="46.97193" lon="6.87548">
        <ele>430.39999389648</ele>
        <time>2022-02-18T14:11:59.635Z</time>
      </trkpt>
      <trkpt lat="46.97199" lon="6.87562">
        <ele>430.5</ele>
        <time>2022-02-18T14:12:12.090Z</time>
      </trkpt>
      <trkpt lat="46.97204" lon="6.87558">
        <ele>430.5</ele>
        <time>2022-02-18T14:12:17.869Z</time>
      </trkpt>
      <trkpt lat="46.97207" lon="6.87556">
        <ele>429.19999694824</ele>
        <time>2022-02-18T14:12:18.600Z</time>
      </trkpt>
      <trkpt lat="46.9721" lon="6.87553">
        <ele>428.89999389648</ele>
        <time>2022-02-18T14:12:19.406Z</time>
      </trkpt>
      <trkpt lat="46.97211" lon="6.87552">
        <ele>429</ele>
        <time>2022-02-18T14:12:22.137Z</time>
      </trkpt>
      <trkpt lat="46.97261" lon="6.87507">
        <ele>428.39999389648</ele>
        <time>2022-02-18T14:12:42.970Z</time>
      </trkpt>
      <trkpt lat="46.97262" lon="6.87508">
        <ele>428.39999389648</ele>
        <time>2022-02-18T14:12:44.198Z</time>
      </trkpt>
      <trkpt lat="46.97263" lon="6.87509">
        <ele>428.39999389648</ele>
        <time>2022-02-18T14:12:45.426Z</time>
      </trkpt>
      <trkpt lat="46.97264" lon="6.87512">
        <ele>428.59999084473</ele>
        <time>2022-02-18T14:12:50.797Z</time>
      </trkpt>
      <trkpt lat="46.97269" lon="6.87524">
        <ele>429.39999389648</ele>
        <time>2022-02-18T14:13:12.580Z</time>
      </trkpt>
      <trkpt lat="46.97271" lon="6.87525">
        <ele>429.39999389648</ele>
        <time>2022-02-18T14:13:14.724Z</time>
      </trkpt>
      <trkpt lat="46.97272" lon="6.87524">
        <ele>429.39999389648</ele>
        <time>2022-02-18T14:13:15.952Z</time>
      </trkpt>
      <trkpt lat="46.97272" lon="6.87523">
        <ele>429.39999389648</ele>
        <time>2022-02-18T14:13:16.644Z</time>
      </trkpt>
      <trkpt lat="46.97272" lon="6.87522">
        <ele>429.39999389648</ele>
        <time>2022-02-18T14:13:17.336Z</time>
      </trkpt>
      <trkpt lat="46.97271" lon="6.87517">
        <ele>429.59999084473</ele>
        <time>2022-02-18T14:13:23.912Z</time>
      </trkpt>
      <trkpt lat="46.97269" lon="6.87507">
        <ele>430.09999084473</ele>
        <time>2022-02-18T14:13:38.462Z</time>
      </trkpt>
      <trkpt lat="46.97269" lon="6.87506">
        <ele>430.09999084473</ele>
        <time>2022-02-18T14:13:39.154Z</time>
      </trkpt>
      <trkpt lat="46.97271" lon="6.87505">
        <ele>430.09999084473</ele>
        <time>2022-02-18T14:13:41.298Z</time>
      </trkpt>
      <trkpt lat="46.97268" lon="6.87496">
        <ele>430.09999084473</ele>
        <time>2022-02-18T14:13:48.231Z</time>
      </trkpt>
      <trkpt lat="46.97267" lon="6.87489">
        <ele>430.19999694824</ele>
        <time>2022-02-18T14:13:54.326Z</time>
      </trkpt>
      <trkpt lat="46.97266" lon="6.8748">
        <ele>430.29998779297</ele>
        <time>2022-02-18T14:14:01.727Z</time>
      </trkpt>
      <trkpt lat="46.97264" lon="6.87473">
        <ele>430.5</ele>
        <time>2022-02-18T14:14:09.857Z</time>
      </trkpt>
      <trkpt lat="46.97258" lon="6.87459">
        <ele>430.5</ele>
        <time>2022-02-18T14:14:21.301Z</time>
      </trkpt>
      <trkpt lat="46.97259" lon="6.87459">
        <ele>430.5</ele>
        <time>2022-02-18T14:14:22.315Z</time>
      </trkpt>
    </trkseg>
  </trk>
</gpx>